<?xml version="1.0" encoding="UTF-8" standalone="no" ?><gpx xmlns="http://www.topografix.com/GPX/1/1" xmlns:gpxx="http://www.garmin.com/xmlschemas/GpxExtensions/v3" xmlns:wptx1="http://www.garmin.com/xmlschemas/WaypointExtension/v1" xmlns:gpxtpx="http://www.garmin.com/xmlschemas/TrackPointExtension/v1" creator="GuideVTT.com" version="1.1" xmlns:xsi="http://www.w3.org/2001/XMLSchema-instance" xsi:schemaLocation="http://www.topografix.com/GPX/1/1 http://www.topografix.com/GPX/1/1/gpx.xsd http://www.garmin.com/xmlschemas/GpxExtensions/v3 http://www8.garmin.com/xmlschemas/GpxExtensionsv3.xsd http://www.garmin.com/xmlschemas/WaypointExtension/v1 http://www8.garmin.com/xmlschemas/WaypointExtensionv1.xsd http://www.garmin.com/xmlschemas/TrackPointExtension/v1 http://www.garmin.com/xmlschemas/TrackPointExtensionv1.xsd">
<metadata><link href="http://www.garmin.com"><text>Garmin International</text></link><time>2013-06-22T15:13:50Z</time></metadata>
<trk><name>2023rp24.gpx</name><extensions><gpxx:TrackExtension><gpxx:DisplayColor>Cyan</gpxx:DisplayColor></gpxx:TrackExtension></extensions><trkseg>
<trkpt lat="46.7406" lon="6.45665"><ele>772.4</ele><time>2023-09-20T16:38:58Z</time></trkpt>
<trkpt lat="46.7407" lon="6.45661"><ele>772.8</ele><time>2023-09-20T16:39:01Z</time></trkpt>
<trkpt lat="46.74073" lon="6.45659"><ele>773.2</ele><time>2023-09-20T16:39:03Z</time></trkpt>
<trkpt lat="46.74077" lon="6.45657"><ele>773.8</ele><time>2023-09-20T16:39:07Z</time></trkpt>
<trkpt lat="46.74082" lon="6.45657"><ele>774.4</ele><time>2023-09-20T16:39:11Z</time></trkpt>
<trkpt lat="46.74085" lon="6.45655"><ele>774.8</ele><time>2023-09-20T16:39:14Z</time></trkpt>
<trkpt lat="46.74088" lon="6.45651"><ele>775.4</ele><time>2023-09-20T16:39:18Z</time></trkpt>
<trkpt lat="46.74089" lon="6.4565"><ele>776</ele><time>2023-09-20T16:39:21Z</time></trkpt>
<trkpt lat="46.74093" lon="6.45649"><ele>776.6</ele><time>2023-09-20T16:39:25Z</time></trkpt>
<trkpt lat="46.74095" lon="6.45649"><ele>776.8</ele><time>2023-09-20T16:39:27Z</time></trkpt>
<trkpt lat="46.74101" lon="6.4565"><ele>777.6</ele><time>2023-09-20T16:39:32Z</time></trkpt>
<trkpt lat="46.74104" lon="6.45649"><ele>777.8</ele><time>2023-09-20T16:39:34Z</time></trkpt>
<trkpt lat="46.74107" lon="6.45649"><ele>778.2</ele><time>2023-09-20T16:39:36Z</time></trkpt>
<trkpt lat="46.74111" lon="6.45649"><ele>778.6</ele><time>2023-09-20T16:39:39Z</time></trkpt>
<trkpt lat="46.74112" lon="6.45649"><ele>778.8</ele><time>2023-09-20T16:39:40Z</time></trkpt>
<trkpt lat="46.74112" lon="6.4565"><ele>779</ele><time>2023-09-20T16:39:41Z</time></trkpt>
<trkpt lat="46.74115" lon="6.45649"><ele>779.8</ele><time>2023-09-20T16:39:45Z</time></trkpt>
<trkpt lat="46.74117" lon="6.45649"><ele>779.8</ele><time>2023-09-20T16:39:46Z</time></trkpt>
<trkpt lat="46.74122" lon="6.45653"><ele>780.8</ele><time>2023-09-20T16:39:51Z</time></trkpt>
<trkpt lat="46.74123" lon="6.45654"><ele>781.2</ele><time>2023-09-20T16:39:53Z</time></trkpt>
<trkpt lat="46.74128" lon="6.45659"><ele>781.6</ele><time>2023-09-20T16:39:56Z</time></trkpt>
<trkpt lat="46.74131" lon="6.45663"><ele>782</ele><time>2023-09-20T16:39:59Z</time></trkpt>
<trkpt lat="46.74137" lon="6.45674"><ele>783</ele><time>2023-09-20T16:40:07Z</time></trkpt>
<trkpt lat="46.74142" lon="6.45683"><ele>784</ele><time>2023-09-20T16:40:15Z</time></trkpt>
<trkpt lat="46.74149" lon="6.45691"><ele>785</ele><time>2023-09-20T16:40:24Z</time></trkpt>
<trkpt lat="46.74156" lon="6.45698"><ele>786</ele><time>2023-09-20T16:40:31Z</time></trkpt>
<trkpt lat="46.74167" lon="6.45693"><ele>787.2</ele><time>2023-09-20T16:40:39Z</time></trkpt>
<trkpt lat="46.74179" lon="6.45682"><ele>788.2</ele><time>2023-09-20T16:40:47Z</time></trkpt>
<trkpt lat="46.74181" lon="6.45679"><ele>788.4</ele><time>2023-09-20T16:40:49Z</time></trkpt>
<trkpt lat="46.74186" lon="6.45668"><ele>789.4</ele><time>2023-09-20T16:40:55Z</time></trkpt>
<trkpt lat="46.74188" lon="6.45665"><ele>789.4</ele><time>2023-09-20T16:40:57Z</time></trkpt>
<trkpt lat="46.74192" lon="6.45659"><ele>790.4</ele><time>2023-09-20T16:41:02Z</time></trkpt>
<trkpt lat="46.74193" lon="6.45655"><ele>790.8</ele><time>2023-09-20T16:41:05Z</time></trkpt>
<trkpt lat="46.74195" lon="6.45647"><ele>791.6</ele><time>2023-09-20T16:41:09Z</time></trkpt>
<trkpt lat="46.74196" lon="6.45636"><ele>792.4</ele><time>2023-09-20T16:41:14Z</time></trkpt>
<trkpt lat="46.74197" lon="6.45632"><ele>792.6</ele><time>2023-09-20T16:41:16Z</time></trkpt>
<trkpt lat="46.74199" lon="6.45619"><ele>793.2</ele><time>2023-09-20T16:41:21Z</time></trkpt>
<trkpt lat="46.74199" lon="6.45609"><ele>793.8</ele><time>2023-09-20T16:41:25Z</time></trkpt>
<trkpt lat="46.742" lon="6.45602"><ele>794.2</ele><time>2023-09-20T16:41:28Z</time></trkpt>
<trkpt lat="46.74201" lon="6.45589"><ele>794.8</ele><time>2023-09-20T16:41:33Z</time></trkpt>
<trkpt lat="46.74201" lon="6.4558"><ele>795.2</ele><time>2023-09-20T16:41:36Z</time></trkpt>
<trkpt lat="46.74203" lon="6.45567"><ele>795.8</ele><time>2023-09-20T16:41:41Z</time></trkpt>
<trkpt lat="46.74203" lon="6.45556"><ele>796.4</ele><time>2023-09-20T16:41:45Z</time></trkpt>
<trkpt lat="46.74205" lon="6.45545"><ele>796.8</ele><time>2023-09-20T16:41:49Z</time></trkpt>
<trkpt lat="46.74205" lon="6.45537"><ele>797.4</ele><time>2023-09-20T16:41:52Z</time></trkpt>
<trkpt lat="46.74208" lon="6.45526"><ele>797.8</ele><time>2023-09-20T16:41:56Z</time></trkpt>
<trkpt lat="46.74209" lon="6.45517"><ele>798.2</ele><time>2023-09-20T16:41:59Z</time></trkpt>
<trkpt lat="46.74209" lon="6.45505"><ele>799</ele><time>2023-09-20T16:42:03Z</time></trkpt>
<trkpt lat="46.74212" lon="6.45486"><ele>800</ele><time>2023-09-20T16:42:10Z</time></trkpt>
<trkpt lat="46.74212" lon="6.45483"><ele>800</ele><time>2023-09-20T16:42:11Z</time></trkpt>
<trkpt lat="46.74214" lon="6.45464"><ele>801.2</ele><time>2023-09-20T16:42:18Z</time></trkpt>
<trkpt lat="46.74213" lon="6.45461"><ele>801.2</ele><time>2023-09-20T16:42:19Z</time></trkpt>
<trkpt lat="46.74215" lon="6.4544"><ele>802.4</ele><time>2023-09-20T16:42:27Z</time></trkpt>
<trkpt lat="46.74215" lon="6.45434"><ele>802.6</ele><time>2023-09-20T16:42:29Z</time></trkpt>
<trkpt lat="46.74217" lon="6.45422"><ele>803.4</ele><time>2023-09-20T16:42:34Z</time></trkpt>
<trkpt lat="46.74217" lon="6.4541"><ele>804</ele><time>2023-09-20T16:42:38Z</time></trkpt>
<trkpt lat="46.74217" lon="6.45399"><ele>804.6</ele><time>2023-09-20T16:42:42Z</time></trkpt>
<trkpt lat="46.74217" lon="6.45379"><ele>805.6</ele><time>2023-09-20T16:42:49Z</time></trkpt>
<trkpt lat="46.74217" lon="6.45377"><ele>805.8</ele><time>2023-09-20T16:42:50Z</time></trkpt>
<trkpt lat="46.74218" lon="6.45361"><ele>806.6</ele><time>2023-09-20T16:42:56Z</time></trkpt>
<trkpt lat="46.74218" lon="6.45357"><ele>806.8</ele><time>2023-09-20T16:42:57Z</time></trkpt>
<trkpt lat="46.74218" lon="6.45337"><ele>807.8</ele><time>2023-09-20T16:43:05Z</time></trkpt>
<trkpt lat="46.74218" lon="6.45335"><ele>808</ele><time>2023-09-20T16:43:06Z</time></trkpt>
<trkpt lat="46.74218" lon="6.45319"><ele>808.8</ele><time>2023-09-20T16:43:12Z</time></trkpt>
<trkpt lat="46.74218" lon="6.45315"><ele>809.2</ele><time>2023-09-20T16:43:14Z</time></trkpt>
<trkpt lat="46.74218" lon="6.45305"><ele>810</ele><time>2023-09-20T16:43:18Z</time></trkpt>
<trkpt lat="46.74218" lon="6.45299"><ele>810.4</ele><time>2023-09-20T16:43:21Z</time></trkpt>
<trkpt lat="46.74218" lon="6.45288"><ele>811</ele><time>2023-09-20T16:43:26Z</time></trkpt>
<trkpt lat="46.74219" lon="6.45275"><ele>812</ele><time>2023-09-20T16:43:32Z</time></trkpt>
<trkpt lat="46.7422" lon="6.45273"><ele>812</ele><time>2023-09-20T16:43:33Z</time></trkpt>
<trkpt lat="46.74219" lon="6.4526"><ele>813</ele><time>2023-09-20T16:43:39Z</time></trkpt>
<trkpt lat="46.74219" lon="6.45253"><ele>813.6</ele><time>2023-09-20T16:43:42Z</time></trkpt>
<trkpt lat="46.74218" lon="6.45246"><ele>814.2</ele><time>2023-09-20T16:43:46Z</time></trkpt>
<trkpt lat="46.74217" lon="6.45234"><ele>814.8</ele><time>2023-09-20T16:43:51Z</time></trkpt>
<trkpt lat="46.74217" lon="6.45228"><ele>815.2</ele><time>2023-09-20T16:43:54Z</time></trkpt>
<trkpt lat="46.74217" lon="6.45216"><ele>816.2</ele><time>2023-09-20T16:44:00Z</time></trkpt>
<trkpt lat="46.74217" lon="6.45214"><ele>816.2</ele><time>2023-09-20T16:44:01Z</time></trkpt>
<trkpt lat="46.74216" lon="6.45199"><ele>817.4</ele><time>2023-09-20T16:44:08Z</time></trkpt>
<trkpt lat="46.74216" lon="6.45197"><ele>817.6</ele><time>2023-09-20T16:44:09Z</time></trkpt>
<trkpt lat="46.74215" lon="6.45182"><ele>818.4</ele><time>2023-09-20T16:44:16Z</time></trkpt>
<trkpt lat="46.74213" lon="6.45166"><ele>819.6</ele><time>2023-09-20T16:44:24Z</time></trkpt>
<trkpt lat="46.74213" lon="6.45164"><ele>819.8</ele><time>2023-09-20T16:44:25Z</time></trkpt>
<trkpt lat="46.74211" lon="6.45151"><ele>820.6</ele><time>2023-09-20T16:44:31Z</time></trkpt>
<trkpt lat="46.7421" lon="6.45146"><ele>821</ele><time>2023-09-20T16:44:33Z</time></trkpt>
<trkpt lat="46.74208" lon="6.45135"><ele>821.6</ele><time>2023-09-20T16:44:38Z</time></trkpt>
<trkpt lat="46.74206" lon="6.45119"><ele>822.6</ele><time>2023-09-20T16:44:45Z</time></trkpt>
<trkpt lat="46.74205" lon="6.45115"><ele>822.8</ele><time>2023-09-20T16:44:47Z</time></trkpt>
<trkpt lat="46.742" lon="6.45099"><ele>823.8</ele><time>2023-09-20T16:44:54Z</time></trkpt>
<trkpt lat="46.74196" lon="6.45082"><ele>824.8</ele><time>2023-09-20T16:45:02Z</time></trkpt>
<trkpt lat="46.74194" lon="6.45074"><ele>825.4</ele><time>2023-09-20T16:45:06Z</time></trkpt>
<trkpt lat="46.74192" lon="6.45066"><ele>826</ele><time>2023-09-20T16:45:09Z</time></trkpt>
<trkpt lat="46.74192" lon="6.45057"><ele>826.6</ele><time>2023-09-20T16:45:13Z</time></trkpt>
<trkpt lat="46.74189" lon="6.45047"><ele>827.2</ele><time>2023-09-20T16:45:18Z</time></trkpt>
<trkpt lat="46.74188" lon="6.45039"><ele>827.8</ele><time>2023-09-20T16:45:22Z</time></trkpt>
<trkpt lat="46.74186" lon="6.4503"><ele>828.2</ele><time>2023-09-20T16:45:26Z</time></trkpt>
<trkpt lat="46.74183" lon="6.4502"><ele>828.8</ele><time>2023-09-20T16:45:30Z</time></trkpt>
<trkpt lat="46.74181" lon="6.45011"><ele>829.4</ele><time>2023-09-20T16:45:34Z</time></trkpt>
<trkpt lat="46.74178" lon="6.44997"><ele>830.2</ele><time>2023-09-20T16:45:40Z</time></trkpt>
<trkpt lat="46.74177" lon="6.44993"><ele>830.4</ele><time>2023-09-20T16:45:42Z</time></trkpt>
<trkpt lat="46.74172" lon="6.44975"><ele>831.6</ele><time>2023-09-20T16:45:50Z</time></trkpt>
<trkpt lat="46.7417" lon="6.44959"><ele>832.4</ele><time>2023-09-20T16:45:57Z</time></trkpt>
<trkpt lat="46.74169" lon="6.44957"><ele>832.6</ele><time>2023-09-20T16:45:58Z</time></trkpt>
<trkpt lat="46.74165" lon="6.44941"><ele>833.6</ele><time>2023-09-20T16:46:05Z</time></trkpt>
<trkpt lat="46.74161" lon="6.44927"><ele>834.6</ele><time>2023-09-20T16:46:12Z</time></trkpt>
<trkpt lat="46.74159" lon="6.44923"><ele>834.8</ele><time>2023-09-20T16:46:14Z</time></trkpt>
<trkpt lat="46.74156" lon="6.44913"><ele>835.8</ele><time>2023-09-20T16:46:19Z</time></trkpt>
<trkpt lat="46.74153" lon="6.44905"><ele>836</ele><time>2023-09-20T16:46:22Z</time></trkpt>
<trkpt lat="46.74151" lon="6.44896"><ele>836.8</ele><time>2023-09-20T16:46:26Z</time></trkpt>
<trkpt lat="46.74148" lon="6.44889"><ele>837.4</ele><time>2023-09-20T16:46:30Z</time></trkpt>
<trkpt lat="46.74146" lon="6.44881"><ele>838.2</ele><time>2023-09-20T16:46:35Z</time></trkpt>
<trkpt lat="46.74144" lon="6.44876"><ele>838.4</ele><time>2023-09-20T16:46:38Z</time></trkpt>
<trkpt lat="46.74142" lon="6.44868"><ele>839.2</ele><time>2023-09-20T16:46:42Z</time></trkpt>
<trkpt lat="46.74142" lon="6.44861"><ele>839.8</ele><time>2023-09-20T16:46:46Z</time></trkpt>
<trkpt lat="46.74143" lon="6.44856"><ele>840.4</ele><time>2023-09-20T16:46:49Z</time></trkpt>
<trkpt lat="46.74145" lon="6.44845"><ele>841.4</ele><time>2023-09-20T16:46:54Z</time></trkpt>
<trkpt lat="46.74153" lon="6.4484"><ele>842.4</ele><time>2023-09-20T16:47:00Z</time></trkpt>
<trkpt lat="46.74155" lon="6.4484"><ele>842.4</ele><time>2023-09-20T16:47:01Z</time></trkpt>
<trkpt lat="46.74164" lon="6.44849"><ele>843.4</ele><time>2023-09-20T16:47:07Z</time></trkpt>
<trkpt lat="46.74167" lon="6.44851"><ele>843.6</ele><time>2023-09-20T16:47:08Z</time></trkpt>
<trkpt lat="46.74176" lon="6.44869"><ele>844.4</ele><time>2023-09-20T16:47:15Z</time></trkpt>
<trkpt lat="46.74177" lon="6.44872"><ele>844.6</ele><time>2023-09-20T16:47:16Z</time></trkpt>
<trkpt lat="46.74185" lon="6.44885"><ele>845.4</ele><time>2023-09-20T16:47:22Z</time></trkpt>
<trkpt lat="46.74188" lon="6.44889"><ele>845.8</ele><time>2023-09-20T16:47:24Z</time></trkpt>
<trkpt lat="46.74197" lon="6.44903"><ele>846.8</ele><time>2023-09-20T16:47:31Z</time></trkpt>
<trkpt lat="46.74209" lon="6.44916"><ele>847.8</ele><time>2023-09-20T16:47:38Z</time></trkpt>
<trkpt lat="46.74213" lon="6.44919"><ele>848.2</ele><time>2023-09-20T16:47:40Z</time></trkpt>
<trkpt lat="46.74222" lon="6.44929"><ele>849</ele><time>2023-09-20T16:47:46Z</time></trkpt>
<trkpt lat="46.74226" lon="6.44932"><ele>849.2</ele><time>2023-09-20T16:47:48Z</time></trkpt>
<trkpt lat="46.74236" lon="6.44941"><ele>850.2</ele><time>2023-09-20T16:47:54Z</time></trkpt>
<trkpt lat="46.74246" lon="6.44951"><ele>851.2</ele><time>2023-09-20T16:48:02Z</time></trkpt>
<trkpt lat="46.74258" lon="6.44961"><ele>852.4</ele><time>2023-09-20T16:48:09Z</time></trkpt>
<trkpt lat="46.74261" lon="6.44964"><ele>852.6</ele><time>2023-09-20T16:48:11Z</time></trkpt>
<trkpt lat="46.74269" lon="6.44972"><ele>853.4</ele><time>2023-09-20T16:48:16Z</time></trkpt>
<trkpt lat="46.74274" lon="6.44976"><ele>854</ele><time>2023-09-20T16:48:19Z</time></trkpt>
<trkpt lat="46.7428" lon="6.44984"><ele>854.6</ele><time>2023-09-20T16:48:24Z</time></trkpt>
<trkpt lat="46.74283" lon="6.44988"><ele>855</ele><time>2023-09-20T16:48:27Z</time></trkpt>
<trkpt lat="46.74289" lon="6.44992"><ele>855.6</ele><time>2023-09-20T16:48:31Z</time></trkpt>
<trkpt lat="46.74297" lon="6.44999"><ele>856.6</ele><time>2023-09-20T16:48:36Z</time></trkpt>
<trkpt lat="46.74298" lon="6.45001"><ele>856.6</ele><time>2023-09-20T16:48:37Z</time></trkpt>
<trkpt lat="46.74306" lon="6.45009"><ele>857.6</ele><time>2023-09-20T16:48:43Z</time></trkpt>
<trkpt lat="46.74308" lon="6.45011"><ele>857.6</ele><time>2023-09-20T16:48:44Z</time></trkpt>
<trkpt lat="46.74318" lon="6.45023"><ele>858.8</ele><time>2023-09-20T16:48:52Z</time></trkpt>
<trkpt lat="46.7433" lon="6.45036"><ele>859.8</ele><time>2023-09-20T16:48:59Z</time></trkpt>
<trkpt lat="46.74338" lon="6.45046"><ele>860.8</ele><time>2023-09-20T16:49:04Z</time></trkpt>
<trkpt lat="46.74342" lon="6.45051"><ele>861.2</ele><time>2023-09-20T16:49:07Z</time></trkpt>
<trkpt lat="46.74349" lon="6.45056"><ele>862.2</ele><time>2023-09-20T16:49:11Z</time></trkpt>
<trkpt lat="46.74352" lon="6.4506"><ele>862.6</ele><time>2023-09-20T16:49:14Z</time></trkpt>
<trkpt lat="46.74357" lon="6.45063"><ele>863.4</ele><time>2023-09-20T16:49:17Z</time></trkpt>
<trkpt lat="46.7436" lon="6.45066"><ele>863.6</ele><time>2023-09-20T16:49:19Z</time></trkpt>
<trkpt lat="46.74368" lon="6.4507"><ele>864.4</ele><time>2023-09-20T16:49:23Z</time></trkpt>
<trkpt lat="46.74375" lon="6.45071"><ele>865.4</ele><time>2023-09-20T16:49:27Z</time></trkpt>
<trkpt lat="46.74377" lon="6.45072"><ele>865.6</ele><time>2023-09-20T16:49:28Z</time></trkpt>
<trkpt lat="46.74388" lon="6.45072"><ele>866.6</ele><time>2023-09-20T16:49:35Z</time></trkpt>
<trkpt lat="46.74396" lon="6.45076"><ele>867.6</ele><time>2023-09-20T16:49:41Z</time></trkpt>
<trkpt lat="46.74397" lon="6.45077"><ele>868</ele><time>2023-09-20T16:49:42Z</time></trkpt>
<trkpt lat="46.74404" lon="6.45081"><ele>868.8</ele><time>2023-09-20T16:49:47Z</time></trkpt>
<trkpt lat="46.74408" lon="6.45083"><ele>869.2</ele><time>2023-09-20T16:49:50Z</time></trkpt>
<trkpt lat="46.74413" lon="6.45087"><ele>869.8</ele><time>2023-09-20T16:49:54Z</time></trkpt>
<trkpt lat="46.74417" lon="6.45091"><ele>870.2</ele><time>2023-09-20T16:49:57Z</time></trkpt>
<trkpt lat="46.74422" lon="6.45097"><ele>870.8</ele><time>2023-09-20T16:50:01Z</time></trkpt>
<trkpt lat="46.74425" lon="6.45103"><ele>871.4</ele><time>2023-09-20T16:50:04Z</time></trkpt>
<trkpt lat="46.74428" lon="6.45108"><ele>871.8</ele><time>2023-09-20T16:50:07Z</time></trkpt>
<trkpt lat="46.74434" lon="6.45119"><ele>872.8</ele><time>2023-09-20T16:50:14Z</time></trkpt>
<trkpt lat="46.74441" lon="6.45129"><ele>873.8</ele><time>2023-09-20T16:50:21Z</time></trkpt>
<trkpt lat="46.74442" lon="6.4513"><ele>874</ele><time>2023-09-20T16:50:22Z</time></trkpt>
<trkpt lat="46.7445" lon="6.4514"><ele>874.8</ele><time>2023-09-20T16:50:29Z</time></trkpt>
<trkpt lat="46.74451" lon="6.45141"><ele>875</ele><time>2023-09-20T16:50:30Z</time></trkpt>
<trkpt lat="46.74463" lon="6.45145"><ele>876.2</ele><time>2023-09-20T16:50:37Z</time></trkpt>
<trkpt lat="46.74464" lon="6.45146"><ele>876.2</ele><time>2023-09-20T16:50:38Z</time></trkpt>
<trkpt lat="46.74476" lon="6.45148"><ele>877.2</ele><time>2023-09-20T16:50:45Z</time></trkpt>
<trkpt lat="46.74477" lon="6.45149"><ele>877.4</ele><time>2023-09-20T16:50:46Z</time></trkpt>
<trkpt lat="46.74485" lon="6.45151"><ele>878.4</ele><time>2023-09-20T16:50:52Z</time></trkpt>
<trkpt lat="46.74489" lon="6.45155"><ele>878.8</ele><time>2023-09-20T16:50:55Z</time></trkpt>
<trkpt lat="46.74493" lon="6.45163"><ele>879.4</ele><time>2023-09-20T16:50:58Z</time></trkpt>
<trkpt lat="46.74498" lon="6.45169"><ele>880.4</ele><time>2023-09-20T16:51:02Z</time></trkpt>
<trkpt lat="46.74499" lon="6.45171"><ele>880.8</ele><time>2023-09-20T16:51:03Z</time></trkpt>
<trkpt lat="46.74505" lon="6.4518"><ele>882</ele><time>2023-09-20T16:51:09Z</time></trkpt>
<trkpt lat="46.74507" lon="6.45184"><ele>882.2</ele><time>2023-09-20T16:51:11Z</time></trkpt>
<trkpt lat="46.74512" lon="6.45193"><ele>883</ele><time>2023-09-20T16:51:16Z</time></trkpt>
<trkpt lat="46.74519" lon="6.45201"><ele>883.8</ele><time>2023-09-20T16:51:22Z</time></trkpt>
<trkpt lat="46.7452" lon="6.45203"><ele>884</ele><time>2023-09-20T16:51:23Z</time></trkpt>
<trkpt lat="46.74528" lon="6.45213"><ele>885</ele><time>2023-09-20T16:51:30Z</time></trkpt>
<trkpt lat="46.7453" lon="6.45214"><ele>885.2</ele><time>2023-09-20T16:51:31Z</time></trkpt>
<trkpt lat="46.74536" lon="6.45221"><ele>886.2</ele><time>2023-09-20T16:51:37Z</time></trkpt>
<trkpt lat="46.74537" lon="6.45222"><ele>886.2</ele><time>2023-09-20T16:51:38Z</time></trkpt>
<trkpt lat="46.74542" lon="6.45226"><ele>887</ele><time>2023-09-20T16:51:44Z</time></trkpt>
<trkpt lat="46.74545" lon="6.45227"><ele>887.4</ele><time>2023-09-20T16:51:46Z</time></trkpt>
<trkpt lat="46.7455" lon="6.45231"><ele>888</ele><time>2023-09-20T16:51:51Z</time></trkpt>
<trkpt lat="46.74554" lon="6.45233"><ele>888.4</ele><time>2023-09-20T16:51:55Z</time></trkpt>
<trkpt lat="46.74558" lon="6.45236"><ele>888.8</ele><time>2023-09-20T16:51:59Z</time></trkpt>
<trkpt lat="46.74563" lon="6.4524"><ele>889.4</ele><time>2023-09-20T16:52:04Z</time></trkpt>
<trkpt lat="46.74566" lon="6.45242"><ele>889.8</ele><time>2023-09-20T16:52:06Z</time></trkpt>
<trkpt lat="46.74571" lon="6.45247"><ele>890.6</ele><time>2023-09-20T16:52:11Z</time></trkpt>
<trkpt lat="46.74572" lon="6.45248"><ele>890.8</ele><time>2023-09-20T16:52:12Z</time></trkpt>
<trkpt lat="46.74581" lon="6.45251"><ele>891.4</ele><time>2023-09-20T16:52:19Z</time></trkpt>
<trkpt lat="46.74584" lon="6.45252"><ele>891.8</ele><time>2023-09-20T16:52:21Z</time></trkpt>
<trkpt lat="46.74591" lon="6.45253"><ele>892.6</ele><time>2023-09-20T16:52:27Z</time></trkpt>
<trkpt lat="46.74593" lon="6.45253"><ele>892.8</ele><time>2023-09-20T16:52:29Z</time></trkpt>
<trkpt lat="46.746" lon="6.45254"><ele>893.6</ele><time>2023-09-20T16:52:35Z</time></trkpt>
<trkpt lat="46.74602" lon="6.45255"><ele>893.8</ele><time>2023-09-20T16:52:37Z</time></trkpt>
<trkpt lat="46.7461" lon="6.45255"><ele>894.6</ele><time>2023-09-20T16:52:43Z</time></trkpt>
<trkpt lat="46.74615" lon="6.45254"><ele>895</ele><time>2023-09-20T16:52:46Z</time></trkpt>
<trkpt lat="46.74619" lon="6.45255"><ele>895.4</ele><time>2023-09-20T16:52:49Z</time></trkpt>
<trkpt lat="46.74625" lon="6.45255"><ele>896</ele><time>2023-09-20T16:52:54Z</time></trkpt>
<trkpt lat="46.74628" lon="6.45255"><ele>896.2</ele><time>2023-09-20T16:52:56Z</time></trkpt>
<trkpt lat="46.74636" lon="6.45255"><ele>897.2</ele><time>2023-09-20T16:53:02Z</time></trkpt>
<trkpt lat="46.74641" lon="6.45255"><ele>897.6</ele><time>2023-09-20T16:53:05Z</time></trkpt>
<trkpt lat="46.74646" lon="6.45254"><ele>898.2</ele><time>2023-09-20T16:53:09Z</time></trkpt>
<trkpt lat="46.7465" lon="6.45253"><ele>898.8</ele><time>2023-09-20T16:53:13Z</time></trkpt>
<trkpt lat="46.74655" lon="6.45251"><ele>899.4</ele><time>2023-09-20T16:53:17Z</time></trkpt>
<trkpt lat="46.7466" lon="6.4525"><ele>900</ele><time>2023-09-20T16:53:21Z</time></trkpt>
<trkpt lat="46.74664" lon="6.45248"><ele>900.4</ele><time>2023-09-20T16:53:24Z</time></trkpt>
<trkpt lat="46.74673" lon="6.45245"><ele>901.2</ele><time>2023-09-20T16:53:30Z</time></trkpt>
<trkpt lat="46.74678" lon="6.45245"><ele>901.6</ele><time>2023-09-20T16:53:33Z</time></trkpt>
<trkpt lat="46.74684" lon="6.45245"><ele>902.2</ele><time>2023-09-20T16:53:37Z</time></trkpt>
<trkpt lat="46.74691" lon="6.45249"><ele>902.8</ele><time>2023-09-20T16:53:41Z</time></trkpt>
<trkpt lat="46.74694" lon="6.45255"><ele>903.2</ele><time>2023-09-20T16:53:44Z</time></trkpt>
<trkpt lat="46.74697" lon="6.45265"><ele>903.8</ele><time>2023-09-20T16:53:49Z</time></trkpt>
<trkpt lat="46.74698" lon="6.45269"><ele>904.2</ele><time>2023-09-20T16:53:51Z</time></trkpt>
<trkpt lat="46.74698" lon="6.4528"><ele>904.8</ele><time>2023-09-20T16:53:56Z</time></trkpt>
<trkpt lat="46.74699" lon="6.45285"><ele>905.2</ele><time>2023-09-20T16:53:59Z</time></trkpt>
<trkpt lat="46.747" lon="6.45295"><ele>906</ele><time>2023-09-20T16:54:03Z</time></trkpt>
<trkpt lat="46.74701" lon="6.45306"><ele>906.6</ele><time>2023-09-20T16:54:09Z</time></trkpt>
<trkpt lat="46.74702" lon="6.45313"><ele>907</ele><time>2023-09-20T16:54:12Z</time></trkpt>
<trkpt lat="46.74706" lon="6.45325"><ele>907.8</ele><time>2023-09-20T16:54:18Z</time></trkpt>
<trkpt lat="46.74706" lon="6.45326"><ele>908</ele><time>2023-09-20T16:54:19Z</time></trkpt>
<trkpt lat="46.74712" lon="6.45338"><ele>909</ele><time>2023-09-20T16:54:25Z</time></trkpt>
<trkpt lat="46.74713" lon="6.4534"><ele>909.2</ele><time>2023-09-20T16:54:26Z</time></trkpt>
<trkpt lat="46.74718" lon="6.45349"><ele>910.4</ele><time>2023-09-20T16:54:33Z</time></trkpt>
<trkpt lat="46.74719" lon="6.45351"><ele>910.6</ele><time>2023-09-20T16:54:34Z</time></trkpt>
<trkpt lat="46.74723" lon="6.4536"><ele>911.4</ele><time>2023-09-20T16:54:40Z</time></trkpt>
<trkpt lat="46.74725" lon="6.45362"><ele>911.6</ele><time>2023-09-20T16:54:42Z</time></trkpt>
<trkpt lat="46.74731" lon="6.45373"><ele>912.6</ele><time>2023-09-20T16:54:49Z</time></trkpt>
<trkpt lat="46.74733" lon="6.45377"><ele>912.8</ele><time>2023-09-20T16:54:51Z</time></trkpt>
<trkpt lat="46.74735" lon="6.45385"><ele>913.6</ele><time>2023-09-20T16:54:57Z</time></trkpt>
<trkpt lat="46.74735" lon="6.45388"><ele>914</ele><time>2023-09-20T16:54:59Z</time></trkpt>
<trkpt lat="46.74734" lon="6.45394"><ele>914.6</ele><time>2023-09-20T16:55:03Z</time></trkpt>
<trkpt lat="46.74732" lon="6.45399"><ele>915</ele><time>2023-09-20T16:55:06Z</time></trkpt>
<trkpt lat="46.74731" lon="6.45403"><ele>915.6</ele><time>2023-09-20T16:55:09Z</time></trkpt>
<trkpt lat="46.74731" lon="6.45405"><ele>915.6</ele><time>2023-09-20T16:55:10Z</time></trkpt>
<trkpt lat="46.7473" lon="6.45407"><ele>915.8</ele><time>2023-09-20T16:55:11Z</time></trkpt>
<trkpt lat="46.74729" lon="6.45415"><ele>916.4</ele><time>2023-09-20T16:55:16Z</time></trkpt>
<trkpt lat="46.74729" lon="6.45416"><ele>916.6</ele><time>2023-09-20T16:55:17Z</time></trkpt>
<trkpt lat="46.74728" lon="6.45418"><ele>916.8</ele><time>2023-09-20T16:55:18Z</time></trkpt>
<trkpt lat="46.74727" lon="6.45427"><ele>917.8</ele><time>2023-09-20T16:55:23Z</time></trkpt>
<trkpt lat="46.74727" lon="6.45428"><ele>917.8</ele><time>2023-09-20T16:55:24Z</time></trkpt>
<trkpt lat="46.74725" lon="6.45437"><ele>919</ele><time>2023-09-20T16:55:30Z</time></trkpt>
<trkpt lat="46.74725" lon="6.45439"><ele>919.2</ele><time>2023-09-20T16:55:31Z</time></trkpt>
<trkpt lat="46.74725" lon="6.45446"><ele>920.2</ele><time>2023-09-20T16:55:36Z</time></trkpt>
<trkpt lat="46.74726" lon="6.4545"><ele>920.6</ele><time>2023-09-20T16:55:38Z</time></trkpt>
<trkpt lat="46.74727" lon="6.45453"><ele>921</ele><time>2023-09-20T16:55:40Z</time></trkpt>
<trkpt lat="46.74731" lon="6.45457"><ele>921.4</ele><time>2023-09-20T16:55:43Z</time></trkpt>
<trkpt lat="46.74732" lon="6.45458"><ele>921.6</ele><time>2023-09-20T16:55:44Z</time></trkpt>
<trkpt lat="46.74736" lon="6.45463"><ele>922.6</ele><time>2023-09-20T16:55:49Z</time></trkpt>
<trkpt lat="46.74737" lon="6.45464"><ele>923</ele><time>2023-09-20T16:55:51Z</time></trkpt>
<trkpt lat="46.74742" lon="6.45465"><ele>923.6</ele><time>2023-09-20T16:55:55Z</time></trkpt>
<trkpt lat="46.74745" lon="6.45462"><ele>924</ele><time>2023-09-20T16:55:58Z</time></trkpt>
<trkpt lat="46.74747" lon="6.4546"><ele>924.6</ele><time>2023-09-20T16:56:00Z</time></trkpt>
<trkpt lat="46.74749" lon="6.45458"><ele>924.8</ele><time>2023-09-20T16:56:02Z</time></trkpt>
<trkpt lat="46.74754" lon="6.4545"><ele>925.8</ele><time>2023-09-20T16:56:06Z</time></trkpt>
<trkpt lat="46.74756" lon="6.45446"><ele>926.2</ele><time>2023-09-20T16:56:09Z</time></trkpt>
<trkpt lat="46.7476" lon="6.4544"><ele>926.8</ele><time>2023-09-20T16:56:13Z</time></trkpt>
<trkpt lat="46.74762" lon="6.45435"><ele>927.2</ele><time>2023-09-20T16:56:16Z</time></trkpt>
<trkpt lat="46.74764" lon="6.45428"><ele>927.8</ele><time>2023-09-20T16:56:20Z</time></trkpt>
<trkpt lat="46.74768" lon="6.4542"><ele>928.4</ele><time>2023-09-20T16:56:25Z</time></trkpt>
<trkpt lat="46.74771" lon="6.45415"><ele>929</ele><time>2023-09-20T16:56:28Z</time></trkpt>
<trkpt lat="46.74774" lon="6.45409"><ele>929.4</ele><time>2023-09-20T16:56:32Z</time></trkpt>
<trkpt lat="46.74779" lon="6.45397"><ele>930</ele><time>2023-09-20T16:56:38Z</time></trkpt>
<trkpt lat="46.74781" lon="6.45388"><ele>930.6</ele><time>2023-09-20T16:56:42Z</time></trkpt>
<trkpt lat="46.74783" lon="6.45375"><ele>931</ele><time>2023-09-20T16:56:48Z</time></trkpt>
<trkpt lat="46.74783" lon="6.4537"><ele>931.2</ele><time>2023-09-20T16:56:50Z</time></trkpt>
<trkpt lat="46.74779" lon="6.45353"><ele>932</ele><time>2023-09-20T16:56:57Z</time></trkpt>
<trkpt lat="46.74777" lon="6.45349"><ele>932.2</ele><time>2023-09-20T16:56:59Z</time></trkpt>
<trkpt lat="46.74767" lon="6.45327"><ele>933</ele><time>2023-09-20T16:57:08Z</time></trkpt>
<trkpt lat="46.74766" lon="6.45325"><ele>933.2</ele><time>2023-09-20T16:57:09Z</time></trkpt>
<trkpt lat="46.74761" lon="6.45311"><ele>934.2</ele><time>2023-09-20T16:57:15Z</time></trkpt>
<trkpt lat="46.74759" lon="6.45301"><ele>934.8</ele><time>2023-09-20T16:57:18Z</time></trkpt>
<trkpt lat="46.74758" lon="6.45285"><ele>935.4</ele><time>2023-09-20T16:57:23Z</time></trkpt>
<trkpt lat="46.74759" lon="6.4528"><ele>935.8</ele><time>2023-09-20T16:57:25Z</time></trkpt>
<trkpt lat="46.74762" lon="6.45267"><ele>936.4</ele><time>2023-09-20T16:57:30Z</time></trkpt>
<trkpt lat="46.74765" lon="6.45258"><ele>937</ele><time>2023-09-20T16:57:33Z</time></trkpt>
<trkpt lat="46.74768" lon="6.45248"><ele>937.4</ele><time>2023-09-20T16:57:37Z</time></trkpt>
<trkpt lat="46.74776" lon="6.45235"><ele>938.4</ele><time>2023-09-20T16:57:43Z</time></trkpt>
<trkpt lat="46.74777" lon="6.45233"><ele>938.4</ele><time>2023-09-20T16:57:44Z</time></trkpt>
<trkpt lat="46.74787" lon="6.45223"><ele>939.6</ele><time>2023-09-20T16:57:51Z</time></trkpt>
<trkpt lat="46.74793" lon="6.45217"><ele>940.2</ele><time>2023-09-20T16:57:55Z</time></trkpt>
<trkpt lat="46.74798" lon="6.45208"><ele>940.6</ele><time>2023-09-20T16:58:00Z</time></trkpt>
<trkpt lat="46.74802" lon="6.452"><ele>941</ele><time>2023-09-20T16:58:04Z</time></trkpt>
<trkpt lat="46.74804" lon="6.45192"><ele>941.8</ele><time>2023-09-20T16:58:08Z</time></trkpt>
<trkpt lat="46.74809" lon="6.45177"><ele>942.4</ele><time>2023-09-20T16:58:15Z</time></trkpt>
<trkpt lat="46.74811" lon="6.45173"><ele>942.8</ele><time>2023-09-20T16:58:17Z</time></trkpt>
<trkpt lat="46.74816" lon="6.45152"><ele>943.8</ele><time>2023-09-20T16:58:26Z</time></trkpt>
<trkpt lat="46.74816" lon="6.4515"><ele>943.8</ele><time>2023-09-20T16:58:27Z</time></trkpt>
<trkpt lat="46.74819" lon="6.45132"><ele>944.8</ele><time>2023-09-20T16:58:35Z</time></trkpt>
<trkpt lat="46.74819" lon="6.4513"><ele>945</ele><time>2023-09-20T16:58:36Z</time></trkpt>
<trkpt lat="46.74818" lon="6.45119"><ele>945.6</ele><time>2023-09-20T16:58:42Z</time></trkpt>
<trkpt lat="46.74817" lon="6.45115"><ele>946</ele><time>2023-09-20T16:58:44Z</time></trkpt>
<trkpt lat="46.74813" lon="6.45106"><ele>946.8</ele><time>2023-09-20T16:58:49Z</time></trkpt>
<trkpt lat="46.74811" lon="6.45105"><ele>947</ele><time>2023-09-20T16:58:50Z</time></trkpt>
<trkpt lat="46.74801" lon="6.451"><ele>947.8</ele><time>2023-09-20T16:58:56Z</time></trkpt>
<trkpt lat="46.74798" lon="6.45098"><ele>948</ele><time>2023-09-20T16:58:58Z</time></trkpt>
<trkpt lat="46.74787" lon="6.45095"><ele>949.2</ele><time>2023-09-20T16:59:05Z</time></trkpt>
<trkpt lat="46.74772" lon="6.45094"><ele>950.4</ele><time>2023-09-20T16:59:14Z</time></trkpt>
<trkpt lat="46.74759" lon="6.45091"><ele>951.6</ele><time>2023-09-20T16:59:22Z</time></trkpt>
<trkpt lat="46.74746" lon="6.45085"><ele>952.6</ele><time>2023-09-20T16:59:30Z</time></trkpt>
<trkpt lat="46.74732" lon="6.45079"><ele>953.6</ele><time>2023-09-20T16:59:39Z</time></trkpt>
<trkpt lat="46.7473" lon="6.45078"><ele>953.8</ele><time>2023-09-20T16:59:40Z</time></trkpt>
<trkpt lat="46.74716" lon="6.4507"><ele>954.8</ele><time>2023-09-20T16:59:48Z</time></trkpt>
<trkpt lat="46.74705" lon="6.45061"><ele>956</ele><time>2023-09-20T16:59:55Z</time></trkpt>
<trkpt lat="46.74698" lon="6.45047"><ele>957</ele><time>2023-09-20T17:00:02Z</time></trkpt>
<trkpt lat="46.74698" lon="6.45044"><ele>957.2</ele><time>2023-09-20T17:00:03Z</time></trkpt>
<trkpt lat="46.74697" lon="6.45032"><ele>958.2</ele><time>2023-09-20T17:00:08Z</time></trkpt>
<trkpt lat="46.74697" lon="6.45022"><ele>958.8</ele><time>2023-09-20T17:00:12Z</time></trkpt>
<trkpt lat="46.74697" lon="6.45018"><ele>959.2</ele><time>2023-09-20T17:00:14Z</time></trkpt>
<trkpt lat="46.74697" lon="6.45005"><ele>960.2</ele><time>2023-09-20T17:00:20Z</time></trkpt>
<trkpt lat="46.74696" lon="6.45003"><ele>960.2</ele><time>2023-09-20T17:00:21Z</time></trkpt>
<trkpt lat="46.74694" lon="6.44986"><ele>961.2</ele><time>2023-09-20T17:00:28Z</time></trkpt>
<trkpt lat="46.74692" lon="6.44981"><ele>961.6</ele><time>2023-09-20T17:00:31Z</time></trkpt>
<trkpt lat="46.7469" lon="6.44973"><ele>962.4</ele><time>2023-09-20T17:00:35Z</time></trkpt>
<trkpt lat="46.74687" lon="6.44963"><ele>963</ele><time>2023-09-20T17:00:40Z</time></trkpt>
<trkpt lat="46.74686" lon="6.44957"><ele>963.4</ele><time>2023-09-20T17:00:43Z</time></trkpt>
<trkpt lat="46.74684" lon="6.44946"><ele>964</ele><time>2023-09-20T17:00:48Z</time></trkpt>
<trkpt lat="46.74681" lon="6.44939"><ele>964.6</ele><time>2023-09-20T17:00:52Z</time></trkpt>
<trkpt lat="46.74679" lon="6.44933"><ele>965</ele><time>2023-09-20T17:00:55Z</time></trkpt>
<trkpt lat="46.74676" lon="6.44926"><ele>965.6</ele><time>2023-09-20T17:00:59Z</time></trkpt>
<trkpt lat="46.74674" lon="6.44922"><ele>966</ele><time>2023-09-20T17:01:02Z</time></trkpt>
<trkpt lat="46.74669" lon="6.44914"><ele>966.8</ele><time>2023-09-20T17:01:07Z</time></trkpt>
<trkpt lat="46.74664" lon="6.44905"><ele>967.2</ele><time>2023-09-20T17:01:12Z</time></trkpt>
<trkpt lat="46.74658" lon="6.449"><ele>967.8</ele><time>2023-09-20T17:01:16Z</time></trkpt>
<trkpt lat="46.74652" lon="6.44891"><ele>968.4</ele><time>2023-09-20T17:01:21Z</time></trkpt>
<trkpt lat="46.74648" lon="6.44887"><ele>968.8</ele><time>2023-09-20T17:01:24Z</time></trkpt>
<trkpt lat="46.74642" lon="6.44877"><ele>969.6</ele><time>2023-09-20T17:01:29Z</time></trkpt>
<trkpt lat="46.7464" lon="6.44872"><ele>970</ele><time>2023-09-20T17:01:32Z</time></trkpt>
<trkpt lat="46.74636" lon="6.44857"><ele>971.2</ele><time>2023-09-20T17:01:39Z</time></trkpt>
<trkpt lat="46.74635" lon="6.4484"><ele>972.2</ele><time>2023-09-20T17:01:46Z</time></trkpt>
<trkpt lat="46.74635" lon="6.44836"><ele>972.6</ele><time>2023-09-20T17:01:48Z</time></trkpt>
<trkpt lat="46.74634" lon="6.44824"><ele>973.4</ele><time>2023-09-20T17:01:53Z</time></trkpt>
<trkpt lat="46.74633" lon="6.44817"><ele>973.8</ele><time>2023-09-20T17:01:56Z</time></trkpt>
<trkpt lat="46.74631" lon="6.44807"><ele>974.4</ele><time>2023-09-20T17:02:01Z</time></trkpt>
<trkpt lat="46.74629" lon="6.44803"><ele>974.8</ele><time>2023-09-20T17:02:03Z</time></trkpt>
<trkpt lat="46.74625" lon="6.44798"><ele>975.6</ele><time>2023-09-20T17:02:07Z</time></trkpt>
<trkpt lat="46.74621" lon="6.44795"><ele>975.8</ele><time>2023-09-20T17:02:10Z</time></trkpt>
<trkpt lat="46.74615" lon="6.44793"><ele>976.6</ele><time>2023-09-20T17:02:14Z</time></trkpt>
<trkpt lat="46.74608" lon="6.4479"><ele>977.6</ele><time>2023-09-20T17:02:19Z</time></trkpt>
<trkpt lat="46.74598" lon="6.44784"><ele>978.6</ele><time>2023-09-20T17:02:26Z</time></trkpt>
<trkpt lat="46.74595" lon="6.44782"><ele>978.8</ele><time>2023-09-20T17:02:28Z</time></trkpt>
<trkpt lat="46.74588" lon="6.44774"><ele>979.8</ele><time>2023-09-20T17:02:34Z</time></trkpt>
<trkpt lat="46.74582" lon="6.44769"><ele>980.4</ele><time>2023-09-20T17:02:38Z</time></trkpt>
<trkpt lat="46.74577" lon="6.44764"><ele>981</ele><time>2023-09-20T17:02:42Z</time></trkpt>
<trkpt lat="46.7457" lon="6.44757"><ele>981.8</ele><time>2023-09-20T17:02:48Z</time></trkpt>
<trkpt lat="46.74567" lon="6.44754"><ele>982</ele><time>2023-09-20T17:02:50Z</time></trkpt>
<trkpt lat="46.7456" lon="6.44746"><ele>983</ele><time>2023-09-20T17:02:56Z</time></trkpt>
<trkpt lat="46.7455" lon="6.4474"><ele>984</ele><time>2023-09-20T17:03:02Z</time></trkpt>
<trkpt lat="46.74547" lon="6.44737"><ele>984.4</ele><time>2023-09-20T17:03:05Z</time></trkpt>
<trkpt lat="46.74542" lon="6.44731"><ele>985.4</ele><time>2023-09-20T17:03:10Z</time></trkpt>
<trkpt lat="46.74537" lon="6.44725"><ele>985.8</ele><time>2023-09-20T17:03:14Z</time></trkpt>
<trkpt lat="46.74531" lon="6.44721"><ele>986.4</ele><time>2023-09-20T17:03:18Z</time></trkpt>
<trkpt lat="46.74527" lon="6.44714"><ele>987</ele><time>2023-09-20T17:03:22Z</time></trkpt>
<trkpt lat="46.74524" lon="6.44711"><ele>987.4</ele><time>2023-09-20T17:03:24Z</time></trkpt>
<trkpt lat="46.74517" lon="6.44702"><ele>988.4</ele><time>2023-09-20T17:03:30Z</time></trkpt>
<trkpt lat="46.74509" lon="6.4469"><ele>989.6</ele><time>2023-09-20T17:03:38Z</time></trkpt>
<trkpt lat="46.74508" lon="6.44688"><ele>989.6</ele><time>2023-09-20T17:03:39Z</time></trkpt>
<trkpt lat="46.74501" lon="6.4468"><ele>990.6</ele><time>2023-09-20T17:03:45Z</time></trkpt>
<trkpt lat="46.74494" lon="6.44673"><ele>991.8</ele><time>2023-09-20T17:03:51Z</time></trkpt>
<trkpt lat="46.74483" lon="6.44662"><ele>992.8</ele><time>2023-09-20T17:03:59Z</time></trkpt>
<trkpt lat="46.74472" lon="6.44651"><ele>993.4</ele><time>2023-09-20T17:04:06Z</time></trkpt>
<trkpt lat="46.74465" lon="6.44643"><ele>993.8</ele><time>2023-09-20T17:04:10Z</time></trkpt>
<trkpt lat="46.74457" lon="6.44635"><ele>994.2</ele><time>2023-09-20T17:04:14Z</time></trkpt>
<trkpt lat="46.74447" lon="6.44624"><ele>994.8</ele><time>2023-09-20T17:04:20Z</time></trkpt>
<trkpt lat="46.74442" lon="6.44619"><ele>995.2</ele><time>2023-09-20T17:04:23Z</time></trkpt>
<trkpt lat="46.74423" lon="6.446"><ele>996</ele><time>2023-09-20T17:04:32Z</time></trkpt>
<trkpt lat="46.7442" lon="6.44598"><ele>996.2</ele><time>2023-09-20T17:04:33Z</time></trkpt>
<trkpt lat="46.74407" lon="6.44582"><ele>996.6</ele><time>2023-09-20T17:04:39Z</time></trkpt>
<trkpt lat="46.74402" lon="6.44578"><ele>997</ele><time>2023-09-20T17:04:41Z</time></trkpt>
<trkpt lat="46.74384" lon="6.44559"><ele>998.2</ele><time>2023-09-20T17:04:49Z</time></trkpt>
<trkpt lat="46.74364" lon="6.44534"><ele>999.2</ele><time>2023-09-20T17:04:58Z</time></trkpt>
<trkpt lat="46.7436" lon="6.44529"><ele>999.4</ele><time>2023-09-20T17:05:00Z</time></trkpt>
<trkpt lat="46.74339" lon="6.44507"><ele>1000.2</ele><time>2023-09-20T17:05:08Z</time></trkpt>
<trkpt lat="46.74333" lon="6.44501"><ele>1000.4</ele><time>2023-09-20T17:05:10Z</time></trkpt>
<trkpt lat="46.74318" lon="6.44478"><ele>1000.8</ele><time>2023-09-20T17:05:16Z</time></trkpt>
<trkpt lat="46.74315" lon="6.44474"><ele>1000.8</ele><time>2023-09-20T17:05:17Z</time></trkpt>
<trkpt lat="46.7431" lon="6.44465"><ele>1001.2</ele><time>2023-09-20T17:05:19Z</time></trkpt>
<trkpt lat="46.74305" lon="6.44455"><ele>1002.2</ele><time>2023-09-20T17:05:22Z</time></trkpt>
<trkpt lat="46.74303" lon="6.44452"><ele>1002.6</ele><time>2023-09-20T17:05:23Z</time></trkpt>
<trkpt lat="46.74299" lon="6.44441"><ele>1003.6</ele><time>2023-09-20T17:05:28Z</time></trkpt>
<trkpt lat="46.74299" lon="6.44439"><ele>1003.6</ele><time>2023-09-20T17:05:29Z</time></trkpt>
<trkpt lat="46.74293" lon="6.44424"><ele>1004.6</ele><time>2023-09-20T17:05:36Z</time></trkpt>
<trkpt lat="46.74289" lon="6.44407"><ele>1005.8</ele><time>2023-09-20T17:05:43Z</time></trkpt>
<trkpt lat="46.74283" lon="6.44395"><ele>1006.6</ele><time>2023-09-20T17:05:50Z</time></trkpt>
<trkpt lat="46.74282" lon="6.44393"><ele>1006.8</ele><time>2023-09-20T17:05:51Z</time></trkpt>
<trkpt lat="46.74278" lon="6.44378"><ele>1007.8</ele><time>2023-09-20T17:05:58Z</time></trkpt>
<trkpt lat="46.74274" lon="6.44359"><ele>1008.8</ele><time>2023-09-20T17:06:06Z</time></trkpt>
<trkpt lat="46.74273" lon="6.44357"><ele>1009.2</ele><time>2023-09-20T17:06:07Z</time></trkpt>
<trkpt lat="46.7427" lon="6.44344"><ele>1010</ele><time>2023-09-20T17:06:13Z</time></trkpt>
<trkpt lat="46.74269" lon="6.44336"><ele>1010.6</ele><time>2023-09-20T17:06:16Z</time></trkpt>
<trkpt lat="46.74267" lon="6.44327"><ele>1011.2</ele><time>2023-09-20T17:06:20Z</time></trkpt>
<trkpt lat="46.74265" lon="6.4432"><ele>1011.6</ele><time>2023-09-20T17:06:23Z</time></trkpt>
<trkpt lat="46.74264" lon="6.44315"><ele>1011.8</ele><time>2023-09-20T17:06:25Z</time></trkpt>
<trkpt lat="46.74264" lon="6.4431"><ele>1012.2</ele><time>2023-09-20T17:06:27Z</time></trkpt>
<trkpt lat="46.74262" lon="6.44299"><ele>1013</ele><time>2023-09-20T17:06:33Z</time></trkpt>
<trkpt lat="46.74261" lon="6.44295"><ele>1013.4</ele><time>2023-09-20T17:06:35Z</time></trkpt>
<trkpt lat="46.74259" lon="6.4428"><ele>1014.2</ele><time>2023-09-20T17:06:42Z</time></trkpt>
<trkpt lat="46.74258" lon="6.44278"><ele>1014.4</ele><time>2023-09-20T17:06:43Z</time></trkpt>
<trkpt lat="46.74255" lon="6.44259"><ele>1015.6</ele><time>2023-09-20T17:06:52Z</time></trkpt>
<trkpt lat="46.7425" lon="6.44244"><ele>1016.6</ele><time>2023-09-20T17:07:00Z</time></trkpt>
<trkpt lat="46.74249" lon="6.44243"><ele>1016.6</ele><time>2023-09-20T17:07:01Z</time></trkpt>
<trkpt lat="46.74244" lon="6.44229"><ele>1017.6</ele><time>2023-09-20T17:07:08Z</time></trkpt>
<trkpt lat="46.74241" lon="6.44216"><ele>1018.8</ele><time>2023-09-20T17:07:15Z</time></trkpt>
<trkpt lat="46.74239" lon="6.44207"><ele>1019.2</ele><time>2023-09-20T17:07:20Z</time></trkpt>
<trkpt lat="46.74237" lon="6.44201"><ele>1019.8</ele><time>2023-09-20T17:07:23Z</time></trkpt>
<trkpt lat="46.74234" lon="6.44189"><ele>1020.6</ele><time>2023-09-20T17:07:29Z</time></trkpt>
<trkpt lat="46.74234" lon="6.44185"><ele>1021</ele><time>2023-09-20T17:07:31Z</time></trkpt>
<trkpt lat="46.74232" lon="6.44173"><ele>1021.6</ele><time>2023-09-20T17:07:37Z</time></trkpt>
<trkpt lat="46.7423" lon="6.44165"><ele>1022</ele><time>2023-09-20T17:07:40Z</time></trkpt>
<trkpt lat="46.74228" lon="6.44155"><ele>1022.4</ele><time>2023-09-20T17:07:44Z</time></trkpt>
<trkpt lat="46.74225" lon="6.44147"><ele>1023</ele><time>2023-09-20T17:07:48Z</time></trkpt>
<trkpt lat="46.74224" lon="6.4414"><ele>1023.6</ele><time>2023-09-20T17:07:51Z</time></trkpt>
<trkpt lat="46.74222" lon="6.44129"><ele>1024.2</ele><time>2023-09-20T17:07:56Z</time></trkpt>
<trkpt lat="46.74221" lon="6.44126"><ele>1024.4</ele><time>2023-09-20T17:07:58Z</time></trkpt>
<trkpt lat="46.74218" lon="6.44115"><ele>1025.2</ele><time>2023-09-20T17:08:03Z</time></trkpt>
<trkpt lat="46.74218" lon="6.4411"><ele>1025.4</ele><time>2023-09-20T17:08:05Z</time></trkpt>
<trkpt lat="46.74216" lon="6.44098"><ele>1026.4</ele><time>2023-09-20T17:08:10Z</time></trkpt>
<trkpt lat="46.74215" lon="6.44091"><ele>1026.8</ele><time>2023-09-20T17:08:13Z</time></trkpt>
<trkpt lat="46.74212" lon="6.44079"><ele>1027.6</ele><time>2023-09-20T17:08:19Z</time></trkpt>
<trkpt lat="46.74212" lon="6.44074"><ele>1027.8</ele><time>2023-09-20T17:08:21Z</time></trkpt>
<trkpt lat="46.74211" lon="6.44061"><ele>1028.6</ele><time>2023-09-20T17:08:27Z</time></trkpt>
<trkpt lat="46.74211" lon="6.44059"><ele>1028.8</ele><time>2023-09-20T17:08:28Z</time></trkpt>
<trkpt lat="46.74211" lon="6.44043"><ele>1029.8</ele><time>2023-09-20T17:08:35Z</time></trkpt>
<trkpt lat="46.74211" lon="6.44039"><ele>1030</ele><time>2023-09-20T17:08:37Z</time></trkpt>
<trkpt lat="46.74211" lon="6.44023"><ele>1030.8</ele><time>2023-09-20T17:08:44Z</time></trkpt>
<trkpt lat="46.74211" lon="6.44021"><ele>1031</ele><time>2023-09-20T17:08:45Z</time></trkpt>
<trkpt lat="46.74213" lon="6.44004"><ele>1032</ele><time>2023-09-20T17:08:52Z</time></trkpt>
<trkpt lat="46.74214" lon="6.43987"><ele>1033.2</ele><time>2023-09-20T17:08:59Z</time></trkpt>
<trkpt lat="46.74214" lon="6.43985"><ele>1033.4</ele><time>2023-09-20T17:09:00Z</time></trkpt>
<trkpt lat="46.74214" lon="6.43969"><ele>1034.2</ele><time>2023-09-20T17:09:06Z</time></trkpt>
<trkpt lat="46.74214" lon="6.43968"><ele>1034.4</ele><time>2023-09-20T17:09:07Z</time></trkpt>
<trkpt lat="46.74214" lon="6.43952"><ele>1035.4</ele><time>2023-09-20T17:09:14Z</time></trkpt>
<trkpt lat="46.74214" lon="6.4395"><ele>1035.6</ele><time>2023-09-20T17:09:15Z</time></trkpt>
<trkpt lat="46.74215" lon="6.43939"><ele>1036.4</ele><time>2023-09-20T17:09:20Z</time></trkpt>
<trkpt lat="46.74217" lon="6.43933"><ele>1036.8</ele><time>2023-09-20T17:09:23Z</time></trkpt>
<trkpt lat="46.74219" lon="6.4392"><ele>1037.4</ele><time>2023-09-20T17:09:28Z</time></trkpt>
<trkpt lat="46.7422" lon="6.43913"><ele>1037.8</ele><time>2023-09-20T17:09:31Z</time></trkpt>
<trkpt lat="46.74224" lon="6.43902"><ele>1038.6</ele><time>2023-09-20T17:09:36Z</time></trkpt>
<trkpt lat="46.74224" lon="6.43896"><ele>1038.8</ele><time>2023-09-20T17:09:39Z</time></trkpt>
<trkpt lat="46.74227" lon="6.43885"><ele>1039.6</ele><time>2023-09-20T17:09:44Z</time></trkpt>
<trkpt lat="46.74228" lon="6.43878"><ele>1040.2</ele><time>2023-09-20T17:09:47Z</time></trkpt>
<trkpt lat="46.7423" lon="6.43869"><ele>1040.6</ele><time>2023-09-20T17:09:51Z</time></trkpt>
<trkpt lat="46.74229" lon="6.4386"><ele>1041.2</ele><time>2023-09-20T17:09:55Z</time></trkpt>
<trkpt lat="46.7423" lon="6.43851"><ele>1042</ele><time>2023-09-20T17:09:59Z</time></trkpt>
<trkpt lat="46.74228" lon="6.43839"><ele>1042.8</ele><time>2023-09-20T17:10:04Z</time></trkpt>
<trkpt lat="46.74228" lon="6.43835"><ele>1043</ele><time>2023-09-20T17:10:06Z</time></trkpt>
<trkpt lat="46.74227" lon="6.43828"><ele>1043.6</ele><time>2023-09-20T17:10:10Z</time></trkpt>
<trkpt lat="46.74224" lon="6.43818"><ele>1044</ele><time>2023-09-20T17:10:15Z</time></trkpt>
<trkpt lat="46.74224" lon="6.43816"><ele>1044.4</ele><time>2023-09-20T17:10:16Z</time></trkpt>
<trkpt lat="46.74223" lon="6.43805"><ele>1045.2</ele><time>2023-09-20T17:10:21Z</time></trkpt>
<trkpt lat="46.74222" lon="6.43801"><ele>1045.4</ele><time>2023-09-20T17:10:23Z</time></trkpt>
<trkpt lat="46.74222" lon="6.43793"><ele>1046</ele><time>2023-09-20T17:10:26Z</time></trkpt>
<trkpt lat="46.74221" lon="6.43788"><ele>1046.2</ele><time>2023-09-20T17:10:28Z</time></trkpt>
<trkpt lat="46.7422" lon="6.43783"><ele>1046.6</ele><time>2023-09-20T17:10:30Z</time></trkpt>
<trkpt lat="46.74219" lon="6.43772"><ele>1047.4</ele><time>2023-09-20T17:10:34Z</time></trkpt>
<trkpt lat="46.74217" lon="6.43761"><ele>1048</ele><time>2023-09-20T17:10:38Z</time></trkpt>
<trkpt lat="46.74217" lon="6.43755"><ele>1048.4</ele><time>2023-09-20T17:10:40Z</time></trkpt>
<trkpt lat="46.74218" lon="6.43744"><ele>1049.2</ele><time>2023-09-20T17:10:44Z</time></trkpt>
<trkpt lat="46.74218" lon="6.4374"><ele>1049.6</ele><time>2023-09-20T17:10:45Z</time></trkpt>
<trkpt lat="46.7422" lon="6.43727"><ele>1050.4</ele><time>2023-09-20T17:10:49Z</time></trkpt>
<trkpt lat="46.74221" lon="6.43722"><ele>1050.6</ele><time>2023-09-20T17:10:51Z</time></trkpt>
<trkpt lat="46.74223" lon="6.43711"><ele>1051.2</ele><time>2023-09-20T17:10:55Z</time></trkpt>
<trkpt lat="46.74225" lon="6.43706"><ele>1051.6</ele><time>2023-09-20T17:10:57Z</time></trkpt>
<trkpt lat="46.74229" lon="6.43695"><ele>1052.4</ele><time>2023-09-20T17:11:01Z</time></trkpt>
<trkpt lat="46.74231" lon="6.43687"><ele>1052.8</ele><time>2023-09-20T17:11:04Z</time></trkpt>
<trkpt lat="46.74235" lon="6.43674"><ele>1053.8</ele><time>2023-09-20T17:11:09Z</time></trkpt>
<trkpt lat="46.74237" lon="6.43669"><ele>1054</ele><time>2023-09-20T17:11:11Z</time></trkpt>
<trkpt lat="46.7424" lon="6.43658"><ele>1055</ele><time>2023-09-20T17:11:16Z</time></trkpt>
<trkpt lat="46.74241" lon="6.43655"><ele>1055.2</ele><time>2023-09-20T17:11:17Z</time></trkpt>
<trkpt lat="46.74245" lon="6.43642"><ele>1056</ele><time>2023-09-20T17:11:23Z</time></trkpt>
<trkpt lat="46.74247" lon="6.43635"><ele>1056.6</ele><time>2023-09-20T17:11:26Z</time></trkpt>
<trkpt lat="46.7425" lon="6.43625"><ele>1057.2</ele><time>2023-09-20T17:11:30Z</time></trkpt>
<trkpt lat="46.74253" lon="6.43617"><ele>1057.8</ele><time>2023-09-20T17:11:34Z</time></trkpt>
<trkpt lat="46.74254" lon="6.43613"><ele>1058.2</ele><time>2023-09-20T17:11:36Z</time></trkpt>
<trkpt lat="46.7426" lon="6.43597"><ele>1059.2</ele><time>2023-09-20T17:11:43Z</time></trkpt>
<trkpt lat="46.74266" lon="6.43582"><ele>1060.2</ele><time>2023-09-20T17:11:50Z</time></trkpt>
<trkpt lat="46.74273" lon="6.43567"><ele>1061.4</ele><time>2023-09-20T17:11:57Z</time></trkpt>
<trkpt lat="46.7428" lon="6.43553"><ele>1062.4</ele><time>2023-09-20T17:12:04Z</time></trkpt>
<trkpt lat="46.74281" lon="6.43551"><ele>1062.6</ele><time>2023-09-20T17:12:05Z</time></trkpt>
<trkpt lat="46.74285" lon="6.43541"><ele>1063.4</ele><time>2023-09-20T17:12:10Z</time></trkpt>
<trkpt lat="46.74288" lon="6.43533"><ele>1064</ele><time>2023-09-20T17:12:14Z</time></trkpt>
<trkpt lat="46.74292" lon="6.43525"><ele>1064.6</ele><time>2023-09-20T17:12:18Z</time></trkpt>
<trkpt lat="46.74295" lon="6.43521"><ele>1064.8</ele><time>2023-09-20T17:12:20Z</time></trkpt>
<trkpt lat="46.74299" lon="6.43508"><ele>1065.6</ele><time>2023-09-20T17:12:25Z</time></trkpt>
<trkpt lat="46.743" lon="6.43506"><ele>1065.8</ele><time>2023-09-20T17:12:26Z</time></trkpt>
<trkpt lat="46.74305" lon="6.43496"><ele>1066.6</ele><time>2023-09-20T17:12:31Z</time></trkpt>
<trkpt lat="46.74307" lon="6.43492"><ele>1067</ele><time>2023-09-20T17:12:33Z</time></trkpt>
<trkpt lat="46.74312" lon="6.43481"><ele>1067.8</ele><time>2023-09-20T17:12:38Z</time></trkpt>
<trkpt lat="46.74316" lon="6.43472"><ele>1068.6</ele><time>2023-09-20T17:12:43Z</time></trkpt>
<trkpt lat="46.74318" lon="6.43469"><ele>1068.8</ele><time>2023-09-20T17:12:45Z</time></trkpt>
<trkpt lat="46.74325" lon="6.43456"><ele>1070</ele><time>2023-09-20T17:12:52Z</time></trkpt>
<trkpt lat="46.74326" lon="6.43454"><ele>1070</ele><time>2023-09-20T17:12:53Z</time></trkpt>
<trkpt lat="46.74334" lon="6.43444"><ele>1071</ele><time>2023-09-20T17:12:59Z</time></trkpt>
<trkpt lat="46.74336" lon="6.4344"><ele>1071.4</ele><time>2023-09-20T17:13:01Z</time></trkpt>
<trkpt lat="46.74342" lon="6.4343"><ele>1072</ele><time>2023-09-20T17:13:06Z</time></trkpt>
<trkpt lat="46.74346" lon="6.43426"><ele>1072.4</ele><time>2023-09-20T17:13:09Z</time></trkpt>
<trkpt lat="46.74349" lon="6.43423"><ele>1072.8</ele><time>2023-09-20T17:13:11Z</time></trkpt>
<trkpt lat="46.74351" lon="6.43419"><ele>1073</ele><time>2023-09-20T17:13:13Z</time></trkpt>
<trkpt lat="46.74353" lon="6.43415"><ele>1073.4</ele><time>2023-09-20T17:13:15Z</time></trkpt>
<trkpt lat="46.74358" lon="6.43407"><ele>1074.2</ele><time>2023-09-20T17:13:19Z</time></trkpt>
<trkpt lat="46.74365" lon="6.43397"><ele>1074.8</ele><time>2023-09-20T17:13:24Z</time></trkpt>
<trkpt lat="46.74369" lon="6.43391"><ele>1075.2</ele><time>2023-09-20T17:13:27Z</time></trkpt>
<trkpt lat="46.74377" lon="6.43382"><ele>1076</ele><time>2023-09-20T17:13:32Z</time></trkpt>
<trkpt lat="46.7438" lon="6.4338"><ele>1076.4</ele><time>2023-09-20T17:13:34Z</time></trkpt>
<trkpt lat="46.74389" lon="6.43377"><ele>1077.4</ele><time>2023-09-20T17:13:40Z</time></trkpt>
<trkpt lat="46.74393" lon="6.43377"><ele>1077.8</ele><time>2023-09-20T17:13:42Z</time></trkpt>
<trkpt lat="46.74406" lon="6.43384"><ele>1078.4</ele><time>2023-09-20T17:13:48Z</time></trkpt>
<trkpt lat="46.74412" lon="6.43389"><ele>1078.8</ele><time>2023-09-20T17:13:51Z</time></trkpt>
<trkpt lat="46.74426" lon="6.434"><ele>1079.8</ele><time>2023-09-20T17:13:58Z</time></trkpt>
<trkpt lat="46.74428" lon="6.43402"><ele>1080</ele><time>2023-09-20T17:13:59Z</time></trkpt>
<trkpt lat="46.74438" lon="6.43408"><ele>1081</ele><time>2023-09-20T17:14:05Z</time></trkpt>
<trkpt lat="46.74442" lon="6.43411"><ele>1081.2</ele><time>2023-09-20T17:14:07Z</time></trkpt>
<trkpt lat="46.74456" lon="6.4342"><ele>1082.2</ele><time>2023-09-20T17:14:14Z</time></trkpt>
<trkpt lat="46.74458" lon="6.43421"><ele>1082.2</ele><time>2023-09-20T17:14:15Z</time></trkpt>
<trkpt lat="46.74474" lon="6.43425"><ele>1083.2</ele><time>2023-09-20T17:14:23Z</time></trkpt>
<trkpt lat="46.74476" lon="6.43424"><ele>1083.2</ele><time>2023-09-20T17:14:24Z</time></trkpt>
<trkpt lat="46.74492" lon="6.43417"><ele>1084</ele><time>2023-09-20T17:14:31Z</time></trkpt>
<trkpt lat="46.74497" lon="6.43414"><ele>1084.2</ele><time>2023-09-20T17:14:33Z</time></trkpt>
<trkpt lat="46.74508" lon="6.43404"><ele>1084.6</ele><time>2023-09-20T17:14:38Z</time></trkpt>
<trkpt lat="46.74511" lon="6.43402"><ele>1084.6</ele><time>2023-09-20T17:14:39Z</time></trkpt>
<trkpt lat="46.74525" lon="6.43381"><ele>1085</ele><time>2023-09-20T17:14:46Z</time></trkpt>
<trkpt lat="46.74533" lon="6.43364"><ele>1085.2</ele><time>2023-09-20T17:14:51Z</time></trkpt>
<trkpt lat="46.74539" lon="6.43354"><ele>1085.2</ele><time>2023-09-20T17:14:54Z</time></trkpt>
<trkpt lat="46.74552" lon="6.4332"><ele>1085.4</ele><time>2023-09-20T17:15:02Z</time></trkpt>
<trkpt lat="46.74554" lon="6.43283"><ele>1085.2</ele><time>2023-09-20T17:15:09Z</time></trkpt>
<trkpt lat="46.74549" lon="6.4323"><ele>1086</ele><time>2023-09-20T17:15:19Z</time></trkpt>
<trkpt lat="46.74545" lon="6.43178"><ele>1086.2</ele><time>2023-09-20T17:15:28Z</time></trkpt>
<trkpt lat="46.74547" lon="6.4316"><ele>1086.2</ele><time>2023-09-20T17:15:31Z</time></trkpt>
<trkpt lat="46.74549" lon="6.43136"><ele>1086.4</ele><time>2023-09-20T17:15:35Z</time></trkpt>
<trkpt lat="46.74551" lon="6.43112"><ele>1086.4</ele><time>2023-09-20T17:15:39Z</time></trkpt>
<trkpt lat="46.7455" lon="6.431"><ele>1086.6</ele><time>2023-09-20T17:15:41Z</time></trkpt>
<trkpt lat="46.74541" lon="6.43065"><ele>1087</ele><time>2023-09-20T17:15:47Z</time></trkpt>
<trkpt lat="46.74528" lon="6.43033"><ele>1087.2</ele><time>2023-09-20T17:15:53Z</time></trkpt>
<trkpt lat="46.74524" lon="6.43022"><ele>1087.2</ele><time>2023-09-20T17:15:55Z</time></trkpt>
<trkpt lat="46.74519" lon="6.4301"><ele>1087.4</ele><time>2023-09-20T17:15:57Z</time></trkpt>
<trkpt lat="46.74506" lon="6.42975"><ele>1087.8</ele><time>2023-09-20T17:16:03Z</time></trkpt>
<trkpt lat="46.74489" lon="6.42929"><ele>1088.4</ele><time>2023-09-20T17:16:11Z</time></trkpt>
<trkpt lat="46.74488" lon="6.42924"><ele>1088.4</ele><time>2023-09-20T17:16:12Z</time></trkpt>
<trkpt lat="46.74488" lon="6.42901"><ele>1088.6</ele><time>2023-09-20T17:16:16Z</time></trkpt>
<trkpt lat="46.74494" lon="6.42899"><ele>1089.2</ele><time>2023-09-20T17:16:18Z</time></trkpt>
<trkpt lat="46.74497" lon="6.42901"><ele>1089.4</ele><time>2023-09-20T17:16:19Z</time></trkpt>
<trkpt lat="46.74505" lon="6.42916"><ele>1089.6</ele><time>2023-09-20T17:16:23Z</time></trkpt>
<trkpt lat="46.74515" lon="6.42942"><ele>1090.6</ele><time>2023-09-20T17:16:31Z</time></trkpt>
<trkpt lat="46.74526" lon="6.42965"><ele>1091.4</ele><time>2023-09-20T17:16:39Z</time></trkpt>
<trkpt lat="46.74527" lon="6.42968"><ele>1091.6</ele><time>2023-09-20T17:16:40Z</time></trkpt>
<trkpt lat="46.74533" lon="6.42981"><ele>1092.6</ele><time>2023-09-20T17:16:45Z</time></trkpt>
<trkpt lat="46.74535" lon="6.42983"><ele>1092.6</ele><time>2023-09-20T17:16:46Z</time></trkpt>
<trkpt lat="46.74544" lon="6.43"><ele>1093.8</ele><time>2023-09-20T17:16:53Z</time></trkpt>
<trkpt lat="46.74557" lon="6.43016"><ele>1094.8</ele><time>2023-09-20T17:17:02Z</time></trkpt>
<trkpt lat="46.74558" lon="6.43018"><ele>1095</ele><time>2023-09-20T17:17:03Z</time></trkpt>
<trkpt lat="46.74567" lon="6.43034"><ele>1096</ele><time>2023-09-20T17:17:11Z</time></trkpt>
<trkpt lat="46.74569" lon="6.43035"><ele>1096.2</ele><time>2023-09-20T17:17:12Z</time></trkpt>
<trkpt lat="46.74579" lon="6.4305"><ele>1097.2</ele><time>2023-09-20T17:17:19Z</time></trkpt>
<trkpt lat="46.74581" lon="6.43054"><ele>1097.6</ele><time>2023-09-20T17:17:21Z</time></trkpt>
<trkpt lat="46.74589" lon="6.43065"><ele>1098.4</ele><time>2023-09-20T17:17:27Z</time></trkpt>
<trkpt lat="46.74593" lon="6.4307"><ele>1099</ele><time>2023-09-20T17:17:30Z</time></trkpt>
<trkpt lat="46.74599" lon="6.43077"><ele>1099.6</ele><time>2023-09-20T17:17:34Z</time></trkpt>
<trkpt lat="46.74603" lon="6.43081"><ele>1100</ele><time>2023-09-20T17:17:37Z</time></trkpt>
<trkpt lat="46.74608" lon="6.43087"><ele>1100.6</ele><time>2023-09-20T17:17:41Z</time></trkpt>
<trkpt lat="46.74616" lon="6.43095"><ele>1101.2</ele><time>2023-09-20T17:17:46Z</time></trkpt>
<trkpt lat="46.7462" lon="6.431"><ele>1101.6</ele><time>2023-09-20T17:17:49Z</time></trkpt>
<trkpt lat="46.74627" lon="6.4311"><ele>1102.2</ele><time>2023-09-20T17:17:54Z</time></trkpt>
<trkpt lat="46.74629" lon="6.43114"><ele>1102.6</ele><time>2023-09-20T17:17:56Z</time></trkpt>
<trkpt lat="46.74634" lon="6.43124"><ele>1103.6</ele><time>2023-09-20T17:18:01Z</time></trkpt>
<trkpt lat="46.74635" lon="6.43126"><ele>1103.8</ele><time>2023-09-20T17:18:02Z</time></trkpt>
<trkpt lat="46.74641" lon="6.4314"><ele>1105</ele><time>2023-09-20T17:18:09Z</time></trkpt>
<trkpt lat="46.74642" lon="6.43144"><ele>1105.4</ele><time>2023-09-20T17:18:11Z</time></trkpt>
<trkpt lat="46.74645" lon="6.43152"><ele>1106</ele><time>2023-09-20T17:18:15Z</time></trkpt>
<trkpt lat="46.74647" lon="6.43157"><ele>1106.6</ele><time>2023-09-20T17:18:18Z</time></trkpt>
<trkpt lat="46.74649" lon="6.43163"><ele>1107.2</ele><time>2023-09-20T17:18:21Z</time></trkpt>
<trkpt lat="46.74652" lon="6.43176"><ele>1108</ele><time>2023-09-20T17:18:27Z</time></trkpt>
<trkpt lat="46.74652" lon="6.43178"><ele>1108.2</ele><time>2023-09-20T17:18:28Z</time></trkpt>
<trkpt lat="46.74656" lon="6.43188"><ele>1109.2</ele><time>2023-09-20T17:18:34Z</time></trkpt>
<trkpt lat="46.74656" lon="6.4319"><ele>1109.4</ele><time>2023-09-20T17:18:35Z</time></trkpt>
<trkpt lat="46.74661" lon="6.43205"><ele>1110.4</ele><time>2023-09-20T17:18:42Z</time></trkpt>
<trkpt lat="46.74667" lon="6.43221"><ele>1111.4</ele><time>2023-09-20T17:18:50Z</time></trkpt>
<trkpt lat="46.74668" lon="6.43223"><ele>1111.6</ele><time>2023-09-20T17:18:51Z</time></trkpt>
<trkpt lat="46.74671" lon="6.43232"><ele>1112</ele><time>2023-09-20T17:18:55Z</time></trkpt>
<trkpt lat="46.74675" lon="6.4324"><ele>1112.6</ele><time>2023-09-20T17:18:59Z</time></trkpt>
<trkpt lat="46.74675" lon="6.43243"><ele>1112.8</ele><time>2023-09-20T17:19:00Z</time></trkpt>
<trkpt lat="46.74678" lon="6.43253"><ele>1113.6</ele><time>2023-09-20T17:19:05Z</time></trkpt>
<trkpt lat="46.7468" lon="6.43259"><ele>1114</ele><time>2023-09-20T17:19:08Z</time></trkpt>
<trkpt lat="46.74685" lon="6.43269"><ele>1114.6</ele><time>2023-09-20T17:19:13Z</time></trkpt>
<trkpt lat="46.74686" lon="6.43274"><ele>1114.8</ele><time>2023-09-20T17:19:15Z</time></trkpt>
<trkpt lat="46.74693" lon="6.4329"><ele>1115.8</ele><time>2023-09-20T17:19:22Z</time></trkpt>
<trkpt lat="46.74699" lon="6.43305"><ele>1116.8</ele><time>2023-09-20T17:19:29Z</time></trkpt>
<trkpt lat="46.74699" lon="6.43308"><ele>1117</ele><time>2023-09-20T17:19:30Z</time></trkpt>
<trkpt lat="46.74706" lon="6.43322"><ele>1118</ele><time>2023-09-20T17:19:37Z</time></trkpt>
<trkpt lat="46.74707" lon="6.43324"><ele>1118.2</ele><time>2023-09-20T17:19:38Z</time></trkpt>
<trkpt lat="46.74711" lon="6.43335"><ele>1119</ele><time>2023-09-20T17:19:44Z</time></trkpt>
<trkpt lat="46.74714" lon="6.43342"><ele>1119.6</ele><time>2023-09-20T17:19:47Z</time></trkpt>
<trkpt lat="46.74716" lon="6.4335"><ele>1120.2</ele><time>2023-09-20T17:19:50Z</time></trkpt>
<trkpt lat="46.74719" lon="6.43362"><ele>1121</ele><time>2023-09-20T17:19:55Z</time></trkpt>
<trkpt lat="46.74722" lon="6.43372"><ele>1121.4</ele><time>2023-09-20T17:19:59Z</time></trkpt>
<trkpt lat="46.74723" lon="6.43378"><ele>1121.8</ele><time>2023-09-20T17:20:02Z</time></trkpt>
<trkpt lat="46.74724" lon="6.43385"><ele>1122.4</ele><time>2023-09-20T17:20:05Z</time></trkpt>
<trkpt lat="46.74726" lon="6.434"><ele>1123.2</ele><time>2023-09-20T17:20:11Z</time></trkpt>
<trkpt lat="46.74726" lon="6.43403"><ele>1123.4</ele><time>2023-09-20T17:20:12Z</time></trkpt>
<trkpt lat="46.7473" lon="6.4342"><ele>1124.4</ele><time>2023-09-20T17:20:19Z</time></trkpt>
<trkpt lat="46.74732" lon="6.4343"><ele>1125</ele><time>2023-09-20T17:20:23Z</time></trkpt>
<trkpt lat="46.74734" lon="6.43437"><ele>1125.6</ele><time>2023-09-20T17:20:26Z</time></trkpt>
<trkpt lat="46.74738" lon="6.43454"><ele>1126.6</ele><time>2023-09-20T17:20:32Z</time></trkpt>
<trkpt lat="46.74744" lon="6.43476"><ele>1127.6</ele><time>2023-09-20T17:20:40Z</time></trkpt>
<trkpt lat="46.74745" lon="6.43478"><ele>1127.6</ele><time>2023-09-20T17:20:41Z</time></trkpt>
<trkpt lat="46.7475" lon="6.43492"><ele>1128.2</ele><time>2023-09-20T17:20:46Z</time></trkpt>
<trkpt lat="46.74753" lon="6.43499"><ele>1128.6</ele><time>2023-09-20T17:20:49Z</time></trkpt>
<trkpt lat="46.74753" lon="6.43502"><ele>1128.6</ele><time>2023-09-20T17:20:50Z</time></trkpt>
<trkpt lat="46.74759" lon="6.43516"><ele>1129.6</ele><time>2023-09-20T17:20:55Z</time></trkpt>
<trkpt lat="46.74761" lon="6.43521"><ele>1129.8</ele><time>2023-09-20T17:20:57Z</time></trkpt>
<trkpt lat="46.74768" lon="6.43547"><ele>1130.6</ele><time>2023-09-20T17:21:06Z</time></trkpt>
<trkpt lat="46.74773" lon="6.43566"><ele>1131.4</ele><time>2023-09-20T17:21:12Z</time></trkpt>
<trkpt lat="46.74775" lon="6.43577"><ele>1131.6</ele><time>2023-09-20T17:21:16Z</time></trkpt>
<trkpt lat="46.74776" lon="6.4359"><ele>1132</ele><time>2023-09-20T17:21:20Z</time></trkpt>
<trkpt lat="46.74778" lon="6.4362"><ele>1132.6</ele><time>2023-09-20T17:21:28Z</time></trkpt>
<trkpt lat="46.74779" lon="6.43624"><ele>1132.8</ele><time>2023-09-20T17:21:29Z</time></trkpt>
<trkpt lat="46.74779" lon="6.43646"><ele>1133.4</ele><time>2023-09-20T17:21:35Z</time></trkpt>
<trkpt lat="46.74779" lon="6.43651"><ele>1133.4</ele><time>2023-09-20T17:21:36Z</time></trkpt>
<trkpt lat="46.74778" lon="6.43664"><ele>1133.8</ele><time>2023-09-20T17:21:39Z</time></trkpt>
<trkpt lat="46.74776" lon="6.4369"><ele>1134.6</ele><time>2023-09-20T17:21:46Z</time></trkpt>
<trkpt lat="46.74776" lon="6.43697"><ele>1134.8</ele><time>2023-09-20T17:21:48Z</time></trkpt>
<trkpt lat="46.74777" lon="6.43724"><ele>1136</ele><time>2023-09-20T17:21:56Z</time></trkpt>
<trkpt lat="46.74777" lon="6.43727"><ele>1136</ele><time>2023-09-20T17:21:57Z</time></trkpt>
<trkpt lat="46.74779" lon="6.43747"><ele>1137</ele><time>2023-09-20T17:22:03Z</time></trkpt>
<trkpt lat="46.74781" lon="6.43758"><ele>1137.4</ele><time>2023-09-20T17:22:06Z</time></trkpt>
<trkpt lat="46.74784" lon="6.43772"><ele>1138</ele><time>2023-09-20T17:22:11Z</time></trkpt>
<trkpt lat="46.74787" lon="6.43794"><ele>1139.2</ele><time>2023-09-20T17:22:18Z</time></trkpt>
<trkpt lat="46.7479" lon="6.43814"><ele>1140.2</ele><time>2023-09-20T17:22:25Z</time></trkpt>
<trkpt lat="46.74793" lon="6.43829"><ele>1141.2</ele><time>2023-09-20T17:22:31Z</time></trkpt>
<trkpt lat="46.74793" lon="6.43831"><ele>1141.4</ele><time>2023-09-20T17:22:32Z</time></trkpt>
<trkpt lat="46.74795" lon="6.43844"><ele>1142</ele><time>2023-09-20T17:22:38Z</time></trkpt>
<trkpt lat="46.74797" lon="6.43852"><ele>1142.4</ele><time>2023-09-20T17:22:42Z</time></trkpt>
<trkpt lat="46.74798" lon="6.43858"><ele>1142.8</ele><time>2023-09-20T17:22:45Z</time></trkpt>
<trkpt lat="46.74799" lon="6.43871"><ele>1143.6</ele><time>2023-09-20T17:22:51Z</time></trkpt>
<trkpt lat="46.74802" lon="6.43888"><ele>1144.6</ele><time>2023-09-20T17:22:59Z</time></trkpt>
<trkpt lat="46.74803" lon="6.4389"><ele>1144.6</ele><time>2023-09-20T17:23:00Z</time></trkpt>
<trkpt lat="46.74806" lon="6.43908"><ele>1145.6</ele><time>2023-09-20T17:23:09Z</time></trkpt>
<trkpt lat="46.74809" lon="6.43924"><ele>1146.6</ele><time>2023-09-20T17:23:17Z</time></trkpt>
<trkpt lat="46.7481" lon="6.43927"><ele>1146.6</ele><time>2023-09-20T17:23:18Z</time></trkpt>
<trkpt lat="46.7481" lon="6.43933"><ele>1147</ele><time>2023-09-20T17:23:21Z</time></trkpt>
<trkpt lat="46.74813" lon="6.43944"><ele>1147.6</ele><time>2023-09-20T17:23:27Z</time></trkpt>
<trkpt lat="46.74814" lon="6.43946"><ele>1147.8</ele><time>2023-09-20T17:23:28Z</time></trkpt>
<trkpt lat="46.74814" lon="6.43955"><ele>1148.2</ele><time>2023-09-20T17:23:33Z</time></trkpt>
<trkpt lat="46.74815" lon="6.43963"><ele>1148.8</ele><time>2023-09-20T17:23:38Z</time></trkpt>
<trkpt lat="46.74815" lon="6.43966"><ele>1148.8</ele><time>2023-09-20T17:23:40Z</time></trkpt>
<trkpt lat="46.74818" lon="6.43984"><ele>1149.4</ele><time>2023-09-20T17:23:48Z</time></trkpt>
<trkpt lat="46.74819" lon="6.43988"><ele>1149.8</ele><time>2023-09-20T17:23:50Z</time></trkpt>
<trkpt lat="46.7482" lon="6.43996"><ele>1150.6</ele><time>2023-09-20T17:23:54Z</time></trkpt>
<trkpt lat="46.7482" lon="6.43998"><ele>1150.8</ele><time>2023-09-20T17:23:55Z</time></trkpt>
<trkpt lat="46.74821" lon="6.44"><ele>1151</ele><time>2023-09-20T17:23:56Z</time></trkpt>
<trkpt lat="46.74822" lon="6.44004"><ele>1151</ele><time>2023-09-20T17:23:58Z</time></trkpt>
<trkpt lat="46.74823" lon="6.44008"><ele>1151</ele><time>2023-09-20T17:24:00Z</time></trkpt>
<trkpt lat="46.74825" lon="6.44014"><ele>1151.6</ele><time>2023-09-20T17:24:03Z</time></trkpt>
<trkpt lat="46.74826" lon="6.44016"><ele>1151.6</ele><time>2023-09-20T17:24:04Z</time></trkpt>
<trkpt lat="46.74827" lon="6.44018"><ele>1151.6</ele><time>2023-09-20T17:24:05Z</time></trkpt>
<trkpt lat="46.74828" lon="6.44022"><ele>1152</ele><time>2023-09-20T17:24:07Z</time></trkpt>
<trkpt lat="46.74832" lon="6.4403"><ele>1152.4</ele><time>2023-09-20T17:24:11Z</time></trkpt>
<trkpt lat="46.74837" lon="6.44039"><ele>1153</ele><time>2023-09-20T17:24:16Z</time></trkpt>
<trkpt lat="46.74839" lon="6.44045"><ele>1153.2</ele><time>2023-09-20T17:24:19Z</time></trkpt>
<trkpt lat="46.74846" lon="6.44058"><ele>1154</ele><time>2023-09-20T17:24:26Z</time></trkpt>
<trkpt lat="46.74847" lon="6.4406"><ele>1154</ele><time>2023-09-20T17:24:27Z</time></trkpt>
<trkpt lat="46.74852" lon="6.44069"><ele>1154.6</ele><time>2023-09-20T17:24:32Z</time></trkpt>
<trkpt lat="46.74856" lon="6.44076"><ele>1155.2</ele><time>2023-09-20T17:24:36Z</time></trkpt>
<trkpt lat="46.74859" lon="6.44081"><ele>1155.6</ele><time>2023-09-20T17:24:39Z</time></trkpt>
<trkpt lat="46.74863" lon="6.44088"><ele>1156.2</ele><time>2023-09-20T17:24:43Z</time></trkpt>
<trkpt lat="46.74867" lon="6.44095"><ele>1156.6</ele><time>2023-09-20T17:24:47Z</time></trkpt>
<trkpt lat="46.74875" lon="6.44109"><ele>1157.2</ele><time>2023-09-20T17:24:54Z</time></trkpt>
<trkpt lat="46.74877" lon="6.44112"><ele>1157.6</ele><time>2023-09-20T17:24:56Z</time></trkpt>
<trkpt lat="46.74882" lon="6.44123"><ele>1158.2</ele><time>2023-09-20T17:25:01Z</time></trkpt>
<trkpt lat="46.74886" lon="6.44129"><ele>1158.6</ele><time>2023-09-20T17:25:04Z</time></trkpt>
<trkpt lat="46.74891" lon="6.44136"><ele>1159.4</ele><time>2023-09-20T17:25:08Z</time></trkpt>
<trkpt lat="46.74894" lon="6.44142"><ele>1159.8</ele><time>2023-09-20T17:25:11Z</time></trkpt>
<trkpt lat="46.74899" lon="6.44149"><ele>1160.4</ele><time>2023-09-20T17:25:15Z</time></trkpt>
<trkpt lat="46.74901" lon="6.44156"><ele>1161.2</ele><time>2023-09-20T17:25:19Z</time></trkpt>
<trkpt lat="46.74905" lon="6.44162"><ele>1161.4</ele><time>2023-09-20T17:25:22Z</time></trkpt>
<trkpt lat="46.74906" lon="6.44164"><ele>1161.6</ele><time>2023-09-20T17:25:23Z</time></trkpt>
<trkpt lat="46.74913" lon="6.4418"><ele>1162.6</ele><time>2023-09-20T17:25:30Z</time></trkpt>
<trkpt lat="46.74916" lon="6.44188"><ele>1163</ele><time>2023-09-20T17:25:33Z</time></trkpt>
<trkpt lat="46.74919" lon="6.44198"><ele>1163.6</ele><time>2023-09-20T17:25:37Z</time></trkpt>
<trkpt lat="46.74923" lon="6.44207"><ele>1164.2</ele><time>2023-09-20T17:25:41Z</time></trkpt>
<trkpt lat="46.74926" lon="6.44215"><ele>1164.6</ele><time>2023-09-20T17:25:44Z</time></trkpt>
<trkpt lat="46.74932" lon="6.44233"><ele>1165.8</ele><time>2023-09-20T17:25:51Z</time></trkpt>
<trkpt lat="46.74932" lon="6.44235"><ele>1165.8</ele><time>2023-09-20T17:25:52Z</time></trkpt>
<trkpt lat="46.74937" lon="6.4425"><ele>1166.8</ele><time>2023-09-20T17:25:58Z</time></trkpt>
<trkpt lat="46.74938" lon="6.44253"><ele>1167</ele><time>2023-09-20T17:26:00Z</time></trkpt>
<trkpt lat="46.74943" lon="6.44266"><ele>1167.8</ele><time>2023-09-20T17:26:05Z</time></trkpt>
<trkpt lat="46.74947" lon="6.44281"><ele>1168.6</ele><time>2023-09-20T17:26:11Z</time></trkpt>
<trkpt lat="46.74947" lon="6.44284"><ele>1168.8</ele><time>2023-09-20T17:26:12Z</time></trkpt>
<trkpt lat="46.74953" lon="6.44299"><ele>1170</ele><time>2023-09-20T17:26:19Z</time></trkpt>
<trkpt lat="46.74955" lon="6.44307"><ele>1170.4</ele><time>2023-09-20T17:26:22Z</time></trkpt>
<trkpt lat="46.74959" lon="6.44319"><ele>1171</ele><time>2023-09-20T17:26:27Z</time></trkpt>
<trkpt lat="46.74962" lon="6.44328"><ele>1171.6</ele><time>2023-09-20T17:26:31Z</time></trkpt>
<trkpt lat="46.74965" lon="6.44337"><ele>1172</ele><time>2023-09-20T17:26:35Z</time></trkpt>
<trkpt lat="46.74968" lon="6.44349"><ele>1172.8</ele><time>2023-09-20T17:26:40Z</time></trkpt>
<trkpt lat="46.74971" lon="6.44356"><ele>1173.2</ele><time>2023-09-20T17:26:43Z</time></trkpt>
<trkpt lat="46.74978" lon="6.44372"><ele>1174.2</ele><time>2023-09-20T17:26:50Z</time></trkpt>
<trkpt lat="46.74989" lon="6.44388"><ele>1175.2</ele><time>2023-09-20T17:26:58Z</time></trkpt>
<trkpt lat="46.74993" lon="6.44393"><ele>1175.6</ele><time>2023-09-20T17:27:01Z</time></trkpt>
<trkpt lat="46.74999" lon="6.44399"><ele>1176.4</ele><time>2023-09-20T17:27:05Z</time></trkpt>
<trkpt lat="46.75005" lon="6.44403"><ele>1177</ele><time>2023-09-20T17:27:09Z</time></trkpt>
<trkpt lat="46.75008" lon="6.44406"><ele>1177.6</ele><time>2023-09-20T17:27:11Z</time></trkpt>
<trkpt lat="46.7502" lon="6.44414"><ele>1178.6</ele><time>2023-09-20T17:27:18Z</time></trkpt>
<trkpt lat="46.75033" lon="6.44426"><ele>1179.8</ele><time>2023-09-20T17:27:27Z</time></trkpt>
<trkpt lat="46.75034" lon="6.44428"><ele>1180</ele><time>2023-09-20T17:27:28Z</time></trkpt>
<trkpt lat="46.75042" lon="6.44436"><ele>1180.8</ele><time>2023-09-20T17:27:33Z</time></trkpt>
<trkpt lat="46.75052" lon="6.44447"><ele>1181.8</ele><time>2023-09-20T17:27:40Z</time></trkpt>
<trkpt lat="46.75055" lon="6.4445"><ele>1182</ele><time>2023-09-20T17:27:42Z</time></trkpt>
<trkpt lat="46.75063" lon="6.44461"><ele>1183</ele><time>2023-09-20T17:27:48Z</time></trkpt>
<trkpt lat="46.75067" lon="6.44466"><ele>1183.6</ele><time>2023-09-20T17:27:51Z</time></trkpt>
<trkpt lat="46.75073" lon="6.44475"><ele>1184.2</ele><time>2023-09-20T17:27:56Z</time></trkpt>
<trkpt lat="46.75076" lon="6.44478"><ele>1184.4</ele><time>2023-09-20T17:27:58Z</time></trkpt>
<trkpt lat="46.7508" lon="6.44484"><ele>1185</ele><time>2023-09-20T17:28:01Z</time></trkpt>
<trkpt lat="46.75083" lon="6.44486"><ele>1185.2</ele><time>2023-09-20T17:28:03Z</time></trkpt>
<trkpt lat="46.75091" lon="6.44492"><ele>1186</ele><time>2023-09-20T17:28:08Z</time></trkpt>
<trkpt lat="46.75094" lon="6.44495"><ele>1186.2</ele><time>2023-09-20T17:28:10Z</time></trkpt>
<trkpt lat="46.75095" lon="6.44496"><ele>1186.4</ele><time>2023-09-20T17:28:11Z</time></trkpt>
<trkpt lat="46.75107" lon="6.44502"><ele>1187.4</ele><time>2023-09-20T17:28:18Z</time></trkpt>
<trkpt lat="46.75117" lon="6.44507"><ele>1188.2</ele><time>2023-09-20T17:28:24Z</time></trkpt>
<trkpt lat="46.75121" lon="6.44509"><ele>1188.4</ele><time>2023-09-20T17:28:26Z</time></trkpt>
<trkpt lat="46.75125" lon="6.4451"><ele>1188.8</ele><time>2023-09-20T17:28:28Z</time></trkpt>
<trkpt lat="46.75135" lon="6.44514"><ele>1189.6</ele><time>2023-09-20T17:28:34Z</time></trkpt>
<trkpt lat="46.7514" lon="6.44516"><ele>1190</ele><time>2023-09-20T17:28:37Z</time></trkpt>
<trkpt lat="46.75149" lon="6.4452"><ele>1190.6</ele><time>2023-09-20T17:28:42Z</time></trkpt>
<trkpt lat="46.75155" lon="6.44523"><ele>1191.2</ele><time>2023-09-20T17:28:46Z</time></trkpt>
<trkpt lat="46.7516" lon="6.44525"><ele>1191.6</ele><time>2023-09-20T17:28:49Z</time></trkpt>
<trkpt lat="46.75172" lon="6.44531"><ele>1192.8</ele><time>2023-09-20T17:28:56Z</time></trkpt>
<trkpt lat="46.75182" lon="6.44539"><ele>1193.8</ele><time>2023-09-20T17:29:03Z</time></trkpt>
<trkpt lat="46.75183" lon="6.4454"><ele>1193.8</ele><time>2023-09-20T17:29:04Z</time></trkpt>
<trkpt lat="46.7519" lon="6.44551"><ele>1194.8</ele><time>2023-09-20T17:29:10Z</time></trkpt>
<trkpt lat="46.75194" lon="6.44556"><ele>1195</ele><time>2023-09-20T17:29:13Z</time></trkpt>
<trkpt lat="46.75201" lon="6.44567"><ele>1196</ele><time>2023-09-20T17:29:19Z</time></trkpt>
<trkpt lat="46.75208" lon="6.44578"><ele>1197</ele><time>2023-09-20T17:29:26Z</time></trkpt>
<trkpt lat="46.75217" lon="6.44591"><ele>1198.2</ele><time>2023-09-20T17:29:33Z</time></trkpt>
<trkpt lat="46.7522" lon="6.44596"><ele>1198.8</ele><time>2023-09-20T17:29:36Z</time></trkpt>
<trkpt lat="46.75224" lon="6.446"><ele>1199.2</ele><time>2023-09-20T17:29:39Z</time></trkpt>
<trkpt lat="46.75231" lon="6.44611"><ele>1200.2</ele><time>2023-09-20T17:29:45Z</time></trkpt>
<trkpt lat="46.75241" lon="6.44623"><ele>1201.4</ele><time>2023-09-20T17:29:52Z</time></trkpt>
<trkpt lat="46.75242" lon="6.44625"><ele>1201.6</ele><time>2023-09-20T17:29:53Z</time></trkpt>
<trkpt lat="46.75248" lon="6.44631"><ele>1202.6</ele><time>2023-09-20T17:29:58Z</time></trkpt>
<trkpt lat="46.75253" lon="6.44636"><ele>1203.2</ele><time>2023-09-20T17:30:02Z</time></trkpt>
<trkpt lat="46.75259" lon="6.44641"><ele>1203.8</ele><time>2023-09-20T17:30:06Z</time></trkpt>
<trkpt lat="46.75265" lon="6.44644"><ele>1204.6</ele><time>2023-09-20T17:30:10Z</time></trkpt>
<trkpt lat="46.75271" lon="6.44647"><ele>1204.8</ele><time>2023-09-20T17:30:13Z</time></trkpt>
<trkpt lat="46.75281" lon="6.4465"><ele>1205.8</ele><time>2023-09-20T17:30:19Z</time></trkpt>
<trkpt lat="46.7529" lon="6.44653"><ele>1206.4</ele><time>2023-09-20T17:30:24Z</time></trkpt>
<trkpt lat="46.75299" lon="6.44658"><ele>1207</ele><time>2023-09-20T17:30:29Z</time></trkpt>
<trkpt lat="46.75303" lon="6.44662"><ele>1207.2</ele><time>2023-09-20T17:30:31Z</time></trkpt>
<trkpt lat="46.75315" lon="6.44677"><ele>1208</ele><time>2023-09-20T17:30:38Z</time></trkpt>
<trkpt lat="46.75317" lon="6.4468"><ele>1208.4</ele><time>2023-09-20T17:30:39Z</time></trkpt>
<trkpt lat="46.75327" lon="6.44694"><ele>1209.2</ele><time>2023-09-20T17:30:45Z</time></trkpt>
<trkpt lat="46.75331" lon="6.44699"><ele>1209.4</ele><time>2023-09-20T17:30:47Z</time></trkpt>
<trkpt lat="46.75342" lon="6.44725"><ele>1209.8</ele><time>2023-09-20T17:30:54Z</time></trkpt>
<trkpt lat="46.75341" lon="6.44734"><ele>1210.4</ele><time>2023-09-20T17:30:57Z</time></trkpt>
<trkpt lat="46.7534" lon="6.44738"><ele>1210.8</ele><time>2023-09-20T17:30:59Z</time></trkpt>
<trkpt lat="46.75336" lon="6.44742"><ele>1211.4</ele><time>2023-09-20T17:31:03Z</time></trkpt>
<trkpt lat="46.75332" lon="6.44747"><ele>1212</ele><time>2023-09-20T17:31:06Z</time></trkpt>
<trkpt lat="46.75328" lon="6.44752"><ele>1212.6</ele><time>2023-09-20T17:31:10Z</time></trkpt>
<trkpt lat="46.75324" lon="6.44755"><ele>1213.2</ele><time>2023-09-20T17:31:13Z</time></trkpt>
<trkpt lat="46.7532" lon="6.44759"><ele>1213.8</ele><time>2023-09-20T17:31:18Z</time></trkpt>
<trkpt lat="46.75317" lon="6.44763"><ele>1214.2</ele><time>2023-09-20T17:31:21Z</time></trkpt>
<trkpt lat="46.75312" lon="6.44767"><ele>1214.8</ele><time>2023-09-20T17:31:25Z</time></trkpt>
<trkpt lat="46.7531" lon="6.44773"><ele>1215.4</ele><time>2023-09-20T17:31:29Z</time></trkpt>
<trkpt lat="46.75307" lon="6.44778"><ele>1215.8</ele><time>2023-09-20T17:31:32Z</time></trkpt>
<trkpt lat="46.75304" lon="6.44787"><ele>1216.4</ele><time>2023-09-20T17:31:37Z</time></trkpt>
<trkpt lat="46.75302" lon="6.44792"><ele>1216.8</ele><time>2023-09-20T17:31:40Z</time></trkpt>
<trkpt lat="46.75298" lon="6.44802"><ele>1217.4</ele><time>2023-09-20T17:31:45Z</time></trkpt>
<trkpt lat="46.75295" lon="6.44811"><ele>1217.8</ele><time>2023-09-20T17:31:49Z</time></trkpt>
<trkpt lat="46.75294" lon="6.44815"><ele>1218.2</ele><time>2023-09-20T17:31:51Z</time></trkpt>
<trkpt lat="46.75291" lon="6.44825"><ele>1219</ele><time>2023-09-20T17:31:56Z</time></trkpt>
<trkpt lat="46.75288" lon="6.44833"><ele>1219.4</ele><time>2023-09-20T17:32:00Z</time></trkpt>
<trkpt lat="46.75285" lon="6.44842"><ele>1220</ele><time>2023-09-20T17:32:04Z</time></trkpt>
<trkpt lat="46.75282" lon="6.44847"><ele>1220.4</ele><time>2023-09-20T17:32:07Z</time></trkpt>
<trkpt lat="46.75278" lon="6.44859"><ele>1221.2</ele><time>2023-09-20T17:32:12Z</time></trkpt>
<trkpt lat="46.75276" lon="6.44863"><ele>1221.4</ele><time>2023-09-20T17:32:14Z</time></trkpt>
<trkpt lat="46.75272" lon="6.44875"><ele>1222.4</ele><time>2023-09-20T17:32:20Z</time></trkpt>
<trkpt lat="46.75271" lon="6.44879"><ele>1222.6</ele><time>2023-09-20T17:32:22Z</time></trkpt>
<trkpt lat="46.75266" lon="6.44892"><ele>1223.4</ele><time>2023-09-20T17:32:28Z</time></trkpt>
<trkpt lat="46.75266" lon="6.44894"><ele>1223.4</ele><time>2023-09-20T17:32:29Z</time></trkpt>
<trkpt lat="46.75263" lon="6.44911"><ele>1224.2</ele><time>2023-09-20T17:32:36Z</time></trkpt>
<trkpt lat="46.75263" lon="6.44914"><ele>1224.4</ele><time>2023-09-20T17:32:37Z</time></trkpt>
<trkpt lat="46.75261" lon="6.44927"><ele>1225.2</ele><time>2023-09-20T17:32:42Z</time></trkpt>
<trkpt lat="46.75261" lon="6.4493"><ele>1225.4</ele><time>2023-09-20T17:32:43Z</time></trkpt>
<trkpt lat="46.75261" lon="6.44946"><ele>1226.4</ele><time>2023-09-20T17:32:50Z</time></trkpt>
<trkpt lat="46.75263" lon="6.44963"><ele>1227.6</ele><time>2023-09-20T17:32:57Z</time></trkpt>
<trkpt lat="46.75263" lon="6.44965"><ele>1227.8</ele><time>2023-09-20T17:32:58Z</time></trkpt>
<trkpt lat="46.75265" lon="6.44981"><ele>1228.8</ele><time>2023-09-20T17:33:05Z</time></trkpt>
<trkpt lat="46.75268" lon="6.44998"><ele>1229.8</ele><time>2023-09-20T17:33:12Z</time></trkpt>
<trkpt lat="46.75268" lon="6.45001"><ele>1230</ele><time>2023-09-20T17:33:13Z</time></trkpt>
<trkpt lat="46.75273" lon="6.45015"><ele>1230.8</ele><time>2023-09-20T17:33:19Z</time></trkpt>
<trkpt lat="46.75273" lon="6.45017"><ele>1231</ele><time>2023-09-20T17:33:20Z</time></trkpt>
<trkpt lat="46.75279" lon="6.45031"><ele>1232.2</ele><time>2023-09-20T17:33:27Z</time></trkpt>
<trkpt lat="46.7528" lon="6.45034"><ele>1232.2</ele><time>2023-09-20T17:33:28Z</time></trkpt>
<trkpt lat="46.75285" lon="6.45047"><ele>1233.2</ele><time>2023-09-20T17:33:34Z</time></trkpt>
<trkpt lat="46.75292" lon="6.45061"><ele>1234.2</ele><time>2023-09-20T17:33:41Z</time></trkpt>
<trkpt lat="46.75293" lon="6.45063"><ele>1234.4</ele><time>2023-09-20T17:33:42Z</time></trkpt>
<trkpt lat="46.753" lon="6.45075"><ele>1235.2</ele><time>2023-09-20T17:33:48Z</time></trkpt>
<trkpt lat="46.75304" lon="6.45083"><ele>1235.8</ele><time>2023-09-20T17:33:52Z</time></trkpt>
<trkpt lat="46.75309" lon="6.4509"><ele>1236.4</ele><time>2023-09-20T17:33:56Z</time></trkpt>
<trkpt lat="46.75314" lon="6.451"><ele>1237.2</ele><time>2023-09-20T17:34:01Z</time></trkpt>
<trkpt lat="46.75315" lon="6.45102"><ele>1237.4</ele><time>2023-09-20T17:34:02Z</time></trkpt>
<trkpt lat="46.7532" lon="6.45111"><ele>1238</ele><time>2023-09-20T17:34:07Z</time></trkpt>
<trkpt lat="46.75325" lon="6.45116"><ele>1238.4</ele><time>2023-09-20T17:34:10Z</time></trkpt>
<trkpt lat="46.75333" lon="6.45123"><ele>1239.2</ele><time>2023-09-20T17:34:16Z</time></trkpt>
<trkpt lat="46.75335" lon="6.45126"><ele>1239.6</ele><time>2023-09-20T17:34:18Z</time></trkpt>
<trkpt lat="46.75343" lon="6.45132"><ele>1240.4</ele><time>2023-09-20T17:34:24Z</time></trkpt>
<trkpt lat="46.75344" lon="6.45133"><ele>1240.6</ele><time>2023-09-20T17:34:25Z</time></trkpt>
<trkpt lat="46.75354" lon="6.45138"><ele>1241.4</ele><time>2023-09-20T17:34:31Z</time></trkpt>
<trkpt lat="46.75355" lon="6.45139"><ele>1241.6</ele><time>2023-09-20T17:34:32Z</time></trkpt>
<trkpt lat="46.75363" lon="6.45142"><ele>1242.4</ele><time>2023-09-20T17:34:38Z</time></trkpt>
<trkpt lat="46.75366" lon="6.45143"><ele>1242.6</ele><time>2023-09-20T17:34:40Z</time></trkpt>
<trkpt lat="46.75375" lon="6.45149"><ele>1243.6</ele><time>2023-09-20T17:34:46Z</time></trkpt>
<trkpt lat="46.75377" lon="6.4515"><ele>1243.8</ele><time>2023-09-20T17:34:47Z</time></trkpt>
<trkpt lat="46.75389" lon="6.45158"><ele>1244.8</ele><time>2023-09-20T17:34:54Z</time></trkpt>
<trkpt lat="46.75399" lon="6.45164"><ele>1245.8</ele><time>2023-09-20T17:35:01Z</time></trkpt>
<trkpt lat="46.75403" lon="6.45167"><ele>1246.2</ele><time>2023-09-20T17:35:04Z</time></trkpt>
<trkpt lat="46.7541" lon="6.45171"><ele>1247</ele><time>2023-09-20T17:35:09Z</time></trkpt>
<trkpt lat="46.75413" lon="6.45172"><ele>1247.2</ele><time>2023-09-20T17:35:11Z</time></trkpt>
<trkpt lat="46.75422" lon="6.45176"><ele>1248</ele><time>2023-09-20T17:35:17Z</time></trkpt>
<trkpt lat="46.75428" lon="6.4518"><ele>1248.4</ele><time>2023-09-20T17:35:21Z</time></trkpt>
<trkpt lat="46.75435" lon="6.45185"><ele>1249</ele><time>2023-09-20T17:35:26Z</time></trkpt>
<trkpt lat="46.75441" lon="6.45188"><ele>1249.6</ele><time>2023-09-20T17:35:30Z</time></trkpt>
<trkpt lat="46.75443" lon="6.45189"><ele>1249.8</ele><time>2023-09-20T17:35:31Z</time></trkpt>
<trkpt lat="46.75446" lon="6.45191"><ele>1250.2</ele><time>2023-09-20T17:35:33Z</time></trkpt>
<trkpt lat="46.75458" lon="6.45197"><ele>1251.2</ele><time>2023-09-20T17:35:41Z</time></trkpt>
<trkpt lat="46.75465" lon="6.45201"><ele>1251.8</ele><time>2023-09-20T17:35:46Z</time></trkpt>
<trkpt lat="46.75468" lon="6.45203"><ele>1252.2</ele><time>2023-09-20T17:35:48Z</time></trkpt>
<trkpt lat="46.75469" lon="6.45204"><ele>1252.4</ele><time>2023-09-20T17:35:49Z</time></trkpt>
<trkpt lat="46.75476" lon="6.45207"><ele>1253</ele><time>2023-09-20T17:35:54Z</time></trkpt>
<trkpt lat="46.75483" lon="6.45208"><ele>1253.4</ele><time>2023-09-20T17:35:58Z</time></trkpt>
<trkpt lat="46.75487" lon="6.4521"><ele>1254</ele><time>2023-09-20T17:36:02Z</time></trkpt>
<trkpt lat="46.75496" lon="6.45212"><ele>1254.4</ele><time>2023-09-20T17:36:08Z</time></trkpt>
<trkpt lat="46.75498" lon="6.45212"><ele>1254.6</ele><time>2023-09-20T17:36:09Z</time></trkpt>
<trkpt lat="46.75506" lon="6.45216"><ele>1255.2</ele><time>2023-09-20T17:36:14Z</time></trkpt>
<trkpt lat="46.75512" lon="6.45218"><ele>1255.8</ele><time>2023-09-20T17:36:18Z</time></trkpt>
<trkpt lat="46.75517" lon="6.4522"><ele>1256.2</ele><time>2023-09-20T17:36:21Z</time></trkpt>
<trkpt lat="46.75524" lon="6.45221"><ele>1256.8</ele><time>2023-09-20T17:36:26Z</time></trkpt>
<trkpt lat="46.75526" lon="6.45221"><ele>1257</ele><time>2023-09-20T17:36:28Z</time></trkpt>
<trkpt lat="46.75535" lon="6.45224"><ele>1257.8</ele><time>2023-09-20T17:36:34Z</time></trkpt>
<trkpt lat="46.7554" lon="6.45223"><ele>1258.4</ele><time>2023-09-20T17:36:38Z</time></trkpt>
<trkpt lat="46.75547" lon="6.45225"><ele>1259</ele><time>2023-09-20T17:36:43Z</time></trkpt>
<trkpt lat="46.7555" lon="6.45226"><ele>1259.2</ele><time>2023-09-20T17:36:45Z</time></trkpt>
<trkpt lat="46.75561" lon="6.45228"><ele>1260</ele><time>2023-09-20T17:36:51Z</time></trkpt>
<trkpt lat="46.75563" lon="6.45228"><ele>1260.2</ele><time>2023-09-20T17:36:52Z</time></trkpt>
<trkpt lat="46.75574" lon="6.45228"><ele>1261.2</ele><time>2023-09-20T17:36:59Z</time></trkpt>
<trkpt lat="46.75576" lon="6.45229"><ele>1261.2</ele><time>2023-09-20T17:37:00Z</time></trkpt>
<trkpt lat="46.75587" lon="6.45231"><ele>1262.2</ele><time>2023-09-20T17:37:08Z</time></trkpt>
<trkpt lat="46.75599" lon="6.45231"><ele>1263.4</ele><time>2023-09-20T17:37:16Z</time></trkpt>
<trkpt lat="46.756" lon="6.45231"><ele>1263.4</ele><time>2023-09-20T17:37:17Z</time></trkpt>
<trkpt lat="46.7561" lon="6.45232"><ele>1264.2</ele><time>2023-09-20T17:37:24Z</time></trkpt>
<trkpt lat="46.75611" lon="6.45233"><ele>1264.6</ele><time>2023-09-20T17:37:25Z</time></trkpt>
<trkpt lat="46.75621" lon="6.45235"><ele>1265.4</ele><time>2023-09-20T17:37:32Z</time></trkpt>
<trkpt lat="46.75623" lon="6.45235"><ele>1265.4</ele><time>2023-09-20T17:37:33Z</time></trkpt>
<trkpt lat="46.75625" lon="6.45235"><ele>1265.6</ele><time>2023-09-20T17:37:34Z</time></trkpt>
<trkpt lat="46.75635" lon="6.45235"><ele>1266.6</ele><time>2023-09-20T17:37:41Z</time></trkpt>
<trkpt lat="46.75638" lon="6.45235"><ele>1266.8</ele><time>2023-09-20T17:37:43Z</time></trkpt>
<trkpt lat="46.75644" lon="6.45236"><ele>1267.2</ele><time>2023-09-20T17:37:47Z</time></trkpt>
<trkpt lat="46.75648" lon="6.45236"><ele>1267.8</ele><time>2023-09-20T17:37:51Z</time></trkpt>
<trkpt lat="46.75654" lon="6.45236"><ele>1268.2</ele><time>2023-09-20T17:37:55Z</time></trkpt>
<trkpt lat="46.75661" lon="6.45236"><ele>1268.8</ele><time>2023-09-20T17:38:00Z</time></trkpt>
<trkpt lat="46.75665" lon="6.45236"><ele>1269.2</ele><time>2023-09-20T17:38:02Z</time></trkpt>
<trkpt lat="46.75671" lon="6.45238"><ele>1270</ele><time>2023-09-20T17:38:07Z</time></trkpt>
<trkpt lat="46.75676" lon="6.45239"><ele>1270.2</ele><time>2023-09-20T17:38:09Z</time></trkpt>
<trkpt lat="46.75683" lon="6.45238"><ele>1270.8</ele><time>2023-09-20T17:38:13Z</time></trkpt>
<trkpt lat="46.75687" lon="6.45239"><ele>1271.2</ele><time>2023-09-20T17:38:15Z</time></trkpt>
<trkpt lat="46.75689" lon="6.45239"><ele>1271.4</ele><time>2023-09-20T17:38:16Z</time></trkpt>
<trkpt lat="46.75698" lon="6.45239"><ele>1272.2</ele><time>2023-09-20T17:38:22Z</time></trkpt>
<trkpt lat="46.757" lon="6.4524"><ele>1272.2</ele><time>2023-09-20T17:38:23Z</time></trkpt>
<trkpt lat="46.75713" lon="6.45239"><ele>1273.4</ele><time>2023-09-20T17:38:30Z</time></trkpt>
<trkpt lat="46.75724" lon="6.45235"><ele>1274.2</ele><time>2023-09-20T17:38:37Z</time></trkpt>
<trkpt lat="46.75727" lon="6.45233"><ele>1274.4</ele><time>2023-09-20T17:38:39Z</time></trkpt>
<trkpt lat="46.75737" lon="6.45226"><ele>1275.4</ele><time>2023-09-20T17:38:46Z</time></trkpt>
<trkpt lat="46.75743" lon="6.45218"><ele>1276.2</ele><time>2023-09-20T17:38:51Z</time></trkpt>
<trkpt lat="46.75745" lon="6.45214"><ele>1276.6</ele><time>2023-09-20T17:38:53Z</time></trkpt>
<trkpt lat="46.75749" lon="6.45209"><ele>1277</ele><time>2023-09-20T17:38:56Z</time></trkpt>
<trkpt lat="46.75753" lon="6.452"><ele>1277.4</ele><time>2023-09-20T17:39:00Z</time></trkpt>
<trkpt lat="46.75753" lon="6.45198"><ele>1277.6</ele><time>2023-09-20T17:39:01Z</time></trkpt>
<trkpt lat="46.75755" lon="6.45192"><ele>1278.2</ele><time>2023-09-20T17:39:04Z</time></trkpt>
<trkpt lat="46.75757" lon="6.45182"><ele>1278.6</ele><time>2023-09-20T17:39:08Z</time></trkpt>
<trkpt lat="46.75759" lon="6.4517"><ele>1279.2</ele><time>2023-09-20T17:39:13Z</time></trkpt>
<trkpt lat="46.75759" lon="6.45161"><ele>1279.8</ele><time>2023-09-20T17:39:17Z</time></trkpt>
<trkpt lat="46.75758" lon="6.45153"><ele>1280.2</ele><time>2023-09-20T17:39:20Z</time></trkpt>
<trkpt lat="46.75755" lon="6.45137"><ele>1280.8</ele><time>2023-09-20T17:39:26Z</time></trkpt>
<trkpt lat="46.75755" lon="6.45135"><ele>1281</ele><time>2023-09-20T17:39:27Z</time></trkpt>
<trkpt lat="46.75752" lon="6.45122"><ele>1281.8</ele><time>2023-09-20T17:39:33Z</time></trkpt>
<trkpt lat="46.75751" lon="6.45117"><ele>1282.2</ele><time>2023-09-20T17:39:35Z</time></trkpt>
<trkpt lat="46.75747" lon="6.45104"><ele>1283</ele><time>2023-09-20T17:39:41Z</time></trkpt>
<trkpt lat="46.75746" lon="6.45097"><ele>1283.4</ele><time>2023-09-20T17:39:44Z</time></trkpt>
<trkpt lat="46.75743" lon="6.45083"><ele>1284</ele><time>2023-09-20T17:39:50Z</time></trkpt>
<trkpt lat="46.75742" lon="6.45077"><ele>1284.4</ele><time>2023-09-20T17:39:53Z</time></trkpt>
<trkpt lat="46.7574" lon="6.45067"><ele>1285</ele><time>2023-09-20T17:39:57Z</time></trkpt>
<trkpt lat="46.75738" lon="6.45061"><ele>1285.4</ele><time>2023-09-20T17:40:00Z</time></trkpt>
<trkpt lat="46.75735" lon="6.45051"><ele>1286</ele><time>2023-09-20T17:40:05Z</time></trkpt>
<trkpt lat="46.75734" lon="6.45044"><ele>1286.6</ele><time>2023-09-20T17:40:08Z</time></trkpt>
<trkpt lat="46.75732" lon="6.4504"><ele>1286.8</ele><time>2023-09-20T17:40:10Z</time></trkpt>
<trkpt lat="46.7573" lon="6.45036"><ele>1287.2</ele><time>2023-09-20T17:40:12Z</time></trkpt>
<trkpt lat="46.75729" lon="6.45032"><ele>1287.4</ele><time>2023-09-20T17:40:14Z</time></trkpt>
<trkpt lat="46.75726" lon="6.45022"><ele>1288.2</ele><time>2023-09-20T17:40:19Z</time></trkpt>
<trkpt lat="46.75726" lon="6.45019"><ele>1288.4</ele><time>2023-09-20T17:40:20Z</time></trkpt>
<trkpt lat="46.75724" lon="6.45015"><ele>1288.6</ele><time>2023-09-20T17:40:22Z</time></trkpt>
<trkpt lat="46.75722" lon="6.45004"><ele>1289.4</ele><time>2023-09-20T17:40:27Z</time></trkpt>
<trkpt lat="46.7572" lon="6.44996"><ele>1290</ele><time>2023-09-20T17:40:31Z</time></trkpt>
<trkpt lat="46.75718" lon="6.44988"><ele>1290.6</ele><time>2023-09-20T17:40:35Z</time></trkpt>
<trkpt lat="46.75717" lon="6.44974"><ele>1291.6</ele><time>2023-09-20T17:40:41Z</time></trkpt>
<trkpt lat="46.75717" lon="6.44955"><ele>1292.8</ele><time>2023-09-20T17:40:49Z</time></trkpt>
<trkpt lat="46.75716" lon="6.4494"><ele>1293.8</ele><time>2023-09-20T17:40:56Z</time></trkpt>
<trkpt lat="46.75716" lon="6.44936"><ele>1294</ele><time>2023-09-20T17:40:58Z</time></trkpt>
<trkpt lat="46.75718" lon="6.44925"><ele>1294.8</ele><time>2023-09-20T17:41:03Z</time></trkpt>
<trkpt lat="46.75718" lon="6.44921"><ele>1295.2</ele><time>2023-09-20T17:41:05Z</time></trkpt>
<trkpt lat="46.75722" lon="6.44911"><ele>1295.8</ele><time>2023-09-20T17:41:10Z</time></trkpt>
<trkpt lat="46.75724" lon="6.44907"><ele>1296.2</ele><time>2023-09-20T17:41:12Z</time></trkpt>
<trkpt lat="46.7573" lon="6.449"><ele>1297</ele><time>2023-09-20T17:41:17Z</time></trkpt>
<trkpt lat="46.75734" lon="6.44897"><ele>1297.4</ele><time>2023-09-20T17:41:20Z</time></trkpt>
<trkpt lat="46.7574" lon="6.44893"><ele>1298</ele><time>2023-09-20T17:41:24Z</time></trkpt>
<trkpt lat="46.75746" lon="6.4489"><ele>1298.6</ele><time>2023-09-20T17:41:28Z</time></trkpt>
<trkpt lat="46.7575" lon="6.4489"><ele>1299.2</ele><time>2023-09-20T17:41:31Z</time></trkpt>
<trkpt lat="46.75757" lon="6.44887"><ele>1300</ele><time>2023-09-20T17:41:35Z</time></trkpt>
<trkpt lat="46.7576" lon="6.44887"><ele>1300.2</ele><time>2023-09-20T17:41:37Z</time></trkpt>
<trkpt lat="46.75769" lon="6.44884"><ele>1301.4</ele><time>2023-09-20T17:41:43Z</time></trkpt>
<trkpt lat="46.75772" lon="6.44884"><ele>1301.6</ele><time>2023-09-20T17:41:45Z</time></trkpt>
<trkpt lat="46.75774" lon="6.44883"><ele>1302</ele><time>2023-09-20T17:41:47Z</time></trkpt>
<trkpt lat="46.75778" lon="6.44882"><ele>1302.4</ele><time>2023-09-20T17:41:49Z</time></trkpt>
<trkpt lat="46.75779" lon="6.44882"><ele>1302.4</ele><time>2023-09-20T17:41:50Z</time></trkpt>
<trkpt lat="46.75782" lon="6.44882"><ele>1302.6</ele><time>2023-09-20T17:41:51Z</time></trkpt>
<trkpt lat="46.75784" lon="6.44882"><ele>1302.8</ele><time>2023-09-20T17:41:52Z</time></trkpt>
<trkpt lat="46.75792" lon="6.44883"><ele>1303.6</ele><time>2023-09-20T17:41:57Z</time></trkpt>
<trkpt lat="46.75795" lon="6.44883"><ele>1303.6</ele><time>2023-09-20T17:41:58Z</time></trkpt>
<trkpt lat="46.75804" lon="6.44885"><ele>1304.6</ele><time>2023-09-20T17:42:04Z</time></trkpt>
<trkpt lat="46.75807" lon="6.44885"><ele>1305</ele><time>2023-09-20T17:42:06Z</time></trkpt>
<trkpt lat="46.75812" lon="6.44885"><ele>1305.4</ele><time>2023-09-20T17:42:09Z</time></trkpt>
<trkpt lat="46.75813" lon="6.44885"><ele>1305.6</ele><time>2023-09-20T17:42:10Z</time></trkpt>
<trkpt lat="46.75814" lon="6.44885"><ele>1305.8</ele><time>2023-09-20T17:42:11Z</time></trkpt>
<trkpt lat="46.75816" lon="6.44884"><ele>1306</ele><time>2023-09-20T17:42:12Z</time></trkpt>
<trkpt lat="46.75819" lon="6.44884"><ele>1306.2</ele><time>2023-09-20T17:42:14Z</time></trkpt>
<trkpt lat="46.75823" lon="6.44883"><ele>1306.6</ele><time>2023-09-20T17:42:16Z</time></trkpt>
<trkpt lat="46.75826" lon="6.44882"><ele>1306.8</ele><time>2023-09-20T17:42:18Z</time></trkpt>
<trkpt lat="46.75828" lon="6.44882"><ele>1307</ele><time>2023-09-20T17:42:19Z</time></trkpt>
<trkpt lat="46.7583" lon="6.44882"><ele>1307.2</ele><time>2023-09-20T17:42:21Z</time></trkpt>
<trkpt lat="46.75836" lon="6.44879"><ele>1307.6</ele><time>2023-09-20T17:42:24Z</time></trkpt>
<trkpt lat="46.75838" lon="6.44878"><ele>1307.6</ele><time>2023-09-20T17:42:25Z</time></trkpt>
<trkpt lat="46.7584" lon="6.44877"><ele>1307.8</ele><time>2023-09-20T17:42:26Z</time></trkpt>
<trkpt lat="46.7585" lon="6.44871"><ele>1308.6</ele><time>2023-09-20T17:42:32Z</time></trkpt>
<trkpt lat="46.75854" lon="6.44869"><ele>1308.8</ele><time>2023-09-20T17:42:34Z</time></trkpt>
<trkpt lat="46.75866" lon="6.44859"><ele>1309.4</ele><time>2023-09-20T17:42:42Z</time></trkpt>
<trkpt lat="46.75874" lon="6.44848"><ele>1310</ele><time>2023-09-20T17:42:47Z</time></trkpt>
<trkpt lat="46.75878" lon="6.44842"><ele>1310.2</ele><time>2023-09-20T17:42:50Z</time></trkpt>
<trkpt lat="46.75887" lon="6.44835"><ele>1310.6</ele><time>2023-09-20T17:42:56Z</time></trkpt>
<trkpt lat="46.75892" lon="6.44838"><ele>1310.8</ele><time>2023-09-20T17:43:01Z</time></trkpt>
<trkpt lat="46.75895" lon="6.44842"><ele>1310.8</ele><time>2023-09-20T17:43:06Z</time></trkpt>
<trkpt lat="46.75894" lon="6.44844"><ele>1311</ele><time>2023-09-20T17:43:07Z</time></trkpt>
<trkpt lat="46.75894" lon="6.44848"><ele>1311.6</ele><time>2023-09-20T17:43:14Z</time></trkpt>
<trkpt lat="46.75894" lon="6.44849"><ele>1311.8</ele><time>2023-09-20T17:43:19Z</time></trkpt>
<trkpt lat="46.75894" lon="6.44851"><ele>1311.6</ele><time>2023-09-20T17:43:25Z</time></trkpt>
<trkpt lat="46.75892" lon="6.44851"><ele>1311.4</ele><time>2023-09-20T17:43:32Z</time></trkpt>
<trkpt lat="46.75891" lon="6.44853"><ele>1311.2</ele><time>2023-09-20T17:43:40Z</time></trkpt>
<trkpt lat="46.75892" lon="6.4485"><ele>1311.2</ele><time>2023-09-20T17:43:46Z</time></trkpt>
<trkpt lat="46.75894" lon="6.44852"><ele>1311.2</ele><time>2023-09-20T17:43:53Z</time></trkpt>
<trkpt lat="46.75893" lon="6.44855"><ele>1311</ele><time>2023-09-20T17:44:01Z</time></trkpt>
<trkpt lat="46.75893" lon="6.44856"><ele>1311</ele><time>2023-09-20T17:44:04Z</time></trkpt>
<trkpt lat="46.75893" lon="6.44856"><ele>1311</ele><time>2023-09-20T17:44:06Z</time></trkpt>
<trkpt lat="46.75893" lon="6.44856"><ele>1311</ele><time>2023-09-20T17:44:09Z</time></trkpt>
<trkpt lat="46.75893" lon="6.44856"><ele>1311</ele><time>2023-09-20T17:44:10Z</time></trkpt>
<trkpt lat="46.75893" lon="6.44856"><ele>1311</ele><time>2023-09-20T17:44:14Z</time></trkpt>
<trkpt lat="46.75893" lon="6.44856"><ele>1311</ele><time>2023-09-20T17:44:18Z</time></trkpt>
<trkpt lat="46.75893" lon="6.44856"><ele>1311</ele><time>2023-09-20T17:44:30Z</time></trkpt>
<trkpt lat="46.75893" lon="6.44856"><ele>1311</ele><time>2023-09-20T17:44:38Z</time></trkpt>
<trkpt lat="46.75893" lon="6.44856"><ele>1311</ele><time>2023-09-20T17:44:45Z</time></trkpt>
<trkpt lat="46.75893" lon="6.44856"><ele>1311</ele><time>2023-09-20T17:44:52Z</time></trkpt>
<trkpt lat="46.75893" lon="6.44856"><ele>1311</ele><time>2023-09-20T17:45:05Z</time></trkpt>
<trkpt lat="46.75893" lon="6.44856"><ele>1311</ele><time>2023-09-20T17:45:15Z</time></trkpt>
<trkpt lat="46.75893" lon="6.44856"><ele>1311</ele><time>2023-09-20T17:45:34Z</time></trkpt>
<trkpt lat="46.75892" lon="6.44852"><ele>1311</ele><time>2023-09-20T17:45:43Z</time></trkpt>
<trkpt lat="46.75892" lon="6.44852"><ele>1311</ele><time>2023-09-20T17:45:45Z</time></trkpt>
<trkpt lat="46.75894" lon="6.44851"><ele>1311</ele><time>2023-09-20T17:45:55Z</time></trkpt>
<trkpt lat="46.75895" lon="6.4485"><ele>1311</ele><time>2023-09-20T17:45:58Z</time></trkpt>
<trkpt lat="46.75894" lon="6.4485"><ele>1311</ele><time>2023-09-20T17:46:07Z</time></trkpt>
<trkpt lat="46.75894" lon="6.4485"><ele>1311</ele><time>2023-09-20T17:46:09Z</time></trkpt>
<trkpt lat="46.75894" lon="6.44852"><ele>1311</ele><time>2023-09-20T17:46:18Z</time></trkpt>
<trkpt lat="46.75893" lon="6.4485"><ele>1311</ele><time>2023-09-20T17:46:24Z</time></trkpt>
<trkpt lat="46.75892" lon="6.4485"><ele>1311</ele><time>2023-09-20T17:46:32Z</time></trkpt>
<trkpt lat="46.75892" lon="6.4485"><ele>1311</ele><time>2023-09-20T17:46:38Z</time></trkpt>
<trkpt lat="46.7589" lon="6.44849"><ele>1311</ele><time>2023-09-20T17:46:41Z</time></trkpt>
<trkpt lat="46.7589" lon="6.44849"><ele>1311</ele><time>2023-09-20T17:46:50Z</time></trkpt>
<trkpt lat="46.7589" lon="6.44849"><ele>1311</ele><time>2023-09-20T17:46:53Z</time></trkpt>
<trkpt lat="46.75891" lon="6.44849"><ele>1311</ele><time>2023-09-20T17:46:54Z</time></trkpt>
<trkpt lat="46.75891" lon="6.44849"><ele>1311</ele><time>2023-09-20T17:46:56Z</time></trkpt>
<trkpt lat="46.75891" lon="6.44849"><ele>1311</ele><time>2023-09-20T17:47:03Z</time></trkpt>
<trkpt lat="46.75893" lon="6.44852"><ele>1311</ele><time>2023-09-20T17:47:12Z</time></trkpt>
<trkpt lat="46.75892" lon="6.44849"><ele>1311</ele><time>2023-09-20T17:47:18Z</time></trkpt>
<trkpt lat="46.75894" lon="6.44849"><ele>1311</ele><time>2023-09-20T17:47:23Z</time></trkpt>
<trkpt lat="46.75896" lon="6.44846"><ele>1311</ele><time>2023-09-20T17:47:30Z</time></trkpt>
<trkpt lat="46.75897" lon="6.44845"><ele>1311</ele><time>2023-09-20T17:47:31Z</time></trkpt>
<trkpt lat="46.75894" lon="6.44848"><ele>1311</ele><time>2023-09-20T17:47:36Z</time></trkpt>
<trkpt lat="46.75893" lon="6.4485"><ele>1311</ele><time>2023-09-20T17:47:43Z</time></trkpt>
<trkpt lat="46.75893" lon="6.44849"><ele>1311</ele><time>2023-09-20T17:47:44Z</time></trkpt>
<trkpt lat="46.75893" lon="6.44845"><ele>1311</ele><time>2023-09-20T17:47:49Z</time></trkpt>
<trkpt lat="46.75893" lon="6.44835"><ele>1311.2</ele><time>2023-09-20T17:47:52Z</time></trkpt>
<trkpt lat="46.75893" lon="6.44828"><ele>1310.8</ele><time>2023-09-20T17:47:54Z</time></trkpt>
<trkpt lat="46.75893" lon="6.44807"><ele>1310.6</ele><time>2023-09-20T17:48:01Z</time></trkpt>
<trkpt lat="46.75898" lon="6.44789"><ele>1310.8</ele><time>2023-09-20T17:48:08Z</time></trkpt>
<trkpt lat="46.75906" lon="6.44771"><ele>1311.4</ele><time>2023-09-20T17:48:16Z</time></trkpt>
<trkpt lat="46.75912" lon="6.44753"><ele>1312</ele><time>2023-09-20T17:48:22Z</time></trkpt>
<trkpt lat="46.75913" lon="6.44751"><ele>1312.2</ele><time>2023-09-20T17:48:23Z</time></trkpt>
<trkpt lat="46.75917" lon="6.44738"><ele>1313</ele><time>2023-09-20T17:48:29Z</time></trkpt>
<trkpt lat="46.75918" lon="6.44733"><ele>1313.2</ele><time>2023-09-20T17:48:31Z</time></trkpt>
<trkpt lat="46.75922" lon="6.44722"><ele>1314</ele><time>2023-09-20T17:48:36Z</time></trkpt>
<trkpt lat="46.75924" lon="6.44718"><ele>1314.2</ele><time>2023-09-20T17:48:38Z</time></trkpt>
<trkpt lat="46.75931" lon="6.44712"><ele>1315</ele><time>2023-09-20T17:48:43Z</time></trkpt>
<trkpt lat="46.75934" lon="6.4471"><ele>1315.4</ele><time>2023-09-20T17:48:45Z</time></trkpt>
<trkpt lat="46.7594" lon="6.44707"><ele>1316.2</ele><time>2023-09-20T17:48:49Z</time></trkpt>
<trkpt lat="46.75943" lon="6.44706"><ele>1316.6</ele><time>2023-09-20T17:48:51Z</time></trkpt>
<trkpt lat="46.75947" lon="6.44705"><ele>1317</ele><time>2023-09-20T17:48:54Z</time></trkpt>
<trkpt lat="46.75952" lon="6.44704"><ele>1317.6</ele><time>2023-09-20T17:48:57Z</time></trkpt>
<trkpt lat="46.75956" lon="6.44704"><ele>1318</ele><time>2023-09-20T17:48:59Z</time></trkpt>
<trkpt lat="46.75963" lon="6.44703"><ele>1318.6</ele><time>2023-09-20T17:49:04Z</time></trkpt>
<trkpt lat="46.75964" lon="6.44704"><ele>1318.8</ele><time>2023-09-20T17:49:05Z</time></trkpt>
<trkpt lat="46.75972" lon="6.44706"><ele>1319.6</ele><time>2023-09-20T17:49:11Z</time></trkpt>
<trkpt lat="46.75973" lon="6.44706"><ele>1319.8</ele><time>2023-09-20T17:49:12Z</time></trkpt>
<trkpt lat="46.75979" lon="6.44708"><ele>1320.8</ele><time>2023-09-20T17:49:18Z</time></trkpt>
<trkpt lat="46.75987" lon="6.44708"><ele>1321.8</ele><time>2023-09-20T17:49:25Z</time></trkpt>
<trkpt lat="46.75991" lon="6.44707"><ele>1322</ele><time>2023-09-20T17:49:27Z</time></trkpt>
<trkpt lat="46.75999" lon="6.44706"><ele>1322.8</ele><time>2023-09-20T17:49:33Z</time></trkpt>
<trkpt lat="46.76001" lon="6.44705"><ele>1323.2</ele><time>2023-09-20T17:49:35Z</time></trkpt>
<trkpt lat="46.76011" lon="6.44707"><ele>1324</ele><time>2023-09-20T17:49:41Z</time></trkpt>
<trkpt lat="46.76013" lon="6.44706"><ele>1324.2</ele><time>2023-09-20T17:49:42Z</time></trkpt>
<trkpt lat="46.76021" lon="6.44703"><ele>1325</ele><time>2023-09-20T17:49:49Z</time></trkpt>
<trkpt lat="46.76021" lon="6.44702"><ele>1325.2</ele><time>2023-09-20T17:49:50Z</time></trkpt>
<trkpt lat="46.76027" lon="6.44693"><ele>1326</ele><time>2023-09-20T17:49:56Z</time></trkpt>
<trkpt lat="46.76029" lon="6.4469"><ele>1326.4</ele><time>2023-09-20T17:49:58Z</time></trkpt>
<trkpt lat="46.76032" lon="6.44679"><ele>1327.2</ele><time>2023-09-20T17:50:04Z</time></trkpt>
<trkpt lat="46.76032" lon="6.44676"><ele>1327.4</ele><time>2023-09-20T17:50:05Z</time></trkpt>
<trkpt lat="46.76033" lon="6.44673"><ele>1327.8</ele><time>2023-09-20T17:50:07Z</time></trkpt>
<trkpt lat="46.76033" lon="6.44672"><ele>1327.8</ele><time>2023-09-20T17:50:08Z</time></trkpt>
<trkpt lat="46.76033" lon="6.44669"><ele>1328</ele><time>2023-09-20T17:50:10Z</time></trkpt>
<trkpt lat="46.76032" lon="6.44666"><ele>1328.4</ele><time>2023-09-20T17:50:12Z</time></trkpt>
<trkpt lat="46.76031" lon="6.4466"><ele>1329.2</ele><time>2023-09-20T17:50:16Z</time></trkpt>
<trkpt lat="46.76031" lon="6.44659"><ele>1329.2</ele><time>2023-09-20T17:50:17Z</time></trkpt>
<trkpt lat="46.76028" lon="6.44655"><ele>1329.4</ele><time>2023-09-20T17:50:20Z</time></trkpt>
<trkpt lat="46.76028" lon="6.44644"><ele>1330</ele><time>2023-09-20T17:50:25Z</time></trkpt>
<trkpt lat="46.76028" lon="6.44638"><ele>1330.4</ele><time>2023-09-20T17:50:27Z</time></trkpt>
<trkpt lat="46.76028" lon="6.44629"><ele>1331</ele><time>2023-09-20T17:50:31Z</time></trkpt>
<trkpt lat="46.76025" lon="6.4462"><ele>1331.4</ele><time>2023-09-20T17:50:35Z</time></trkpt>
<trkpt lat="46.76023" lon="6.44617"><ele>1331.8</ele><time>2023-09-20T17:50:37Z</time></trkpt>
<trkpt lat="46.76017" lon="6.44612"><ele>1332.6</ele><time>2023-09-20T17:50:42Z</time></trkpt>
<trkpt lat="46.76011" lon="6.44611"><ele>1333.2</ele><time>2023-09-20T17:50:46Z</time></trkpt>
<trkpt lat="46.76007" lon="6.4461"><ele>1333.6</ele><time>2023-09-20T17:50:48Z</time></trkpt>
<trkpt lat="46.76006" lon="6.4461"><ele>1333.8</ele><time>2023-09-20T17:50:49Z</time></trkpt>
<trkpt lat="46.75995" lon="6.44608"><ele>1334.6</ele><time>2023-09-20T17:50:56Z</time></trkpt>
<trkpt lat="46.75993" lon="6.44608"><ele>1334.8</ele><time>2023-09-20T17:50:57Z</time></trkpt>
<trkpt lat="46.75983" lon="6.44608"><ele>1335.4</ele><time>2023-09-20T17:51:03Z</time></trkpt>
<trkpt lat="46.7598" lon="6.44609"><ele>1335.8</ele><time>2023-09-20T17:51:05Z</time></trkpt>
<trkpt lat="46.75972" lon="6.44612"><ele>1336.4</ele><time>2023-09-20T17:51:09Z</time></trkpt>
<trkpt lat="46.75967" lon="6.44615"><ele>1337</ele><time>2023-09-20T17:51:12Z</time></trkpt>
<trkpt lat="46.75962" lon="6.4462"><ele>1337.6</ele><time>2023-09-20T17:51:16Z</time></trkpt>
<trkpt lat="46.75958" lon="6.44623"><ele>1338</ele><time>2023-09-20T17:51:19Z</time></trkpt>
<trkpt lat="46.75952" lon="6.44626"><ele>1338.8</ele><time>2023-09-20T17:51:23Z</time></trkpt>
<trkpt lat="46.75947" lon="6.44627"><ele>1339</ele><time>2023-09-20T17:51:26Z</time></trkpt>
<trkpt lat="46.7594" lon="6.44629"><ele>1339.8</ele><time>2023-09-20T17:51:30Z</time></trkpt>
<trkpt lat="46.75936" lon="6.44629"><ele>1340.2</ele><time>2023-09-20T17:51:33Z</time></trkpt>
<trkpt lat="46.75928" lon="6.44629"><ele>1340.8</ele><time>2023-09-20T17:51:37Z</time></trkpt>
<trkpt lat="46.75926" lon="6.44627"><ele>1341.4</ele><time>2023-09-20T17:51:39Z</time></trkpt>
<trkpt lat="46.75918" lon="6.44622"><ele>1342.2</ele><time>2023-09-20T17:51:44Z</time></trkpt>
<trkpt lat="46.75916" lon="6.44618"><ele>1342.4</ele><time>2023-09-20T17:51:46Z</time></trkpt>
<trkpt lat="46.75912" lon="6.44613"><ele>1343.6</ele><time>2023-09-20T17:51:52Z</time></trkpt>
<trkpt lat="46.75911" lon="6.44611"><ele>1343.8</ele><time>2023-09-20T17:51:54Z</time></trkpt>
<trkpt lat="46.75907" lon="6.44604"><ele>1344.4</ele><time>2023-09-20T17:51:58Z</time></trkpt>
<trkpt lat="46.75904" lon="6.44598"><ele>1344.6</ele><time>2023-09-20T17:52:01Z</time></trkpt>
<trkpt lat="46.75896" lon="6.44589"><ele>1345.4</ele><time>2023-09-20T17:52:07Z</time></trkpt>
<trkpt lat="46.75894" lon="6.44585"><ele>1345.8</ele><time>2023-09-20T17:52:09Z</time></trkpt>
<trkpt lat="46.75889" lon="6.44575"><ele>1346.4</ele><time>2023-09-20T17:52:15Z</time></trkpt>
<trkpt lat="46.75886" lon="6.44572"><ele>1346.8</ele><time>2023-09-20T17:52:17Z</time></trkpt>
<trkpt lat="46.75881" lon="6.44567"><ele>1347.6</ele><time>2023-09-20T17:52:22Z</time></trkpt>
<trkpt lat="46.75877" lon="6.44561"><ele>1348</ele><time>2023-09-20T17:52:25Z</time></trkpt>
<trkpt lat="46.75873" lon="6.44551"><ele>1348.8</ele><time>2023-09-20T17:52:30Z</time></trkpt>
<trkpt lat="46.75873" lon="6.4455"><ele>1349</ele><time>2023-09-20T17:52:31Z</time></trkpt>
<trkpt lat="46.75866" lon="6.44539"><ele>1349.6</ele><time>2023-09-20T17:52:37Z</time></trkpt>
<trkpt lat="46.75863" lon="6.44534"><ele>1350</ele><time>2023-09-20T17:52:40Z</time></trkpt>
<trkpt lat="46.75858" lon="6.44527"><ele>1350.8</ele><time>2023-09-20T17:52:45Z</time></trkpt>
<trkpt lat="46.75855" lon="6.44522"><ele>1351.2</ele><time>2023-09-20T17:52:48Z</time></trkpt>
<trkpt lat="46.75851" lon="6.44515"><ele>1351.8</ele><time>2023-09-20T17:52:52Z</time></trkpt>
<trkpt lat="46.75847" lon="6.44506"><ele>1352.2</ele><time>2023-09-20T17:52:56Z</time></trkpt>
<trkpt lat="46.75844" lon="6.445"><ele>1352.6</ele><time>2023-09-20T17:52:59Z</time></trkpt>
<trkpt lat="46.75841" lon="6.44489"><ele>1353.4</ele><time>2023-09-20T17:53:04Z</time></trkpt>
<trkpt lat="46.7584" lon="6.44484"><ele>1353.8</ele><time>2023-09-20T17:53:06Z</time></trkpt>
<trkpt lat="46.75842" lon="6.4447"><ele>1354.6</ele><time>2023-09-20T17:53:12Z</time></trkpt>
<trkpt lat="46.75847" lon="6.44459"><ele>1355.4</ele><time>2023-09-20T17:53:19Z</time></trkpt>
<trkpt lat="46.7585" lon="6.44454"><ele>1355.6</ele><time>2023-09-20T17:53:22Z</time></trkpt>
<trkpt lat="46.75856" lon="6.44443"><ele>1356.6</ele><time>2023-09-20T17:53:28Z</time></trkpt>
<trkpt lat="46.75857" lon="6.44441"><ele>1356.8</ele><time>2023-09-20T17:53:29Z</time></trkpt>
<trkpt lat="46.75865" lon="6.44429"><ele>1357.8</ele><time>2023-09-20T17:53:37Z</time></trkpt>
<trkpt lat="46.75866" lon="6.44427"><ele>1358</ele><time>2023-09-20T17:53:38Z</time></trkpt>
<trkpt lat="46.75874" lon="6.44414"><ele>1359</ele><time>2023-09-20T17:53:46Z</time></trkpt>
<trkpt lat="46.75875" lon="6.4441"><ele>1359.2</ele><time>2023-09-20T17:53:48Z</time></trkpt>
<trkpt lat="46.75881" lon="6.444"><ele>1360</ele><time>2023-09-20T17:53:55Z</time></trkpt>
<trkpt lat="46.75883" lon="6.44395"><ele>1360.4</ele><time>2023-09-20T17:53:57Z</time></trkpt>
<trkpt lat="46.75887" lon="6.4438"><ele>1361</ele><time>2023-09-20T17:54:05Z</time></trkpt>
<trkpt lat="46.75887" lon="6.44361"><ele>1362.2</ele><time>2023-09-20T17:54:13Z</time></trkpt>
<trkpt lat="46.75887" lon="6.44358"><ele>1362.2</ele><time>2023-09-20T17:54:14Z</time></trkpt>
<trkpt lat="46.75884" lon="6.44341"><ele>1363.2</ele><time>2023-09-20T17:54:21Z</time></trkpt>
<trkpt lat="46.75882" lon="6.44336"><ele>1363.2</ele><time>2023-09-20T17:54:23Z</time></trkpt>
<trkpt lat="46.75876" lon="6.44325"><ele>1363.8</ele><time>2023-09-20T17:54:28Z</time></trkpt>
<trkpt lat="46.7587" lon="6.44318"><ele>1364.2</ele><time>2023-09-20T17:54:32Z</time></trkpt>
<trkpt lat="46.75864" lon="6.44317"><ele>1364.6</ele><time>2023-09-20T17:54:35Z</time></trkpt>
<trkpt lat="46.75855" lon="6.44318"><ele>1365.2</ele><time>2023-09-20T17:54:40Z</time></trkpt>
<trkpt lat="46.75851" lon="6.4432"><ele>1365.4</ele><time>2023-09-20T17:54:42Z</time></trkpt>
<trkpt lat="46.75838" lon="6.44325"><ele>1366.2</ele><time>2023-09-20T17:54:49Z</time></trkpt>
<trkpt lat="46.75834" lon="6.44326"><ele>1366.6</ele><time>2023-09-20T17:54:51Z</time></trkpt>
<trkpt lat="46.75823" lon="6.44329"><ele>1367.4</ele><time>2023-09-20T17:54:57Z</time></trkpt>
<trkpt lat="46.7582" lon="6.44331"><ele>1367.6</ele><time>2023-09-20T17:54:59Z</time></trkpt>
<trkpt lat="46.75807" lon="6.44336"><ele>1368.4</ele><time>2023-09-20T17:55:06Z</time></trkpt>
<trkpt lat="46.75805" lon="6.44336"><ele>1368.6</ele><time>2023-09-20T17:55:07Z</time></trkpt>
<trkpt lat="46.75792" lon="6.44335"><ele>1369.6</ele><time>2023-09-20T17:55:15Z</time></trkpt>
<trkpt lat="46.75784" lon="6.44325"><ele>1370.4</ele><time>2023-09-20T17:55:21Z</time></trkpt>
<trkpt lat="46.75783" lon="6.44322"><ele>1370.6</ele><time>2023-09-20T17:55:23Z</time></trkpt>
<trkpt lat="46.75779" lon="6.44314"><ele>1371.4</ele><time>2023-09-20T17:55:28Z</time></trkpt>
<trkpt lat="46.75779" lon="6.44312"><ele>1371.6</ele><time>2023-09-20T17:55:29Z</time></trkpt>
<trkpt lat="46.75779" lon="6.44304"><ele>1372.2</ele><time>2023-09-20T17:55:33Z</time></trkpt>
<trkpt lat="46.75779" lon="6.44299"><ele>1372.6</ele><time>2023-09-20T17:55:35Z</time></trkpt>
<trkpt lat="46.75778" lon="6.44297"><ele>1372.6</ele><time>2023-09-20T17:55:36Z</time></trkpt>
<trkpt lat="46.75778" lon="6.4429"><ele>1373.2</ele><time>2023-09-20T17:55:39Z</time></trkpt>
<trkpt lat="46.75778" lon="6.4428"><ele>1373.8</ele><time>2023-09-20T17:55:44Z</time></trkpt>
<trkpt lat="46.75778" lon="6.44278"><ele>1373.8</ele><time>2023-09-20T17:55:45Z</time></trkpt>
<trkpt lat="46.75779" lon="6.4428"><ele>1374.2</ele><time>2023-09-20T17:55:49Z</time></trkpt>
<trkpt lat="46.75779" lon="6.44279"><ele>1374.2</ele><time>2023-09-20T17:55:57Z</time></trkpt>
<trkpt lat="46.75778" lon="6.44278"><ele>1374.2</ele><time>2023-09-20T17:56:03Z</time></trkpt>
<trkpt lat="46.75778" lon="6.44278"><ele>1374.4</ele><time>2023-09-20T17:56:08Z</time></trkpt>
<trkpt lat="46.75778" lon="6.44278"><ele>1374.2</ele><time>2023-09-20T17:56:14Z</time></trkpt>
<trkpt lat="46.75777" lon="6.44278"><ele>1374.2</ele><time>2023-09-20T17:56:20Z</time></trkpt>
<trkpt lat="46.75778" lon="6.44279"><ele>1374.2</ele><time>2023-09-20T17:56:29Z</time></trkpt>
<trkpt lat="46.75778" lon="6.44279"><ele>1374.2</ele><time>2023-09-20T17:56:33Z</time></trkpt>
<trkpt lat="46.75778" lon="6.44278"><ele>1374.2</ele><time>2023-09-20T17:56:36Z</time></trkpt>
<trkpt lat="46.75776" lon="6.44275"><ele>1374.2</ele><time>2023-09-20T17:56:38Z</time></trkpt>
<trkpt lat="46.75776" lon="6.44273"><ele>1374.2</ele><time>2023-09-20T17:56:39Z</time></trkpt>
<trkpt lat="46.75777" lon="6.44262"><ele>1374.8</ele><time>2023-09-20T17:56:44Z</time></trkpt>
<trkpt lat="46.75777" lon="6.44257"><ele>1375.2</ele><time>2023-09-20T17:56:46Z</time></trkpt>
<trkpt lat="46.75776" lon="6.44245"><ele>1375.8</ele><time>2023-09-20T17:56:52Z</time></trkpt>
<trkpt lat="46.75776" lon="6.4423"><ele>1377</ele><time>2023-09-20T17:56:59Z</time></trkpt>
<trkpt lat="46.75776" lon="6.44225"><ele>1377.2</ele><time>2023-09-20T17:57:01Z</time></trkpt>
<trkpt lat="46.75773" lon="6.44211"><ele>1378</ele><time>2023-09-20T17:57:08Z</time></trkpt>
<trkpt lat="46.75773" lon="6.4421"><ele>1378.2</ele><time>2023-09-20T17:57:09Z</time></trkpt>
<trkpt lat="46.75766" lon="6.44198"><ele>1378.6</ele><time>2023-09-20T17:57:15Z</time></trkpt>
<trkpt lat="46.75757" lon="6.44193"><ele>1379</ele><time>2023-09-20T17:57:21Z</time></trkpt>
<trkpt lat="46.75754" lon="6.44192"><ele>1379.2</ele><time>2023-09-20T17:57:23Z</time></trkpt>
<trkpt lat="46.75743" lon="6.44183"><ele>1379.6</ele><time>2023-09-20T17:57:29Z</time></trkpt>
<trkpt lat="46.75733" lon="6.44176"><ele>1380</ele><time>2023-09-20T17:57:34Z</time></trkpt>
<trkpt lat="46.75729" lon="6.44172"><ele>1380.2</ele><time>2023-09-20T17:57:36Z</time></trkpt>
<trkpt lat="46.75717" lon="6.44151"><ele>1380.8</ele><time>2023-09-20T17:57:43Z</time></trkpt>
<trkpt lat="46.75715" lon="6.44145"><ele>1381.2</ele><time>2023-09-20T17:57:45Z</time></trkpt>
<trkpt lat="46.7571" lon="6.44127"><ele>1382</ele><time>2023-09-20T17:57:51Z</time></trkpt>
<trkpt lat="46.75708" lon="6.44121"><ele>1382.2</ele><time>2023-09-20T17:57:53Z</time></trkpt>
<trkpt lat="46.75704" lon="6.44102"><ele>1382.6</ele><time>2023-09-20T17:57:58Z</time></trkpt>
<trkpt lat="46.75698" lon="6.44082"><ele>1383.4</ele><time>2023-09-20T17:58:04Z</time></trkpt>
<trkpt lat="46.75697" lon="6.44075"><ele>1383.6</ele><time>2023-09-20T17:58:06Z</time></trkpt>
<trkpt lat="46.75693" lon="6.4404"><ele>1384.4</ele><time>2023-09-20T17:58:15Z</time></trkpt>
<trkpt lat="46.75693" lon="6.44037"><ele>1384.4</ele><time>2023-09-20T17:58:16Z</time></trkpt>
<trkpt lat="46.75693" lon="6.44017"><ele>1384.8</ele><time>2023-09-20T17:58:21Z</time></trkpt>
<trkpt lat="46.75697" lon="6.43996"><ele>1384.8</ele><time>2023-09-20T17:58:26Z</time></trkpt>
<trkpt lat="46.7571" lon="6.43963"><ele>1384.4</ele><time>2023-09-20T17:58:34Z</time></trkpt>
<trkpt lat="46.7572" lon="6.43929"><ele>1385</ele><time>2023-09-20T17:58:43Z</time></trkpt>
<trkpt lat="46.75719" lon="6.43922"><ele>1385.2</ele><time>2023-09-20T17:58:45Z</time></trkpt>
<trkpt lat="46.75719" lon="6.43919"><ele>1385.4</ele><time>2023-09-20T17:58:46Z</time></trkpt>
<trkpt lat="46.75717" lon="6.43908"><ele>1385.6</ele><time>2023-09-20T17:58:49Z</time></trkpt>
<trkpt lat="46.75715" lon="6.43894"><ele>1386.4</ele><time>2023-09-20T17:58:53Z</time></trkpt>
<trkpt lat="46.75714" lon="6.43886"><ele>1386.6</ele><time>2023-09-20T17:58:55Z</time></trkpt>
<trkpt lat="46.75714" lon="6.43853"><ele>1386.6</ele><time>2023-09-20T17:59:02Z</time></trkpt>
<trkpt lat="46.75718" lon="6.43815"><ele>1386.6</ele><time>2023-09-20T17:59:09Z</time></trkpt>
<trkpt lat="46.75731" lon="6.43796"><ele>1386.6</ele><time>2023-09-20T17:59:14Z</time></trkpt>
<trkpt lat="46.75745" lon="6.43781"><ele>1387.6</ele><time>2023-09-20T17:59:20Z</time></trkpt>
<trkpt lat="46.75747" lon="6.43778"><ele>1387.6</ele><time>2023-09-20T17:59:21Z</time></trkpt>
<trkpt lat="46.75754" lon="6.43755"><ele>1388.4</ele><time>2023-09-20T17:59:28Z</time></trkpt>
<trkpt lat="46.75755" lon="6.43749"><ele>1388.8</ele><time>2023-09-20T17:59:30Z</time></trkpt>
<trkpt lat="46.75756" lon="6.43737"><ele>1389.4</ele><time>2023-09-20T17:59:34Z</time></trkpt>
<trkpt lat="46.75757" lon="6.4373"><ele>1389.8</ele><time>2023-09-20T17:59:36Z</time></trkpt>
<trkpt lat="46.7576" lon="6.43716"><ele>1390.4</ele><time>2023-09-20T17:59:40Z</time></trkpt>
<trkpt lat="46.75767" lon="6.43687"><ele>1390.6</ele><time>2023-09-20T17:59:47Z</time></trkpt>
<trkpt lat="46.75768" lon="6.43683"><ele>1390.6</ele><time>2023-09-20T17:59:48Z</time></trkpt>
<trkpt lat="46.75772" lon="6.43669"><ele>1390.4</ele><time>2023-09-20T17:59:51Z</time></trkpt>
<trkpt lat="46.7577" lon="6.43653"><ele>1390.2</ele><time>2023-09-20T17:59:54Z</time></trkpt>
<trkpt lat="46.75764" lon="6.43645"><ele>1389.6</ele><time>2023-09-20T17:59:56Z</time></trkpt>
<trkpt lat="46.75756" lon="6.43638"><ele>1389.2</ele><time>2023-09-20T17:59:58Z</time></trkpt>
<trkpt lat="46.75751" lon="6.43635"><ele>1388.6</ele><time>2023-09-20T17:59:59Z</time></trkpt>
<trkpt lat="46.75734" lon="6.43616"><ele>1387.6</ele><time>2023-09-20T18:00:03Z</time></trkpt>
<trkpt lat="46.7573" lon="6.4361"><ele>1387</ele><time>2023-09-20T18:00:04Z</time></trkpt>
<trkpt lat="46.7572" lon="6.43597"><ele>1386.2</ele><time>2023-09-20T18:00:06Z</time></trkpt>
<trkpt lat="46.75709" lon="6.43585"><ele>1384.4</ele><time>2023-09-20T18:00:08Z</time></trkpt>
<trkpt lat="46.75701" lon="6.43583"><ele>1383.6</ele><time>2023-09-20T18:00:09Z</time></trkpt>
<trkpt lat="46.75693" lon="6.43582"><ele>1382.6</ele><time>2023-09-20T18:00:10Z</time></trkpt>
<trkpt lat="46.75685" lon="6.43582"><ele>1381.4</ele><time>2023-09-20T18:00:11Z</time></trkpt>
<trkpt lat="46.75672" lon="6.43581"><ele>1379.6</ele><time>2023-09-20T18:00:13Z</time></trkpt>
<trkpt lat="46.75665" lon="6.43579"><ele>1379.2</ele><time>2023-09-20T18:00:14Z</time></trkpt>
<trkpt lat="46.75659" lon="6.43575"><ele>1378.4</ele><time>2023-09-20T18:00:15Z</time></trkpt>
<trkpt lat="46.75653" lon="6.43569"><ele>1377.6</ele><time>2023-09-20T18:00:16Z</time></trkpt>
<trkpt lat="46.75647" lon="6.43563"><ele>1377</ele><time>2023-09-20T18:00:17Z</time></trkpt>
<trkpt lat="46.75637" lon="6.43549"><ele>1375.2</ele><time>2023-09-20T18:00:19Z</time></trkpt>
<trkpt lat="46.7563" lon="6.4353"><ele>1373.4</ele><time>2023-09-20T18:00:21Z</time></trkpt>
<trkpt lat="46.75626" lon="6.4352"><ele>1372.4</ele><time>2023-09-20T18:00:22Z</time></trkpt>
<trkpt lat="46.75623" lon="6.4351"><ele>1371.2</ele><time>2023-09-20T18:00:23Z</time></trkpt>
<trkpt lat="46.75619" lon="6.43489"><ele>1369.4</ele><time>2023-09-20T18:00:25Z</time></trkpt>
<trkpt lat="46.75617" lon="6.43479"><ele>1368.6</ele><time>2023-09-20T18:00:26Z</time></trkpt>
<trkpt lat="46.75616" lon="6.43471"><ele>1368</ele><time>2023-09-20T18:00:27Z</time></trkpt>
<trkpt lat="46.75614" lon="6.43462"><ele>1367.4</ele><time>2023-09-20T18:00:28Z</time></trkpt>
<trkpt lat="46.75611" lon="6.43449"><ele>1366.8</ele><time>2023-09-20T18:00:30Z</time></trkpt>
<trkpt lat="46.7561" lon="6.43442"><ele>1365.4</ele><time>2023-09-20T18:00:32Z</time></trkpt>
<trkpt lat="46.7561" lon="6.43442"><ele>1365</ele><time>2023-09-20T18:00:33Z</time></trkpt>
<trkpt lat="46.7561" lon="6.43442"><ele>1365</ele><time>2023-09-20T18:00:35Z</time></trkpt>
<trkpt lat="46.7561" lon="6.43444"><ele>1364.8</ele><time>2023-09-20T18:00:38Z</time></trkpt>
<trkpt lat="46.75611" lon="6.43445"><ele>1364.4</ele><time>2023-09-20T18:00:46Z</time></trkpt>
<trkpt lat="46.75609" lon="6.43441"><ele>1364.8</ele><time>2023-09-20T18:00:55Z</time></trkpt>
<trkpt lat="46.75607" lon="6.43434"><ele>1364.8</ele><time>2023-09-20T18:00:57Z</time></trkpt>
<trkpt lat="46.75606" lon="6.43429"><ele>1364.4</ele><time>2023-09-20T18:00:58Z</time></trkpt>
<trkpt lat="46.75604" lon="6.43423"><ele>1364</ele><time>2023-09-20T18:00:59Z</time></trkpt>
<trkpt lat="46.756" lon="6.43408"><ele>1362.8</ele><time>2023-09-20T18:01:01Z</time></trkpt>
<trkpt lat="46.75593" lon="6.43378"><ele>1361</ele><time>2023-09-20T18:01:04Z</time></trkpt>
<trkpt lat="46.75591" lon="6.43367"><ele>1360</ele><time>2023-09-20T18:01:05Z</time></trkpt>
<trkpt lat="46.7559" lon="6.43357"><ele>1359.8</ele><time>2023-09-20T18:01:06Z</time></trkpt>
<trkpt lat="46.75589" lon="6.43348"><ele>1358.4</ele><time>2023-09-20T18:01:07Z</time></trkpt>
<trkpt lat="46.75587" lon="6.4333"><ele>1356.6</ele><time>2023-09-20T18:01:09Z</time></trkpt>
<trkpt lat="46.75587" lon="6.43322"><ele>1356</ele><time>2023-09-20T18:01:10Z</time></trkpt>
<trkpt lat="46.75586" lon="6.43313"><ele>1355.4</ele><time>2023-09-20T18:01:11Z</time></trkpt>
<trkpt lat="46.75585" lon="6.43305"><ele>1354.8</ele><time>2023-09-20T18:01:12Z</time></trkpt>
<trkpt lat="46.7558" lon="6.43289"><ele>1353.4</ele><time>2023-09-20T18:01:14Z</time></trkpt>
<trkpt lat="46.75576" lon="6.43282"><ele>1353</ele><time>2023-09-20T18:01:15Z</time></trkpt>
<trkpt lat="46.75572" lon="6.43275"><ele>1351.6</ele><time>2023-09-20T18:01:16Z</time></trkpt>
<trkpt lat="46.75567" lon="6.43269"><ele>1350.6</ele><time>2023-09-20T18:01:17Z</time></trkpt>
<trkpt lat="46.75562" lon="6.43263"><ele>1350</ele><time>2023-09-20T18:01:18Z</time></trkpt>
<trkpt lat="46.75552" lon="6.43251"><ele>1348.8</ele><time>2023-09-20T18:01:20Z</time></trkpt>
<trkpt lat="46.7554" lon="6.4323"><ele>1346.8</ele><time>2023-09-20T18:01:23Z</time></trkpt>
<trkpt lat="46.75536" lon="6.43225"><ele>1346.4</ele><time>2023-09-20T18:01:24Z</time></trkpt>
<trkpt lat="46.7553" lon="6.43222"><ele>1346</ele><time>2023-09-20T18:01:25Z</time></trkpt>
<trkpt lat="46.75524" lon="6.4322"><ele>1345.4</ele><time>2023-09-20T18:01:26Z</time></trkpt>
<trkpt lat="46.75517" lon="6.4322"><ele>1344.2</ele><time>2023-09-20T18:01:27Z</time></trkpt>
<trkpt lat="46.75505" lon="6.43218"><ele>1342.8</ele><time>2023-09-20T18:01:29Z</time></trkpt>
<trkpt lat="46.755" lon="6.43216"><ele>1342</ele><time>2023-09-20T18:01:30Z</time></trkpt>
<trkpt lat="46.75494" lon="6.43212"><ele>1341.4</ele><time>2023-09-20T18:01:31Z</time></trkpt>
<trkpt lat="46.7549" lon="6.43208"><ele>1341</ele><time>2023-09-20T18:01:32Z</time></trkpt>
<trkpt lat="46.75486" lon="6.43202"><ele>1340.2</ele><time>2023-09-20T18:01:33Z</time></trkpt>
<trkpt lat="46.75482" lon="6.43194"><ele>1339.6</ele><time>2023-09-20T18:01:34Z</time></trkpt>
<trkpt lat="46.75478" lon="6.43186"><ele>1338.6</ele><time>2023-09-20T18:01:35Z</time></trkpt>
<trkpt lat="46.75472" lon="6.43169"><ele>1337</ele><time>2023-09-20T18:01:37Z</time></trkpt>
<trkpt lat="46.75468" lon="6.43149"><ele>1335</ele><time>2023-09-20T18:01:39Z</time></trkpt>
<trkpt lat="46.75465" lon="6.43128"><ele>1333.6</ele><time>2023-09-20T18:01:41Z</time></trkpt>
<trkpt lat="46.75463" lon="6.43117"><ele>1333</ele><time>2023-09-20T18:01:42Z</time></trkpt>
<trkpt lat="46.75462" lon="6.43105"><ele>1331.6</ele><time>2023-09-20T18:01:43Z</time></trkpt>
<trkpt lat="46.7546" lon="6.43094"><ele>1330.6</ele><time>2023-09-20T18:01:44Z</time></trkpt>
<trkpt lat="46.75456" lon="6.43061"><ele>1329</ele><time>2023-09-20T18:01:47Z</time></trkpt>
<trkpt lat="46.75453" lon="6.43052"><ele>1328.2</ele><time>2023-09-20T18:01:48Z</time></trkpt>
<trkpt lat="46.75447" lon="6.43045"><ele>1327</ele><time>2023-09-20T18:01:49Z</time></trkpt>
<trkpt lat="46.75441" lon="6.4304"><ele>1325.6</ele><time>2023-09-20T18:01:50Z</time></trkpt>
<trkpt lat="46.75434" lon="6.43037"><ele>1325</ele><time>2023-09-20T18:01:51Z</time></trkpt>
<trkpt lat="46.75428" lon="6.43033"><ele>1324.2</ele><time>2023-09-20T18:01:52Z</time></trkpt>
<trkpt lat="46.75423" lon="6.4303"><ele>1323.8</ele><time>2023-09-20T18:01:53Z</time></trkpt>
<trkpt lat="46.7542" lon="6.43024"><ele>1323.6</ele><time>2023-09-20T18:01:54Z</time></trkpt>
<trkpt lat="46.75418" lon="6.43017"><ele>1323.4</ele><time>2023-09-20T18:01:55Z</time></trkpt>
<trkpt lat="46.75416" lon="6.43009"><ele>1323</ele><time>2023-09-20T18:01:56Z</time></trkpt>
<trkpt lat="46.75415" lon="6.42999"><ele>1322.6</ele><time>2023-09-20T18:01:57Z</time></trkpt>
<trkpt lat="46.75414" lon="6.42989"><ele>1321.4</ele><time>2023-09-20T18:01:58Z</time></trkpt>
<trkpt lat="46.75412" lon="6.42966"><ele>1319.8</ele><time>2023-09-20T18:02:00Z</time></trkpt>
<trkpt lat="46.75409" lon="6.42943"><ele>1317.6</ele><time>2023-09-20T18:02:02Z</time></trkpt>
<trkpt lat="46.75408" lon="6.42931"><ele>1316.2</ele><time>2023-09-20T18:02:03Z</time></trkpt>
<trkpt lat="46.75406" lon="6.42908"><ele>1315</ele><time>2023-09-20T18:02:05Z</time></trkpt>
<trkpt lat="46.75405" lon="6.42898"><ele>1314.2</ele><time>2023-09-20T18:02:06Z</time></trkpt>
<trkpt lat="46.75403" lon="6.42887"><ele>1313.6</ele><time>2023-09-20T18:02:07Z</time></trkpt>
<trkpt lat="46.754" lon="6.42876"><ele>1312.6</ele><time>2023-09-20T18:02:08Z</time></trkpt>
<trkpt lat="46.75395" lon="6.42868"><ele>1311.6</ele><time>2023-09-20T18:02:09Z</time></trkpt>
<trkpt lat="46.75391" lon="6.42859"><ele>1310.6</ele><time>2023-09-20T18:02:10Z</time></trkpt>
<trkpt lat="46.75387" lon="6.42851"><ele>1309.6</ele><time>2023-09-20T18:02:11Z</time></trkpt>
<trkpt lat="46.75382" lon="6.42842"><ele>1308.8</ele><time>2023-09-20T18:02:12Z</time></trkpt>
<trkpt lat="46.75376" lon="6.42833"><ele>1308.2</ele><time>2023-09-20T18:02:13Z</time></trkpt>
<trkpt lat="46.75371" lon="6.42825"><ele>1307.2</ele><time>2023-09-20T18:02:14Z</time></trkpt>
<trkpt lat="46.75366" lon="6.42818"><ele>1305.6</ele><time>2023-09-20T18:02:15Z</time></trkpt>
<trkpt lat="46.75362" lon="6.42811"><ele>1304.6</ele><time>2023-09-20T18:02:16Z</time></trkpt>
<trkpt lat="46.75359" lon="6.42807"><ele>1304.4</ele><time>2023-09-20T18:02:17Z</time></trkpt>
<trkpt lat="46.75351" lon="6.42795"><ele>1303.4</ele><time>2023-09-20T18:02:20Z</time></trkpt>
<trkpt lat="46.75336" lon="6.42772"><ele>1301.6</ele><time>2023-09-20T18:02:24Z</time></trkpt>
<trkpt lat="46.75321" lon="6.42748"><ele>1299.6</ele><time>2023-09-20T18:02:27Z</time></trkpt>
<trkpt lat="46.7531" lon="6.42731"><ele>1298</ele><time>2023-09-20T18:02:29Z</time></trkpt>
<trkpt lat="46.75304" lon="6.42723"><ele>1297</ele><time>2023-09-20T18:02:30Z</time></trkpt>
<trkpt lat="46.75294" lon="6.42707"><ele>1295.6</ele><time>2023-09-20T18:02:32Z</time></trkpt>
<trkpt lat="46.75289" lon="6.42698"><ele>1294.4</ele><time>2023-09-20T18:02:33Z</time></trkpt>
<trkpt lat="46.75281" lon="6.42681"><ele>1293.4</ele><time>2023-09-20T18:02:35Z</time></trkpt>
<trkpt lat="46.75275" lon="6.42661"><ele>1292.6</ele><time>2023-09-20T18:02:37Z</time></trkpt>
<trkpt lat="46.75272" lon="6.4265"><ele>1291.2</ele><time>2023-09-20T18:02:38Z</time></trkpt>
<trkpt lat="46.75271" lon="6.42639"><ele>1290.8</ele><time>2023-09-20T18:02:39Z</time></trkpt>
<trkpt lat="46.75271" lon="6.42628"><ele>1289.8</ele><time>2023-09-20T18:02:40Z</time></trkpt>
<trkpt lat="46.7527" lon="6.42616"><ele>1288</ele><time>2023-09-20T18:02:41Z</time></trkpt>
<trkpt lat="46.7527" lon="6.42593"><ele>1286.4</ele><time>2023-09-20T18:02:43Z</time></trkpt>
<trkpt lat="46.7527" lon="6.42582"><ele>1285.8</ele><time>2023-09-20T18:02:44Z</time></trkpt>
<trkpt lat="46.75271" lon="6.4257"><ele>1284.4</ele><time>2023-09-20T18:02:45Z</time></trkpt>
<trkpt lat="46.75272" lon="6.4255"><ele>1283</ele><time>2023-09-20T18:02:47Z</time></trkpt>
<trkpt lat="46.75272" lon="6.4254"><ele>1282.4</ele><time>2023-09-20T18:02:48Z</time></trkpt>
<trkpt lat="46.75273" lon="6.42529"><ele>1281.8</ele><time>2023-09-20T18:02:49Z</time></trkpt>
<trkpt lat="46.75274" lon="6.42518"><ele>1281.2</ele><time>2023-09-20T18:02:50Z</time></trkpt>
<trkpt lat="46.75276" lon="6.42507"><ele>1280.4</ele><time>2023-09-20T18:02:51Z</time></trkpt>
<trkpt lat="46.75279" lon="6.42497"><ele>1280.2</ele><time>2023-09-20T18:02:52Z</time></trkpt>
<trkpt lat="46.75288" lon="6.42478"><ele>1279.2</ele><time>2023-09-20T18:02:54Z</time></trkpt>
<trkpt lat="46.75293" lon="6.42469"><ele>1279</ele><time>2023-09-20T18:02:55Z</time></trkpt>
<trkpt lat="46.75298" lon="6.4246"><ele>1278.8</ele><time>2023-09-20T18:02:56Z</time></trkpt>
<trkpt lat="46.75309" lon="6.42441"><ele>1278</ele><time>2023-09-20T18:02:58Z</time></trkpt>
<trkpt lat="46.75321" lon="6.4242"><ele>1276.8</ele><time>2023-09-20T18:03:00Z</time></trkpt>
<trkpt lat="46.75327" lon="6.42409"><ele>1275.6</ele><time>2023-09-20T18:03:01Z</time></trkpt>
<trkpt lat="46.75334" lon="6.42398"><ele>1274.6</ele><time>2023-09-20T18:03:02Z</time></trkpt>
<trkpt lat="46.7534" lon="6.42387"><ele>1273</ele><time>2023-09-20T18:03:03Z</time></trkpt>
<trkpt lat="46.75357" lon="6.4235"><ele>1271.6</ele><time>2023-09-20T18:03:06Z</time></trkpt>
<trkpt lat="46.7536" lon="6.42337"><ele>1270.4</ele><time>2023-09-20T18:03:07Z</time></trkpt>
<trkpt lat="46.75359" lon="6.42324"><ele>1268.4</ele><time>2023-09-20T18:03:08Z</time></trkpt>
<trkpt lat="46.75357" lon="6.42311"><ele>1267.8</ele><time>2023-09-20T18:03:09Z</time></trkpt>
<trkpt lat="46.75354" lon="6.42298"><ele>1267.4</ele><time>2023-09-20T18:03:10Z</time></trkpt>
<trkpt lat="46.75349" lon="6.42272"><ele>1265.8</ele><time>2023-09-20T18:03:12Z</time></trkpt>
<trkpt lat="46.75341" lon="6.4223"><ele>1264.4</ele><time>2023-09-20T18:03:15Z</time></trkpt>
<trkpt lat="46.75342" lon="6.42201"><ele>1262.2</ele><time>2023-09-20T18:03:17Z</time></trkpt>
<trkpt lat="46.75344" lon="6.42187"><ele>1261.2</ele><time>2023-09-20T18:03:18Z</time></trkpt>
<trkpt lat="46.75345" lon="6.42176"><ele>1260</ele><time>2023-09-20T18:03:19Z</time></trkpt>
<trkpt lat="46.75346" lon="6.42155"><ele>1258.6</ele><time>2023-09-20T18:03:21Z</time></trkpt>
<trkpt lat="46.75344" lon="6.42147"><ele>1257.6</ele><time>2023-09-20T18:03:22Z</time></trkpt>
<trkpt lat="46.75341" lon="6.4214"><ele>1257.2</ele><time>2023-09-20T18:03:23Z</time></trkpt>
<trkpt lat="46.7533" lon="6.42128"><ele>1256.6</ele><time>2023-09-20T18:03:25Z</time></trkpt>
<trkpt lat="46.75325" lon="6.42122"><ele>1255.8</ele><time>2023-09-20T18:03:26Z</time></trkpt>
<trkpt lat="46.75312" lon="6.42108"><ele>1254.2</ele><time>2023-09-20T18:03:28Z</time></trkpt>
<trkpt lat="46.75303" lon="6.42095"><ele>1252.4</ele><time>2023-09-20T18:03:30Z</time></trkpt>
<trkpt lat="46.75304" lon="6.4208"><ele>1251.6</ele><time>2023-09-20T18:03:32Z</time></trkpt>
<trkpt lat="46.75309" lon="6.42075"><ele>1250.8</ele><time>2023-09-20T18:03:33Z</time></trkpt>
<trkpt lat="46.75315" lon="6.42071"><ele>1250.4</ele><time>2023-09-20T18:03:34Z</time></trkpt>
<trkpt lat="46.75321" lon="6.42067"><ele>1249.2</ele><time>2023-09-20T18:03:35Z</time></trkpt>
<trkpt lat="46.75333" lon="6.42058"><ele>1247.6</ele><time>2023-09-20T18:03:37Z</time></trkpt>
<trkpt lat="46.75335" lon="6.42052"><ele>1246.2</ele><time>2023-09-20T18:03:38Z</time></trkpt>
<trkpt lat="46.75335" lon="6.42044"><ele>1246</ele><time>2023-09-20T18:03:39Z</time></trkpt>
<trkpt lat="46.75329" lon="6.42029"><ele>1245.4</ele><time>2023-09-20T18:03:41Z</time></trkpt>
<trkpt lat="46.75323" lon="6.42022"><ele>1245</ele><time>2023-09-20T18:03:42Z</time></trkpt>
<trkpt lat="46.75311" lon="6.42006"><ele>1243.8</ele><time>2023-09-20T18:03:44Z</time></trkpt>
<trkpt lat="46.753" lon="6.41988"><ele>1241.8</ele><time>2023-09-20T18:03:46Z</time></trkpt>
<trkpt lat="46.75294" lon="6.41965"><ele>1240.4</ele><time>2023-09-20T18:03:48Z</time></trkpt>
<trkpt lat="46.75294" lon="6.41937"><ele>1238.6</ele><time>2023-09-20T18:03:50Z</time></trkpt>
<trkpt lat="46.75294" lon="6.41923"><ele>1237.8</ele><time>2023-09-20T18:03:51Z</time></trkpt>
<trkpt lat="46.75295" lon="6.41909"><ele>1236.6</ele><time>2023-09-20T18:03:52Z</time></trkpt>
<trkpt lat="46.75296" lon="6.41882"><ele>1235.2</ele><time>2023-09-20T18:03:54Z</time></trkpt>
<trkpt lat="46.75296" lon="6.41871"><ele>1234.6</ele><time>2023-09-20T18:03:55Z</time></trkpt>
<trkpt lat="46.75293" lon="6.41853"><ele>1233.2</ele><time>2023-09-20T18:03:57Z</time></trkpt>
<trkpt lat="46.75291" lon="6.41848"><ele>1233</ele><time>2023-09-20T18:03:58Z</time></trkpt>
<trkpt lat="46.75287" lon="6.41842"><ele>1232.2</ele><time>2023-09-20T18:04:00Z</time></trkpt>
<trkpt lat="46.75284" lon="6.4184"><ele>1232</ele><time>2023-09-20T18:04:02Z</time></trkpt>
<trkpt lat="46.75277" lon="6.41837"><ele>1231.2</ele><time>2023-09-20T18:04:06Z</time></trkpt>
<trkpt lat="46.75272" lon="6.41836"><ele>1230.8</ele><time>2023-09-20T18:04:08Z</time></trkpt>
<trkpt lat="46.75264" lon="6.41833"><ele>1229.8</ele><time>2023-09-20T18:04:11Z</time></trkpt>
<trkpt lat="46.75255" lon="6.41829"><ele>1228.6</ele><time>2023-09-20T18:04:14Z</time></trkpt>
<trkpt lat="46.75249" lon="6.41825"><ele>1228.2</ele><time>2023-09-20T18:04:16Z</time></trkpt>
<trkpt lat="46.75243" lon="6.41821"><ele>1227.4</ele><time>2023-09-20T18:04:18Z</time></trkpt>
<trkpt lat="46.7523" lon="6.41812"><ele>1226.4</ele><time>2023-09-20T18:04:22Z</time></trkpt>
<trkpt lat="46.75223" lon="6.41807"><ele>1225.8</ele><time>2023-09-20T18:04:24Z</time></trkpt>
<trkpt lat="46.75219" lon="6.41803"><ele>1225.4</ele><time>2023-09-20T18:04:25Z</time></trkpt>
<trkpt lat="46.75216" lon="6.41798"><ele>1224.8</ele><time>2023-09-20T18:04:26Z</time></trkpt>
<trkpt lat="46.75209" lon="6.41776"><ele>1223.8</ele><time>2023-09-20T18:04:29Z</time></trkpt>
<trkpt lat="46.75203" lon="6.4176"><ele>1222.8</ele><time>2023-09-20T18:04:31Z</time></trkpt>
<trkpt lat="46.75198" lon="6.41753"><ele>1222</ele><time>2023-09-20T18:04:32Z</time></trkpt>
<trkpt lat="46.75192" lon="6.41746"><ele>1221.4</ele><time>2023-09-20T18:04:33Z</time></trkpt>
<trkpt lat="46.75186" lon="6.4174"><ele>1220.4</ele><time>2023-09-20T18:04:34Z</time></trkpt>
<trkpt lat="46.7518" lon="6.41737"><ele>1219.8</ele><time>2023-09-20T18:04:35Z</time></trkpt>
<trkpt lat="46.75175" lon="6.41736"><ele>1219.4</ele><time>2023-09-20T18:04:36Z</time></trkpt>
<trkpt lat="46.7517" lon="6.41739"><ele>1219</ele><time>2023-09-20T18:04:37Z</time></trkpt>
<trkpt lat="46.75162" lon="6.41751"><ele>1217.6</ele><time>2023-09-20T18:04:39Z</time></trkpt>
<trkpt lat="46.7515" lon="6.41763"><ele>1216</ele><time>2023-09-20T18:04:41Z</time></trkpt>
<trkpt lat="46.75134" lon="6.41771"><ele>1214</ele><time>2023-09-20T18:04:43Z</time></trkpt>
<trkpt lat="46.75118" lon="6.41777"><ele>1212.8</ele><time>2023-09-20T18:04:45Z</time></trkpt>
<trkpt lat="46.7511" lon="6.41782"><ele>1211.8</ele><time>2023-09-20T18:04:46Z</time></trkpt>
<trkpt lat="46.75092" lon="6.41786"><ele>1211.2</ele><time>2023-09-20T18:04:48Z</time></trkpt>
<trkpt lat="46.75075" lon="6.41783"><ele>1210.8</ele><time>2023-09-20T18:04:50Z</time></trkpt>
<trkpt lat="46.75067" lon="6.41777"><ele>1209.8</ele><time>2023-09-20T18:04:51Z</time></trkpt>
<trkpt lat="46.75062" lon="6.41769"><ele>1209.2</ele><time>2023-09-20T18:04:52Z</time></trkpt>
<trkpt lat="46.75058" lon="6.41759"><ele>1208.2</ele><time>2023-09-20T18:04:53Z</time></trkpt>
<trkpt lat="46.75056" lon="6.41747"><ele>1207.8</ele><time>2023-09-20T18:04:54Z</time></trkpt>
<trkpt lat="46.7505" lon="6.41724"><ele>1207</ele><time>2023-09-20T18:04:56Z</time></trkpt>
<trkpt lat="46.75046" lon="6.41711"><ele>1205.8</ele><time>2023-09-20T18:04:57Z</time></trkpt>
<trkpt lat="46.75032" lon="6.41693"><ele>1203.8</ele><time>2023-09-20T18:04:59Z</time></trkpt>
<trkpt lat="46.75024" lon="6.4169"><ele>1203.2</ele><time>2023-09-20T18:05:00Z</time></trkpt>
<trkpt lat="46.75015" lon="6.41688"><ele>1202.6</ele><time>2023-09-20T18:05:01Z</time></trkpt>
<trkpt lat="46.74997" lon="6.41684"><ele>1201.2</ele><time>2023-09-20T18:05:03Z</time></trkpt>
<trkpt lat="46.74988" lon="6.41682"><ele>1200.6</ele><time>2023-09-20T18:05:04Z</time></trkpt>
<trkpt lat="46.74979" lon="6.4168"><ele>1200.2</ele><time>2023-09-20T18:05:05Z</time></trkpt>
<trkpt lat="46.7497" lon="6.41678"><ele>1199.4</ele><time>2023-09-20T18:05:06Z</time></trkpt>
<trkpt lat="46.74953" lon="6.41675"><ele>1198.6</ele><time>2023-09-20T18:05:08Z</time></trkpt>
<trkpt lat="46.74936" lon="6.41673"><ele>1198</ele><time>2023-09-20T18:05:10Z</time></trkpt>
<trkpt lat="46.74928" lon="6.41672"><ele>1198</ele><time>2023-09-20T18:05:11Z</time></trkpt>
<trkpt lat="46.74912" lon="6.41667"><ele>1197.6</ele><time>2023-09-20T18:05:13Z</time></trkpt>
<trkpt lat="46.74899" lon="6.41657"><ele>1197</ele><time>2023-09-20T18:05:15Z</time></trkpt>
<trkpt lat="46.74884" lon="6.41648"><ele>1196.6</ele><time>2023-09-20T18:05:17Z</time></trkpt>
<trkpt lat="46.74875" lon="6.41648"><ele>1196</ele><time>2023-09-20T18:05:18Z</time></trkpt>
<trkpt lat="46.74867" lon="6.4165"><ele>1195.4</ele><time>2023-09-20T18:05:19Z</time></trkpt>
<trkpt lat="46.74853" lon="6.41661"><ele>1194.6</ele><time>2023-09-20T18:05:21Z</time></trkpt>
<trkpt lat="46.74847" lon="6.41669"><ele>1194.2</ele><time>2023-09-20T18:05:22Z</time></trkpt>
<trkpt lat="46.74842" lon="6.41679"><ele>1193.8</ele><time>2023-09-20T18:05:23Z</time></trkpt>
<trkpt lat="46.74838" lon="6.41687"><ele>1192.6</ele><time>2023-09-20T18:05:24Z</time></trkpt>
<trkpt lat="46.74837" lon="6.41693"><ele>1192.4</ele><time>2023-09-20T18:05:25Z</time></trkpt>
<trkpt lat="46.74834" lon="6.41699"><ele>1192</ele><time>2023-09-20T18:05:28Z</time></trkpt>
<trkpt lat="46.74833" lon="6.41699"><ele>1192</ele><time>2023-09-20T18:05:29Z</time></trkpt>
<trkpt lat="46.7483" lon="6.41697"><ele>1192</ele><time>2023-09-20T18:05:31Z</time></trkpt>
<trkpt lat="46.7483" lon="6.41695"><ele>1192</ele><time>2023-09-20T18:05:32Z</time></trkpt>
<trkpt lat="46.74831" lon="6.41692"><ele>1192</ele><time>2023-09-20T18:05:33Z</time></trkpt>
<trkpt lat="46.74835" lon="6.41687"><ele>1192.2</ele><time>2023-09-20T18:05:37Z</time></trkpt>
<trkpt lat="46.74833" lon="6.41684"><ele>1192.2</ele><time>2023-09-20T18:05:40Z</time></trkpt>
<trkpt lat="46.74833" lon="6.41686"><ele>1192</ele><time>2023-09-20T18:05:41Z</time></trkpt>
<trkpt lat="46.74833" lon="6.41699"><ele>1191.8</ele><time>2023-09-20T18:05:45Z</time></trkpt>
<trkpt lat="46.74834" lon="6.41711"><ele>1191.6</ele><time>2023-09-20T18:05:47Z</time></trkpt>
<trkpt lat="46.74833" lon="6.41727"><ele>1190.8</ele><time>2023-09-20T18:05:49Z</time></trkpt>
<trkpt lat="46.74834" lon="6.41736"><ele>1190.4</ele><time>2023-09-20T18:05:50Z</time></trkpt>
<trkpt lat="46.74834" lon="6.41755"><ele>1189</ele><time>2023-09-20T18:05:52Z</time></trkpt>
<trkpt lat="46.74834" lon="6.41777"><ele>1187.2</ele><time>2023-09-20T18:05:54Z</time></trkpt>
<trkpt lat="46.74837" lon="6.418"><ele>1185.8</ele><time>2023-09-20T18:05:56Z</time></trkpt>
<trkpt lat="46.74841" lon="6.41822"><ele>1184.4</ele><time>2023-09-20T18:05:58Z</time></trkpt>
<trkpt lat="46.74842" lon="6.41833"><ele>1183.4</ele><time>2023-09-20T18:05:59Z</time></trkpt>
<trkpt lat="46.74841" lon="6.41843"><ele>1182.4</ele><time>2023-09-20T18:06:00Z</time></trkpt>
<trkpt lat="46.74838" lon="6.41852"><ele>1182</ele><time>2023-09-20T18:06:01Z</time></trkpt>
<trkpt lat="46.74833" lon="6.4186"><ele>1181.6</ele><time>2023-09-20T18:06:02Z</time></trkpt>
<trkpt lat="46.74827" lon="6.41866"><ele>1181.4</ele><time>2023-09-20T18:06:03Z</time></trkpt>
<trkpt lat="46.74814" lon="6.41875"><ele>1180</ele><time>2023-09-20T18:06:05Z</time></trkpt>
<trkpt lat="46.74804" lon="6.41891"><ele>1178.4</ele><time>2023-09-20T18:06:07Z</time></trkpt>
<trkpt lat="46.748" lon="6.41901"><ele>1178</ele><time>2023-09-20T18:06:08Z</time></trkpt>
<trkpt lat="46.74798" lon="6.41912"><ele>1177.2</ele><time>2023-09-20T18:06:09Z</time></trkpt>
<trkpt lat="46.74795" lon="6.41923"><ele>1176</ele><time>2023-09-20T18:06:10Z</time></trkpt>
<trkpt lat="46.74792" lon="6.41948"><ele>1174.4</ele><time>2023-09-20T18:06:12Z</time></trkpt>
<trkpt lat="46.74792" lon="6.41961"><ele>1173.4</ele><time>2023-09-20T18:06:13Z</time></trkpt>
<trkpt lat="46.7479" lon="6.41975"><ele>1172.4</ele><time>2023-09-20T18:06:14Z</time></trkpt>
<trkpt lat="46.74788" lon="6.41989"><ele>1171.2</ele><time>2023-09-20T18:06:15Z</time></trkpt>
<trkpt lat="46.74785" lon="6.42003"><ele>1170.4</ele><time>2023-09-20T18:06:16Z</time></trkpt>
<trkpt lat="46.74781" lon="6.42018"><ele>1169.4</ele><time>2023-09-20T18:06:17Z</time></trkpt>
<trkpt lat="46.74777" lon="6.42032"><ele>1167.2</ele><time>2023-09-20T18:06:18Z</time></trkpt>
<trkpt lat="46.74766" lon="6.42075"><ele>1166</ele><time>2023-09-20T18:06:21Z</time></trkpt>
<trkpt lat="46.74762" lon="6.42102"><ele>1164.4</ele><time>2023-09-20T18:06:23Z</time></trkpt>
<trkpt lat="46.7476" lon="6.42116"><ele>1163</ele><time>2023-09-20T18:06:24Z</time></trkpt>
<trkpt lat="46.74759" lon="6.4213"><ele>1161.6</ele><time>2023-09-20T18:06:25Z</time></trkpt>
<trkpt lat="46.74757" lon="6.42145"><ele>1161</ele><time>2023-09-20T18:06:26Z</time></trkpt>
<trkpt lat="46.74755" lon="6.4216"><ele>1159.6</ele><time>2023-09-20T18:06:27Z</time></trkpt>
<trkpt lat="46.7475" lon="6.42191"><ele>1158.6</ele><time>2023-09-20T18:06:29Z</time></trkpt>
<trkpt lat="46.74748" lon="6.42207"><ele>1156.4</ele><time>2023-09-20T18:06:30Z</time></trkpt>
<trkpt lat="46.74745" lon="6.42222"><ele>1155.8</ele><time>2023-09-20T18:06:31Z</time></trkpt>
<trkpt lat="46.74742" lon="6.42236"><ele>1155.2</ele><time>2023-09-20T18:06:32Z</time></trkpt>
<trkpt lat="46.74737" lon="6.42248"><ele>1153.4</ele><time>2023-09-20T18:06:33Z</time></trkpt>
<trkpt lat="46.74732" lon="6.4226"><ele>1152</ele><time>2023-09-20T18:06:34Z</time></trkpt>
<trkpt lat="46.74709" lon="6.42289"><ele>1150.4</ele><time>2023-09-20T18:06:37Z</time></trkpt>
<trkpt lat="46.74704" lon="6.42301"><ele>1148.8</ele><time>2023-09-20T18:06:38Z</time></trkpt>
<trkpt lat="46.74699" lon="6.42314"><ele>1147.4</ele><time>2023-09-20T18:06:39Z</time></trkpt>
<trkpt lat="46.74694" lon="6.42326"><ele>1145.8</ele><time>2023-09-20T18:06:40Z</time></trkpt>
<trkpt lat="46.74681" lon="6.42361"><ele>1144.4</ele><time>2023-09-20T18:06:43Z</time></trkpt>
<trkpt lat="46.74668" lon="6.42393"><ele>1143.6</ele><time>2023-09-20T18:06:46Z</time></trkpt>
<trkpt lat="46.74659" lon="6.42413"><ele>1143.2</ele><time>2023-09-20T18:06:48Z</time></trkpt>
<trkpt lat="46.74631" lon="6.42475"><ele>1141.4</ele><time>2023-09-20T18:06:54Z</time></trkpt>
<trkpt lat="46.74625" lon="6.42487"><ele>1140</ele><time>2023-09-20T18:06:55Z</time></trkpt>
<trkpt lat="46.74614" lon="6.42513"><ele>1137.4</ele><time>2023-09-20T18:06:57Z</time></trkpt>
<trkpt lat="46.74607" lon="6.42527"><ele>1135.6</ele><time>2023-09-20T18:06:58Z</time></trkpt>
<trkpt lat="46.74601" lon="6.42541"><ele>1135.2</ele><time>2023-09-20T18:06:59Z</time></trkpt>
<trkpt lat="46.74594" lon="6.42555"><ele>1132.6</ele><time>2023-09-20T18:07:00Z</time></trkpt>
<trkpt lat="46.7458" lon="6.42585"><ele>1130.6</ele><time>2023-09-20T18:07:02Z</time></trkpt>
<trkpt lat="46.74573" lon="6.426"><ele>1129</ele><time>2023-09-20T18:07:03Z</time></trkpt>
<trkpt lat="46.74567" lon="6.42614"><ele>1127.2</ele><time>2023-09-20T18:07:04Z</time></trkpt>
<trkpt lat="46.7456" lon="6.42628"><ele>1125</ele><time>2023-09-20T18:07:05Z</time></trkpt>
<trkpt lat="46.74555" lon="6.4264"><ele>1123.6</ele><time>2023-09-20T18:07:06Z</time></trkpt>
<trkpt lat="46.74543" lon="6.42662"><ele>1122.2</ele><time>2023-09-20T18:07:08Z</time></trkpt>
<trkpt lat="46.74539" lon="6.42673"><ele>1121</ele><time>2023-09-20T18:07:09Z</time></trkpt>
<trkpt lat="46.74535" lon="6.42686"><ele>1119.6</ele><time>2023-09-20T18:07:10Z</time></trkpt>
<trkpt lat="46.74529" lon="6.4271"><ele>1116.8</ele><time>2023-09-20T18:07:12Z</time></trkpt>
<trkpt lat="46.74527" lon="6.42733"><ele>1115.2</ele><time>2023-09-20T18:07:14Z</time></trkpt>
<trkpt lat="46.74526" lon="6.42743"><ele>1114.2</ele><time>2023-09-20T18:07:15Z</time></trkpt>
<trkpt lat="46.74523" lon="6.42763"><ele>1112.4</ele><time>2023-09-20T18:07:17Z</time></trkpt>
<trkpt lat="46.74518" lon="6.42782"><ele>1110.6</ele><time>2023-09-20T18:07:19Z</time></trkpt>
<trkpt lat="46.74515" lon="6.428"><ele>1109</ele><time>2023-09-20T18:07:21Z</time></trkpt>
<trkpt lat="46.7451" lon="6.42817"><ele>1107.4</ele><time>2023-09-20T18:07:23Z</time></trkpt>
<trkpt lat="46.74508" lon="6.42825"><ele>1106.8</ele><time>2023-09-20T18:07:24Z</time></trkpt>
<trkpt lat="46.74506" lon="6.42833"><ele>1106</ele><time>2023-09-20T18:07:25Z</time></trkpt>
<trkpt lat="46.745" lon="6.4285"><ele>1105</ele><time>2023-09-20T18:07:27Z</time></trkpt>
<trkpt lat="46.74497" lon="6.42858"><ele>1103.8</ele><time>2023-09-20T18:07:28Z</time></trkpt>
<trkpt lat="46.74491" lon="6.42872"><ele>1102.2</ele><time>2023-09-20T18:07:30Z</time></trkpt>
<trkpt lat="46.74487" lon="6.42878"><ele>1101.2</ele><time>2023-09-20T18:07:31Z</time></trkpt>
<trkpt lat="46.74482" lon="6.42883"><ele>1100.4</ele><time>2023-09-20T18:07:32Z</time></trkpt>
<trkpt lat="46.74477" lon="6.42888"><ele>1100.2</ele><time>2023-09-20T18:07:33Z</time></trkpt>
<trkpt lat="46.74473" lon="6.42893"><ele>1099.8</ele><time>2023-09-20T18:07:34Z</time></trkpt>
<trkpt lat="46.74472" lon="6.42906"><ele>1099</ele><time>2023-09-20T18:07:36Z</time></trkpt>
<trkpt lat="46.74474" lon="6.42913"><ele>1098.6</ele><time>2023-09-20T18:07:37Z</time></trkpt>
<trkpt lat="46.74476" lon="6.4292"><ele>1098</ele><time>2023-09-20T18:07:38Z</time></trkpt>
<trkpt lat="46.74479" lon="6.42936"><ele>1097.2</ele><time>2023-09-20T18:07:40Z</time></trkpt>
<trkpt lat="46.7448" lon="6.42946"><ele>1096</ele><time>2023-09-20T18:07:41Z</time></trkpt>
<trkpt lat="46.7448" lon="6.42957"><ele>1095.2</ele><time>2023-09-20T18:07:42Z</time></trkpt>
<trkpt lat="46.74481" lon="6.42968"><ele>1094.4</ele><time>2023-09-20T18:07:43Z</time></trkpt>
<trkpt lat="46.7448" lon="6.42979"><ele>1093.6</ele><time>2023-09-20T18:07:44Z</time></trkpt>
<trkpt lat="46.74479" lon="6.4299"><ele>1092.8</ele><time>2023-09-20T18:07:45Z</time></trkpt>
<trkpt lat="46.74478" lon="6.43001"><ele>1091</ele><time>2023-09-20T18:07:46Z</time></trkpt>
<trkpt lat="46.74477" lon="6.43012"><ele>1089.8</ele><time>2023-09-20T18:07:47Z</time></trkpt>
<trkpt lat="46.74475" lon="6.43037"><ele>1088</ele><time>2023-09-20T18:07:49Z</time></trkpt>
<trkpt lat="46.74473" lon="6.43061"><ele>1086.6</ele><time>2023-09-20T18:07:51Z</time></trkpt>
<trkpt lat="46.74472" lon="6.43074"><ele>1084.4</ele><time>2023-09-20T18:07:52Z</time></trkpt>
<trkpt lat="46.74472" lon="6.43086"><ele>1083.6</ele><time>2023-09-20T18:07:53Z</time></trkpt>
<trkpt lat="46.74473" lon="6.43099"><ele>1082</ele><time>2023-09-20T18:07:54Z</time></trkpt>
<trkpt lat="46.74473" lon="6.43111"><ele>1080.8</ele><time>2023-09-20T18:07:55Z</time></trkpt>
<trkpt lat="46.74474" lon="6.43123"><ele>1079.2</ele><time>2023-09-20T18:07:56Z</time></trkpt>
<trkpt lat="46.74475" lon="6.43144"><ele>1077.8</ele><time>2023-09-20T18:07:58Z</time></trkpt>
<trkpt lat="46.74475" lon="6.43154"><ele>1076.8</ele><time>2023-09-20T18:07:59Z</time></trkpt>
<trkpt lat="46.74473" lon="6.43164"><ele>1076</ele><time>2023-09-20T18:08:00Z</time></trkpt>
<trkpt lat="46.74471" lon="6.43175"><ele>1075.4</ele><time>2023-09-20T18:08:01Z</time></trkpt>
<trkpt lat="46.74468" lon="6.43185"><ele>1074.4</ele><time>2023-09-20T18:08:02Z</time></trkpt>
<trkpt lat="46.74462" lon="6.43207"><ele>1072.8</ele><time>2023-09-20T18:08:04Z</time></trkpt>
<trkpt lat="46.74459" lon="6.43217"><ele>1071.8</ele><time>2023-09-20T18:08:05Z</time></trkpt>
<trkpt lat="46.74456" lon="6.43227"><ele>1070.6</ele><time>2023-09-20T18:08:06Z</time></trkpt>
<trkpt lat="46.74449" lon="6.43246"><ele>1068.6</ele><time>2023-09-20T18:08:08Z</time></trkpt>
<trkpt lat="46.74445" lon="6.43254"><ele>1068.2</ele><time>2023-09-20T18:08:09Z</time></trkpt>
<trkpt lat="46.74439" lon="6.4326"><ele>1067.2</ele><time>2023-09-20T18:08:10Z</time></trkpt>
<trkpt lat="46.74433" lon="6.43265"><ele>1065.6</ele><time>2023-09-20T18:08:11Z</time></trkpt>
<trkpt lat="46.74418" lon="6.4327"><ele>1063.8</ele><time>2023-09-20T18:08:13Z</time></trkpt>
<trkpt lat="46.7441" lon="6.43269"><ele>1063.2</ele><time>2023-09-20T18:08:14Z</time></trkpt>
<trkpt lat="46.74401" lon="6.43269"><ele>1062.4</ele><time>2023-09-20T18:08:15Z</time></trkpt>
<trkpt lat="46.74393" lon="6.43268"><ele>1061.6</ele><time>2023-09-20T18:08:16Z</time></trkpt>
<trkpt lat="46.74385" lon="6.43268"><ele>1059.6</ele><time>2023-09-20T18:08:17Z</time></trkpt>
<trkpt lat="46.74377" lon="6.43267"><ele>1058.4</ele><time>2023-09-20T18:08:18Z</time></trkpt>
<trkpt lat="46.74362" lon="6.43264"><ele>1056</ele><time>2023-09-20T18:08:20Z</time></trkpt>
<trkpt lat="46.74354" lon="6.43261"><ele>1054.6</ele><time>2023-09-20T18:08:21Z</time></trkpt>
<trkpt lat="46.74346" lon="6.4326"><ele>1053.6</ele><time>2023-09-20T18:08:22Z</time></trkpt>
<trkpt lat="46.74339" lon="6.43259"><ele>1051.8</ele><time>2023-09-20T18:08:23Z</time></trkpt>
<trkpt lat="46.74331" lon="6.43259"><ele>1050.4</ele><time>2023-09-20T18:08:24Z</time></trkpt>
<trkpt lat="46.74317" lon="6.43267"><ele>1048.4</ele><time>2023-09-20T18:08:26Z</time></trkpt>
<trkpt lat="46.74301" lon="6.43277"><ele>1046.8</ele><time>2023-09-20T18:08:28Z</time></trkpt>
<trkpt lat="46.74294" lon="6.43282"><ele>1045.4</ele><time>2023-09-20T18:08:29Z</time></trkpt>
<trkpt lat="46.74287" lon="6.43288"><ele>1044</ele><time>2023-09-20T18:08:30Z</time></trkpt>
<trkpt lat="46.74279" lon="6.43294"><ele>1042.6</ele><time>2023-09-20T18:08:31Z</time></trkpt>
<trkpt lat="46.74263" lon="6.43306"><ele>1040.4</ele><time>2023-09-20T18:08:33Z</time></trkpt>
<trkpt lat="46.74255" lon="6.4331"><ele>1039</ele><time>2023-09-20T18:08:34Z</time></trkpt>
<trkpt lat="46.74247" lon="6.43315"><ele>1037.6</ele><time>2023-09-20T18:08:35Z</time></trkpt>
<trkpt lat="46.74231" lon="6.43325"><ele>1035.8</ele><time>2023-09-20T18:08:37Z</time></trkpt>
<trkpt lat="46.74224" lon="6.4333"><ele>1034.2</ele><time>2023-09-20T18:08:38Z</time></trkpt>
<trkpt lat="46.74218" lon="6.43336"><ele>1032.8</ele><time>2023-09-20T18:08:39Z</time></trkpt>
<trkpt lat="46.74213" lon="6.43344"><ele>1031.6</ele><time>2023-09-20T18:08:40Z</time></trkpt>
<trkpt lat="46.74208" lon="6.43353"><ele>1029.8</ele><time>2023-09-20T18:08:41Z</time></trkpt>
<trkpt lat="46.74198" lon="6.43372"><ele>1027.8</ele><time>2023-09-20T18:08:43Z</time></trkpt>
<trkpt lat="46.7419" lon="6.43393"><ele>1025.4</ele><time>2023-09-20T18:08:45Z</time></trkpt>
<trkpt lat="46.74187" lon="6.43404"><ele>1024.4</ele><time>2023-09-20T18:08:46Z</time></trkpt>
<trkpt lat="46.74182" lon="6.43414"><ele>1022.6</ele><time>2023-09-20T18:08:47Z</time></trkpt>
<trkpt lat="46.74172" lon="6.43436"><ele>1020</ele><time>2023-09-20T18:08:49Z</time></trkpt>
<trkpt lat="46.74167" lon="6.43446"><ele>1019</ele><time>2023-09-20T18:08:50Z</time></trkpt>
<trkpt lat="46.74162" lon="6.43457"><ele>1018</ele><time>2023-09-20T18:08:51Z</time></trkpt>
<trkpt lat="46.74158" lon="6.43468"><ele>1016.6</ele><time>2023-09-20T18:08:52Z</time></trkpt>
<trkpt lat="46.74152" lon="6.43479"><ele>1014.8</ele><time>2023-09-20T18:08:53Z</time></trkpt>
<trkpt lat="46.74147" lon="6.43489"><ele>1013.8</ele><time>2023-09-20T18:08:54Z</time></trkpt>
<trkpt lat="46.74142" lon="6.435"><ele>1012.2</ele><time>2023-09-20T18:08:55Z</time></trkpt>
<trkpt lat="46.74137" lon="6.43511"><ele>1011</ele><time>2023-09-20T18:08:56Z</time></trkpt>
<trkpt lat="46.74132" lon="6.43522"><ele>1009.8</ele><time>2023-09-20T18:08:57Z</time></trkpt>
<trkpt lat="46.74128" lon="6.43534"><ele>1008.6</ele><time>2023-09-20T18:08:58Z</time></trkpt>
<trkpt lat="46.74123" lon="6.43545"><ele>1007.2</ele><time>2023-09-20T18:08:59Z</time></trkpt>
<trkpt lat="46.74118" lon="6.43555"><ele>1005.4</ele><time>2023-09-20T18:09:00Z</time></trkpt>
<trkpt lat="46.74112" lon="6.43564"><ele>1003.8</ele><time>2023-09-20T18:09:01Z</time></trkpt>
<trkpt lat="46.741" lon="6.43582"><ele>1001.6</ele><time>2023-09-20T18:09:03Z</time></trkpt>
<trkpt lat="46.74095" lon="6.43591"><ele>1000</ele><time>2023-09-20T18:09:04Z</time></trkpt>
<trkpt lat="46.74085" lon="6.43608"><ele>998.4</ele><time>2023-09-20T18:09:06Z</time></trkpt>
<trkpt lat="46.7408" lon="6.43618"><ele>997.2</ele><time>2023-09-20T18:09:07Z</time></trkpt>
<trkpt lat="46.74076" lon="6.43627"><ele>996.4</ele><time>2023-09-20T18:09:08Z</time></trkpt>
<trkpt lat="46.74071" lon="6.43636"><ele>994.8</ele><time>2023-09-20T18:09:09Z</time></trkpt>
<trkpt lat="46.74067" lon="6.43645"><ele>993.8</ele><time>2023-09-20T18:09:10Z</time></trkpt>
<trkpt lat="46.74062" lon="6.43654"><ele>992.8</ele><time>2023-09-20T18:09:11Z</time></trkpt>
<trkpt lat="46.74058" lon="6.43663"><ele>991.2</ele><time>2023-09-20T18:09:12Z</time></trkpt>
<trkpt lat="46.74053" lon="6.43672"><ele>989.8</ele><time>2023-09-20T18:09:13Z</time></trkpt>
<trkpt lat="46.74048" lon="6.4368"><ele>988.6</ele><time>2023-09-20T18:09:14Z</time></trkpt>
<trkpt lat="46.74043" lon="6.43689"><ele>987.4</ele><time>2023-09-20T18:09:15Z</time></trkpt>
<trkpt lat="46.74038" lon="6.43697"><ele>986.2</ele><time>2023-09-20T18:09:16Z</time></trkpt>
<trkpt lat="46.74033" lon="6.43706"><ele>984.4</ele><time>2023-09-20T18:09:17Z</time></trkpt>
<trkpt lat="46.74028" lon="6.43715"><ele>982.8</ele><time>2023-09-20T18:09:18Z</time></trkpt>
<trkpt lat="46.74023" lon="6.43724"><ele>980.8</ele><time>2023-09-20T18:09:19Z</time></trkpt>
<trkpt lat="46.74017" lon="6.43734"><ele>979.2</ele><time>2023-09-20T18:09:20Z</time></trkpt>
<trkpt lat="46.74012" lon="6.43743"><ele>977.4</ele><time>2023-09-20T18:09:21Z</time></trkpt>
<trkpt lat="46.74006" lon="6.43752"><ele>976.2</ele><time>2023-09-20T18:09:22Z</time></trkpt>
<trkpt lat="46.74002" lon="6.4376"><ele>973.8</ele><time>2023-09-20T18:09:23Z</time></trkpt>
<trkpt lat="46.73997" lon="6.43769"><ele>972</ele><time>2023-09-20T18:09:24Z</time></trkpt>
<trkpt lat="46.73993" lon="6.43777"><ele>970.2</ele><time>2023-09-20T18:09:25Z</time></trkpt>
<trkpt lat="46.7399" lon="6.43786"><ele>968.6</ele><time>2023-09-20T18:09:26Z</time></trkpt>
<trkpt lat="46.73988" lon="6.43797"><ele>967</ele><time>2023-09-20T18:09:27Z</time></trkpt>
<trkpt lat="46.73988" lon="6.43808"><ele>965.6</ele><time>2023-09-20T18:09:28Z</time></trkpt>
<trkpt lat="46.73987" lon="6.43818"><ele>964.2</ele><time>2023-09-20T18:09:29Z</time></trkpt>
<trkpt lat="46.73986" lon="6.4383"><ele>962.8</ele><time>2023-09-20T18:09:30Z</time></trkpt>
<trkpt lat="46.73985" lon="6.43843"><ele>960.8</ele><time>2023-09-20T18:09:31Z</time></trkpt>
<trkpt lat="46.73985" lon="6.43855"><ele>959.6</ele><time>2023-09-20T18:09:32Z</time></trkpt>
<trkpt lat="46.73984" lon="6.43868"><ele>958</ele><time>2023-09-20T18:09:33Z</time></trkpt>
<trkpt lat="46.73984" lon="6.4388"><ele>956</ele><time>2023-09-20T18:09:34Z</time></trkpt>
<trkpt lat="46.73984" lon="6.43892"><ele>954.4</ele><time>2023-09-20T18:09:35Z</time></trkpt>
<trkpt lat="46.73986" lon="6.43906"><ele>952.6</ele><time>2023-09-20T18:09:36Z</time></trkpt>
<trkpt lat="46.73988" lon="6.43921"><ele>951.6</ele><time>2023-09-20T18:09:37Z</time></trkpt>
<trkpt lat="46.73989" lon="6.43937"><ele>950</ele><time>2023-09-20T18:09:38Z</time></trkpt>
<trkpt lat="46.7399" lon="6.43954"><ele>948.6</ele><time>2023-09-20T18:09:39Z</time></trkpt>
<trkpt lat="46.73991" lon="6.43968"><ele>948</ele><time>2023-09-20T18:09:40Z</time></trkpt>
<trkpt lat="46.73993" lon="6.43982"><ele>945.8</ele><time>2023-09-20T18:09:41Z</time></trkpt>
<trkpt lat="46.73994" lon="6.43994"><ele>944.4</ele><time>2023-09-20T18:09:42Z</time></trkpt>
<trkpt lat="46.73997" lon="6.44006"><ele>943.2</ele><time>2023-09-20T18:09:43Z</time></trkpt>
<trkpt lat="46.74001" lon="6.4403"><ele>941.2</ele><time>2023-09-20T18:09:45Z</time></trkpt>
<trkpt lat="46.74003" lon="6.44042"><ele>939.8</ele><time>2023-09-20T18:09:46Z</time></trkpt>
<trkpt lat="46.74004" lon="6.44054"><ele>938.8</ele><time>2023-09-20T18:09:47Z</time></trkpt>
<trkpt lat="46.74008" lon="6.44081"><ele>936.6</ele><time>2023-09-20T18:09:49Z</time></trkpt>
<trkpt lat="46.74009" lon="6.44095"><ele>936</ele><time>2023-09-20T18:09:50Z</time></trkpt>
<trkpt lat="46.7401" lon="6.44109"><ele>933.4</ele><time>2023-09-20T18:09:51Z</time></trkpt>
<trkpt lat="46.74011" lon="6.44137"><ele>931.6</ele><time>2023-09-20T18:09:53Z</time></trkpt>
<trkpt lat="46.74012" lon="6.44151"><ele>930.2</ele><time>2023-09-20T18:09:54Z</time></trkpt>
<trkpt lat="46.74013" lon="6.44167"><ele>928.8</ele><time>2023-09-20T18:09:55Z</time></trkpt>
<trkpt lat="46.74014" lon="6.44182"><ele>926.4</ele><time>2023-09-20T18:09:56Z</time></trkpt>
<trkpt lat="46.74016" lon="6.44198"><ele>925</ele><time>2023-09-20T18:09:57Z</time></trkpt>
<trkpt lat="46.74017" lon="6.44214"><ele>923.4</ele><time>2023-09-20T18:09:58Z</time></trkpt>
<trkpt lat="46.74018" lon="6.44229"><ele>921.6</ele><time>2023-09-20T18:09:59Z</time></trkpt>
<trkpt lat="46.74018" lon="6.44244"><ele>919.2</ele><time>2023-09-20T18:10:00Z</time></trkpt>
<trkpt lat="46.74019" lon="6.44258"><ele>917.6</ele><time>2023-09-20T18:10:01Z</time></trkpt>
<trkpt lat="46.74019" lon="6.44273"><ele>916.4</ele><time>2023-09-20T18:10:02Z</time></trkpt>
<trkpt lat="46.74019" lon="6.44287"><ele>915.2</ele><time>2023-09-20T18:10:03Z</time></trkpt>
<trkpt lat="46.74019" lon="6.44301"><ele>913.8</ele><time>2023-09-20T18:10:04Z</time></trkpt>
<trkpt lat="46.7402" lon="6.44314"><ele>912.2</ele><time>2023-09-20T18:10:05Z</time></trkpt>
<trkpt lat="46.74021" lon="6.44328"><ele>910.8</ele><time>2023-09-20T18:10:06Z</time></trkpt>
<trkpt lat="46.74023" lon="6.44341"><ele>908.8</ele><time>2023-09-20T18:10:07Z</time></trkpt>
<trkpt lat="46.74026" lon="6.44354"><ele>906.6</ele><time>2023-09-20T18:10:08Z</time></trkpt>
<trkpt lat="46.74028" lon="6.44366"><ele>904.6</ele><time>2023-09-20T18:10:09Z</time></trkpt>
<trkpt lat="46.74031" lon="6.44378"><ele>903.6</ele><time>2023-09-20T18:10:10Z</time></trkpt>
<trkpt lat="46.74037" lon="6.44403"><ele>902.2</ele><time>2023-09-20T18:10:12Z</time></trkpt>
<trkpt lat="46.74042" lon="6.4443"><ele>898.8</ele><time>2023-09-20T18:10:14Z</time></trkpt>
<trkpt lat="46.74044" lon="6.44444"><ele>897.2</ele><time>2023-09-20T18:10:15Z</time></trkpt>
<trkpt lat="46.74046" lon="6.44458"><ele>895.6</ele><time>2023-09-20T18:10:16Z</time></trkpt>
<trkpt lat="46.74047" lon="6.4447"><ele>894</ele><time>2023-09-20T18:10:17Z</time></trkpt>
<trkpt lat="46.74047" lon="6.44482"><ele>892.4</ele><time>2023-09-20T18:10:18Z</time></trkpt>
<trkpt lat="46.74047" lon="6.44494"><ele>891.2</ele><time>2023-09-20T18:10:19Z</time></trkpt>
<trkpt lat="46.74048" lon="6.44516"><ele>888.2</ele><time>2023-09-20T18:10:21Z</time></trkpt>
<trkpt lat="46.7405" lon="6.44528"><ele>887</ele><time>2023-09-20T18:10:22Z</time></trkpt>
<trkpt lat="46.74053" lon="6.4454"><ele>885.8</ele><time>2023-09-20T18:10:23Z</time></trkpt>
<trkpt lat="46.74056" lon="6.44552"><ele>885</ele><time>2023-09-20T18:10:24Z</time></trkpt>
<trkpt lat="46.74061" lon="6.44564"><ele>883</ele><time>2023-09-20T18:10:25Z</time></trkpt>
<trkpt lat="46.7407" lon="6.4459"><ele>881.4</ele><time>2023-09-20T18:10:27Z</time></trkpt>
<trkpt lat="46.74076" lon="6.44602"><ele>879.8</ele><time>2023-09-20T18:10:28Z</time></trkpt>
<trkpt lat="46.7408" lon="6.44615"><ele>878.4</ele><time>2023-09-20T18:10:29Z</time></trkpt>
<trkpt lat="46.7409" lon="6.44639"><ele>877.4</ele><time>2023-09-20T18:10:31Z</time></trkpt>
<trkpt lat="46.74095" lon="6.4465"><ele>875.8</ele><time>2023-09-20T18:10:32Z</time></trkpt>
<trkpt lat="46.74099" lon="6.44661"><ele>874.6</ele><time>2023-09-20T18:10:33Z</time></trkpt>
<trkpt lat="46.74108" lon="6.44682"><ele>873.4</ele><time>2023-09-20T18:10:35Z</time></trkpt>
<trkpt lat="46.74111" lon="6.44694"><ele>872</ele><time>2023-09-20T18:10:36Z</time></trkpt>
<trkpt lat="46.74114" lon="6.44706"><ele>871.4</ele><time>2023-09-20T18:10:37Z</time></trkpt>
<trkpt lat="46.74115" lon="6.44719"><ele>870.4</ele><time>2023-09-20T18:10:38Z</time></trkpt>
<trkpt lat="46.74115" lon="6.44732"><ele>869.6</ele><time>2023-09-20T18:10:39Z</time></trkpt>
<trkpt lat="46.74116" lon="6.44744"><ele>868.2</ele><time>2023-09-20T18:10:40Z</time></trkpt>
<trkpt lat="46.74118" lon="6.44756"><ele>866.4</ele><time>2023-09-20T18:10:41Z</time></trkpt>
<trkpt lat="46.7412" lon="6.44768"><ele>864.4</ele><time>2023-09-20T18:10:42Z</time></trkpt>
<trkpt lat="46.74123" lon="6.4478"><ele>863</ele><time>2023-09-20T18:10:43Z</time></trkpt>
<trkpt lat="46.74126" lon="6.44792"><ele>862</ele><time>2023-09-20T18:10:44Z</time></trkpt>
<trkpt lat="46.74132" lon="6.44816"><ele>860.2</ele><time>2023-09-20T18:10:46Z</time></trkpt>
<trkpt lat="46.74134" lon="6.44827"><ele>858.4</ele><time>2023-09-20T18:10:47Z</time></trkpt>
<trkpt lat="46.74137" lon="6.44839"><ele>857.2</ele><time>2023-09-20T18:10:48Z</time></trkpt>
<trkpt lat="46.74139" lon="6.44851"><ele>855.2</ele><time>2023-09-20T18:10:49Z</time></trkpt>
<trkpt lat="46.74144" lon="6.44877"><ele>853.8</ele><time>2023-09-20T18:10:51Z</time></trkpt>
<trkpt lat="46.74152" lon="6.44905"><ele>851.2</ele><time>2023-09-20T18:10:53Z</time></trkpt>
<trkpt lat="46.74157" lon="6.44919"><ele>850.2</ele><time>2023-09-20T18:10:54Z</time></trkpt>
<trkpt lat="46.74167" lon="6.44949"><ele>847.4</ele><time>2023-09-20T18:10:56Z</time></trkpt>
<trkpt lat="46.7417" lon="6.44965"><ele>846</ele><time>2023-09-20T18:10:57Z</time></trkpt>
<trkpt lat="46.74173" lon="6.44982"><ele>844.6</ele><time>2023-09-20T18:10:58Z</time></trkpt>
<trkpt lat="46.74176" lon="6.44998"><ele>843.2</ele><time>2023-09-20T18:10:59Z</time></trkpt>
<trkpt lat="46.74184" lon="6.45032"><ele>841.8</ele><time>2023-09-20T18:11:01Z</time></trkpt>
<trkpt lat="46.74188" lon="6.45049"><ele>840.4</ele><time>2023-09-20T18:11:02Z</time></trkpt>
<trkpt lat="46.74191" lon="6.45065"><ele>839.8</ele><time>2023-09-20T18:11:03Z</time></trkpt>
<trkpt lat="46.74196" lon="6.45082"><ele>839.4</ele><time>2023-09-20T18:11:04Z</time></trkpt>
<trkpt lat="46.742" lon="6.45099"><ele>838.2</ele><time>2023-09-20T18:11:05Z</time></trkpt>
<trkpt lat="46.74204" lon="6.45116"><ele>835.8</ele><time>2023-09-20T18:11:06Z</time></trkpt>
<trkpt lat="46.74208" lon="6.45134"><ele>834.8</ele><time>2023-09-20T18:11:07Z</time></trkpt>
<trkpt lat="46.74211" lon="6.45151"><ele>833.2</ele><time>2023-09-20T18:11:08Z</time></trkpt>
<trkpt lat="46.74215" lon="6.45186"><ele>832</ele><time>2023-09-20T18:11:10Z</time></trkpt>
<trkpt lat="46.74216" lon="6.45204"><ele>830.4</ele><time>2023-09-20T18:11:11Z</time></trkpt>
<trkpt lat="46.74217" lon="6.45222"><ele>828.8</ele><time>2023-09-20T18:11:12Z</time></trkpt>
<trkpt lat="46.74218" lon="6.4526"><ele>826.6</ele><time>2023-09-20T18:11:14Z</time></trkpt>
<trkpt lat="46.74218" lon="6.45279"><ele>825.4</ele><time>2023-09-20T18:11:15Z</time></trkpt>
<trkpt lat="46.74218" lon="6.45297"><ele>824.4</ele><time>2023-09-20T18:11:16Z</time></trkpt>
<trkpt lat="46.74218" lon="6.45315"><ele>822.8</ele><time>2023-09-20T18:11:17Z</time></trkpt>
<trkpt lat="46.74216" lon="6.45347"><ele>821.6</ele><time>2023-09-20T18:11:19Z</time></trkpt>
<trkpt lat="46.74216" lon="6.45363"><ele>820</ele><time>2023-09-20T18:11:20Z</time></trkpt>
<trkpt lat="46.74216" lon="6.45378"><ele>818.6</ele><time>2023-09-20T18:11:21Z</time></trkpt>
<trkpt lat="46.74217" lon="6.45392"><ele>816.6</ele><time>2023-09-20T18:11:22Z</time></trkpt>
<trkpt lat="46.74217" lon="6.45418"><ele>815</ele><time>2023-09-20T18:11:24Z</time></trkpt>
<trkpt lat="46.74216" lon="6.45432"><ele>814.6</ele><time>2023-09-20T18:11:25Z</time></trkpt>
<trkpt lat="46.74213" lon="6.45458"><ele>813.8</ele><time>2023-09-20T18:11:27Z</time></trkpt>
<trkpt lat="46.74211" lon="6.45472"><ele>812.2</ele><time>2023-09-20T18:11:28Z</time></trkpt>
<trkpt lat="46.74209" lon="6.45498"><ele>811</ele><time>2023-09-20T18:11:30Z</time></trkpt>
<trkpt lat="46.74206" lon="6.45524"><ele>809.4</ele><time>2023-09-20T18:11:32Z</time></trkpt>
<trkpt lat="46.74204" lon="6.45537"><ele>808.6</ele><time>2023-09-20T18:11:33Z</time></trkpt>
<trkpt lat="46.74203" lon="6.4555"><ele>808</ele><time>2023-09-20T18:11:34Z</time></trkpt>
<trkpt lat="46.74197" lon="6.45597"><ele>806.2</ele><time>2023-09-20T18:11:38Z</time></trkpt>
<trkpt lat="46.74196" lon="6.45608"><ele>805.6</ele><time>2023-09-20T18:11:39Z</time></trkpt>
<trkpt lat="46.74195" lon="6.45618"><ele>805</ele><time>2023-09-20T18:11:40Z</time></trkpt>
<trkpt lat="46.74194" lon="6.45652"><ele>803.8</ele><time>2023-09-20T18:11:44Z</time></trkpt>
<trkpt lat="46.74189" lon="6.45665"><ele>803.2</ele><time>2023-09-20T18:11:46Z</time></trkpt>
<trkpt lat="46.74183" lon="6.45672"><ele>802.6</ele><time>2023-09-20T18:11:47Z</time></trkpt>
<trkpt lat="46.74175" lon="6.45686"><ele>801.2</ele><time>2023-09-20T18:11:49Z</time></trkpt>
<trkpt lat="46.7417" lon="6.45692"><ele>799.8</ele><time>2023-09-20T18:11:50Z</time></trkpt>
<trkpt lat="46.74159" lon="6.45695"><ele>798.8</ele><time>2023-09-20T18:11:52Z</time></trkpt>
<trkpt lat="46.74149" lon="6.45688"><ele>798.4</ele><time>2023-09-20T18:11:54Z</time></trkpt>
<trkpt lat="46.74143" lon="6.45683"><ele>797.6</ele><time>2023-09-20T18:11:55Z</time></trkpt>
<trkpt lat="46.74139" lon="6.45676"><ele>796.8</ele><time>2023-09-20T18:11:56Z</time></trkpt>
<trkpt lat="46.74135" lon="6.45669"><ele>795.6</ele><time>2023-09-20T18:11:57Z</time></trkpt>
<trkpt lat="46.74128" lon="6.45655"><ele>794.8</ele><time>2023-09-20T18:11:59Z</time></trkpt>
<trkpt lat="46.74124" lon="6.45649"><ele>794.2</ele><time>2023-09-20T18:12:00Z</time></trkpt>
<trkpt lat="46.74112" lon="6.45646"><ele>792.6</ele><time>2023-09-20T18:12:02Z</time></trkpt>
<trkpt lat="46.74097" lon="6.4565"><ele>790.8</ele><time>2023-09-20T18:12:04Z</time></trkpt>
<trkpt lat="46.74089" lon="6.45653"><ele>789.8</ele><time>2023-09-20T18:12:05Z</time></trkpt>
<trkpt lat="46.74081" lon="6.45656"><ele>788.8</ele><time>2023-09-20T18:12:06Z</time></trkpt>
<trkpt lat="46.74074" lon="6.45658"><ele>786.8</ele><time>2023-09-20T18:12:07Z</time></trkpt>
<trkpt lat="46.74069" lon="6.45661"><ele>785.4</ele><time>2023-09-20T18:12:08Z</time></trkpt>
<trkpt lat="46.74064" lon="6.45663"><ele>785</ele><time>2023-09-20T18:12:09Z</time></trkpt>
<trkpt lat="46.74055" lon="6.45665"><ele>784</ele><time>2023-09-20T18:12:11Z</time></trkpt>
<trkpt lat="46.74045" lon="6.4566"><ele>783.4</ele><time>2023-09-20T18:12:13Z</time></trkpt>
<trkpt lat="46.74042" lon="6.45656"><ele>782.8</ele><time>2023-09-20T18:12:14Z</time></trkpt>
<trkpt lat="46.74038" lon="6.45652"><ele>781.8</ele><time>2023-09-20T18:12:15Z</time></trkpt>
<trkpt lat="46.74036" lon="6.45648"><ele>781.4</ele><time>2023-09-20T18:12:16Z</time></trkpt>
<trkpt lat="46.74033" lon="6.45645"><ele>781.4</ele><time>2023-09-20T18:12:17Z</time></trkpt>
<trkpt lat="46.74028" lon="6.45644"><ele>781.2</ele><time>2023-09-20T18:12:19Z</time></trkpt>
<trkpt lat="46.74025" lon="6.45647"><ele>781</ele><time>2023-09-20T18:12:20Z</time></trkpt>
<trkpt lat="46.74019" lon="6.45653"><ele>780.4</ele><time>2023-09-20T18:12:22Z</time></trkpt>
<trkpt lat="46.74013" lon="6.45654"><ele>779.6</ele><time>2023-09-20T18:12:24Z</time></trkpt>
<trkpt lat="46.7401" lon="6.45655"><ele>779.2</ele><time>2023-09-20T18:12:25Z</time></trkpt>
<trkpt lat="46.74002" lon="6.45653"><ele>778</ele><time>2023-09-20T18:12:28Z</time></trkpt>
<trkpt lat="46.74" lon="6.45652"><ele>778</ele><time>2023-09-20T18:12:29Z</time></trkpt>
<trkpt lat="46.73993" lon="6.45655"><ele>777.2</ele><time>2023-09-20T18:12:33Z</time></trkpt>
<trkpt lat="46.73991" lon="6.45659"><ele>777</ele><time>2023-09-20T18:12:34Z</time></trkpt>
<trkpt lat="46.73988" lon="6.4567"><ele>776.8</ele><time>2023-09-20T18:12:36Z</time></trkpt>
<trkpt lat="46.73987" lon="6.45684"><ele>776</ele><time>2023-09-20T18:12:38Z</time></trkpt>
<trkpt lat="46.73981" lon="6.45724"><ele>774.8</ele><time>2023-09-20T18:12:43Z</time></trkpt>
<trkpt lat="46.73979" lon="6.45731"><ele>774.6</ele><time>2023-09-20T18:12:44Z</time></trkpt>
<trkpt lat="46.73974" lon="6.45742"><ele>773.8</ele><time>2023-09-20T18:12:46Z</time></trkpt>
<trkpt lat="46.73974" lon="6.45752"><ele>773.4</ele><time>2023-09-20T18:12:48Z</time></trkpt>
<trkpt lat="46.73976" lon="6.45753"><ele>773.4</ele><time>2023-09-20T18:12:49Z</time></trkpt>
<trkpt lat="46.73988" lon="6.45749"><ele>773.8</ele><time>2023-09-20T18:12:53Z</time></trkpt>
<trkpt lat="46.74" lon="6.45745"><ele>773.6</ele><time>2023-09-20T18:12:59Z</time></trkpt>
<trkpt lat="46.74002" lon="6.45745"><ele>773.6</ele><time>2023-09-20T18:13:03Z</time></trkpt>
</trkseg></trk></gpx>